<?xml version="1.0" encoding="UTF-8" standalone="no" ?>
<gpx xmlns="http://www.topografix.com/GPX/1/1" xmlns:xsi="http://www.w3.org/2001/XMLSchema-instance" xsi:schemaLocation="http://www.topografix.com/GPX/1/1 http://www.topografix.com/GPX/1/1/gpx.xsd" version="1.1" creator="VisuGPX - https://www.visugpx.com">
  <metadata>
    <name>Fontainebleau 2013</name>
    <desc><![CDATA[Circuit entre le château et le loing ]]></desc>
  </metadata>
  <trk>
    <name><![CDATA[JUIL-07-13 14:49:06]]></name>
    <trkseg>
      <trkpt lat="48.3993" lon="2.70856">
        <ele>52.53</ele>
        <time>2013-07-07T09:05:53Z</time>
      </trkpt>
      <trkpt lat="48.39923" lon="2.70856">
        <ele>53.49</ele>
        <time>2013-07-07T09:06:17Z</time>
      </trkpt>
      <trkpt lat="48.39914" lon="2.7086">
        <ele>53.97</ele>
        <time>2013-07-07T09:06:28Z</time>
      </trkpt>
      <trkpt lat="48.39912" lon="2.70859">
        <ele>53.97</ele>
        <time>2013-07-07T09:06:31Z</time>
      </trkpt>
      <trkpt lat="48.39902" lon="2.70876">
        <ele>54.45</ele>
        <time>2013-07-07T09:06:47Z</time>
      </trkpt>
      <trkpt lat="48.39895" lon="2.70881">
        <ele>53.97</ele>
        <time>2013-07-07T09:06:57Z</time>
      </trkpt>
      <trkpt lat="48.39886" lon="2.70889">
        <ele>54.45</ele>
        <time>2013-07-07T09:07:08Z</time>
      </trkpt>
      <trkpt lat="48.39875" lon="2.70893">
        <ele>55.89</ele>
        <time>2013-07-07T09:07:18Z</time>
      </trkpt>
      <trkpt lat="48.39866" lon="2.70899">
        <ele>55.41</ele>
        <time>2013-07-07T09:07:26Z</time>
      </trkpt>
      <trkpt lat="48.39864" lon="2.70904">
        <ele>56.37</ele>
        <time>2013-07-07T09:07:31Z</time>
      </trkpt>
      <trkpt lat="48.39855" lon="2.70911">
        <ele>56.86</ele>
        <time>2013-07-07T09:07:40Z</time>
      </trkpt>
      <trkpt lat="48.39851" lon="2.70914">
        <ele>56.86</ele>
        <time>2013-07-07T09:07:45Z</time>
      </trkpt>
      <trkpt lat="48.39847" lon="2.70917">
        <ele>57.82</ele>
        <time>2013-07-07T09:07:48Z</time>
      </trkpt>
      <trkpt lat="48.39844" lon="2.70921">
        <ele>57.34</ele>
        <time>2013-07-07T09:07:51Z</time>
      </trkpt>
      <trkpt lat="48.39826" lon="2.70929">
        <ele>57.82</ele>
        <time>2013-07-07T09:08:04Z</time>
      </trkpt>
      <trkpt lat="48.39809" lon="2.7094">
        <ele>58.78</ele>
        <time>2013-07-07T09:08:17Z</time>
      </trkpt>
      <trkpt lat="48.39803" lon="2.70947">
        <ele>58.78</ele>
        <time>2013-07-07T09:08:26Z</time>
      </trkpt>
      <trkpt lat="48.39801" lon="2.70948">
        <ele>58.78</ele>
        <time>2013-07-07T09:08:28Z</time>
      </trkpt>
      <trkpt lat="48.39789" lon="2.70957">
        <ele>59.26</ele>
        <time>2013-07-07T09:08:39Z</time>
      </trkpt>
      <trkpt lat="48.39788" lon="2.70958">
        <ele>58.78</ele>
        <time>2013-07-07T09:08:40Z</time>
      </trkpt>
      <trkpt lat="48.39783" lon="2.70965">
        <ele>59.74</ele>
        <time>2013-07-07T09:08:46Z</time>
      </trkpt>
      <trkpt lat="48.39773" lon="2.70975">
        <ele>59.74</ele>
        <time>2013-07-07T09:08:57Z</time>
      </trkpt>
      <trkpt lat="48.39761" lon="2.70985">
        <ele>59.74</ele>
        <time>2013-07-07T09:09:09Z</time>
      </trkpt>
      <trkpt lat="48.39747" lon="2.70998">
        <ele>60.7</ele>
        <time>2013-07-07T09:09:21Z</time>
      </trkpt>
      <trkpt lat="48.39733" lon="2.71009">
        <ele>60.7</ele>
        <time>2013-07-07T09:09:34Z</time>
      </trkpt>
      <trkpt lat="48.39726" lon="2.71016">
        <ele>61.18</ele>
        <time>2013-07-07T09:09:42Z</time>
      </trkpt>
      <trkpt lat="48.39719" lon="2.71022">
        <ele>61.18</ele>
        <time>2013-07-07T09:09:48Z</time>
      </trkpt>
      <trkpt lat="48.39709" lon="2.71031">
        <ele>62.14</ele>
        <time>2013-07-07T09:09:58Z</time>
      </trkpt>
      <trkpt lat="48.39705" lon="2.71034">
        <ele>61.66</ele>
        <time>2013-07-07T09:10:02Z</time>
      </trkpt>
      <trkpt lat="48.39702" lon="2.71037">
        <ele>62.14</ele>
        <time>2013-07-07T09:10:05Z</time>
      </trkpt>
      <trkpt lat="48.39697" lon="2.71041">
        <ele>61.66</ele>
        <time>2013-07-07T09:10:10Z</time>
      </trkpt>
      <trkpt lat="48.39687" lon="2.71047">
        <ele>62.62</ele>
        <time>2013-07-07T09:10:21Z</time>
      </trkpt>
      <trkpt lat="48.39678" lon="2.71049">
        <ele>63.1</ele>
        <time>2013-07-07T09:10:29Z</time>
      </trkpt>
      <trkpt lat="48.39663" lon="2.71046">
        <ele>62.62</ele>
        <time>2013-07-07T09:10:41Z</time>
      </trkpt>
      <trkpt lat="48.39654" lon="2.71043">
        <ele>63.58</ele>
        <time>2013-07-07T09:10:53Z</time>
      </trkpt>
      <trkpt lat="48.39652" lon="2.71041">
        <ele>64.07</ele>
        <time>2013-07-07T09:11:04Z</time>
      </trkpt>
      <trkpt lat="48.3965" lon="2.7104">
        <ele>64.55</ele>
        <time>2013-07-07T09:11:06Z</time>
      </trkpt>
      <trkpt lat="48.39645" lon="2.71042">
        <ele>64.55</ele>
        <time>2013-07-07T09:11:10Z</time>
      </trkpt>
      <trkpt lat="48.39645" lon="2.71055">
        <ele>63.58</ele>
        <time>2013-07-07T09:11:16Z</time>
      </trkpt>
      <trkpt lat="48.39644" lon="2.71078">
        <ele>63.58</ele>
        <time>2013-07-07T09:11:27Z</time>
      </trkpt>
      <trkpt lat="48.39643" lon="2.71084">
        <ele>63.58</ele>
        <time>2013-07-07T09:11:30Z</time>
      </trkpt>
      <trkpt lat="48.39645" lon="2.71097">
        <ele>63.58</ele>
        <time>2013-07-07T09:11:36Z</time>
      </trkpt>
      <trkpt lat="48.39645" lon="2.71106">
        <ele>64.55</ele>
        <time>2013-07-07T09:11:42Z</time>
      </trkpt>
      <trkpt lat="48.39641" lon="2.71138">
        <ele>64.07</ele>
        <time>2013-07-07T09:11:57Z</time>
      </trkpt>
      <trkpt lat="48.39642" lon="2.71148">
        <ele>64.07</ele>
        <time>2013-07-07T09:12:02Z</time>
      </trkpt>
      <trkpt lat="48.39641" lon="2.71153">
        <ele>64.07</ele>
        <time>2013-07-07T09:12:05Z</time>
      </trkpt>
      <trkpt lat="48.39637" lon="2.71157">
        <ele>64.55</ele>
        <time>2013-07-07T09:12:11Z</time>
      </trkpt>
      <trkpt lat="48.39633" lon="2.71156">
        <ele>64.55</ele>
        <time>2013-07-07T09:12:16Z</time>
      </trkpt>
      <trkpt lat="48.39621" lon="2.71169">
        <ele>64.07</ele>
        <time>2013-07-07T09:12:28Z</time>
      </trkpt>
      <trkpt lat="48.39614" lon="2.71169">
        <ele>65.03</ele>
        <time>2013-07-07T09:12:32Z</time>
      </trkpt>
      <trkpt lat="48.39609" lon="2.71172">
        <ele>64.55</ele>
        <time>2013-07-07T09:12:35Z</time>
      </trkpt>
      <trkpt lat="48.39597" lon="2.71176">
        <ele>65.51</ele>
        <time>2013-07-07T09:12:45Z</time>
      </trkpt>
      <trkpt lat="48.39584" lon="2.71181">
        <ele>65.03</ele>
        <time>2013-07-07T09:12:56Z</time>
      </trkpt>
      <trkpt lat="48.39577" lon="2.71183">
        <ele>65.03</ele>
        <time>2013-07-07T09:13:02Z</time>
      </trkpt>
      <trkpt lat="48.39565" lon="2.7119">
        <ele>65.51</ele>
        <time>2013-07-07T09:13:15Z</time>
      </trkpt>
      <trkpt lat="48.39559" lon="2.71191">
        <ele>65.51</ele>
        <time>2013-07-07T09:13:21Z</time>
      </trkpt>
      <trkpt lat="48.39556" lon="2.71184">
        <ele>65.51</ele>
        <time>2013-07-07T09:13:26Z</time>
      </trkpt>
      <trkpt lat="48.39558" lon="2.71156">
        <ele>65.51</ele>
        <time>2013-07-07T09:13:41Z</time>
      </trkpt>
      <trkpt lat="48.39561" lon="2.71134">
        <ele>65.99</ele>
        <time>2013-07-07T09:13:53Z</time>
      </trkpt>
      <trkpt lat="48.39565" lon="2.71112">
        <ele>67.43</ele>
        <time>2013-07-07T09:14:05Z</time>
      </trkpt>
      <trkpt lat="48.39567" lon="2.71089">
        <ele>65.99</ele>
        <time>2013-07-07T09:14:17Z</time>
      </trkpt>
      <trkpt lat="48.39567" lon="2.71086">
        <ele>66.47</ele>
        <time>2013-07-07T09:14:21Z</time>
      </trkpt>
      <trkpt lat="48.39568" lon="2.7107">
        <ele>66.47</ele>
        <time>2013-07-07T09:14:29Z</time>
      </trkpt>
      <trkpt lat="48.3957" lon="2.71038">
        <ele>65.99</ele>
        <time>2013-07-07T09:14:44Z</time>
      </trkpt>
      <trkpt lat="48.39571" lon="2.71019">
        <ele>66.47</ele>
        <time>2013-07-07T09:14:55Z</time>
      </trkpt>
      <trkpt lat="48.39573" lon="2.70992">
        <ele>66.47</ele>
        <time>2013-07-07T09:15:08Z</time>
      </trkpt>
      <trkpt lat="48.39571" lon="2.70986">
        <ele>66.47</ele>
        <time>2013-07-07T09:15:11Z</time>
      </trkpt>
      <trkpt lat="48.39574" lon="2.70959">
        <ele>66.47</ele>
        <time>2013-07-07T09:15:25Z</time>
      </trkpt>
      <trkpt lat="48.39574" lon="2.70956">
        <ele>65.99</ele>
        <time>2013-07-07T09:15:27Z</time>
      </trkpt>
      <trkpt lat="48.39574" lon="2.70946">
        <ele>66.47</ele>
        <time>2013-07-07T09:15:32Z</time>
      </trkpt>
      <trkpt lat="48.39576" lon="2.70922">
        <ele>66.47</ele>
        <time>2013-07-07T09:15:45Z</time>
      </trkpt>
      <trkpt lat="48.39578" lon="2.70914">
        <ele>66.47</ele>
        <time>2013-07-07T09:15:49Z</time>
      </trkpt>
      <trkpt lat="48.3958" lon="2.70895">
        <ele>65.99</ele>
        <time>2013-07-07T09:16:01Z</time>
      </trkpt>
      <trkpt lat="48.39585" lon="2.70868">
        <ele>66.95</ele>
        <time>2013-07-07T09:16:15Z</time>
      </trkpt>
      <trkpt lat="48.39586" lon="2.70863">
        <ele>66.47</ele>
        <time>2013-07-07T09:16:17Z</time>
      </trkpt>
      <trkpt lat="48.39584" lon="2.70842">
        <ele>65.99</ele>
        <time>2013-07-07T09:16:28Z</time>
      </trkpt>
      <trkpt lat="48.39584" lon="2.70837">
        <ele>66.47</ele>
        <time>2013-07-07T09:16:31Z</time>
      </trkpt>
      <trkpt lat="48.39583" lon="2.70828">
        <ele>66.47</ele>
        <time>2013-07-07T09:16:36Z</time>
      </trkpt>
      <trkpt lat="48.39585" lon="2.70819">
        <ele>65.99</ele>
        <time>2013-07-07T09:16:41Z</time>
      </trkpt>
      <trkpt lat="48.3959" lon="2.70788">
        <ele>65.99</ele>
        <time>2013-07-07T09:16:57Z</time>
      </trkpt>
      <trkpt lat="48.3959" lon="2.70779">
        <ele>65.51</ele>
        <time>2013-07-07T09:17:02Z</time>
      </trkpt>
      <trkpt lat="48.3959" lon="2.70773">
        <ele>66.47</ele>
        <time>2013-07-07T09:17:05Z</time>
      </trkpt>
      <trkpt lat="48.39587" lon="2.70751">
        <ele>65.99</ele>
        <time>2013-07-07T09:17:16Z</time>
      </trkpt>
      <trkpt lat="48.39588" lon="2.70738">
        <ele>65.51</ele>
        <time>2013-07-07T09:17:23Z</time>
      </trkpt>
      <trkpt lat="48.39589" lon="2.70727">
        <ele>65.99</ele>
        <time>2013-07-07T09:17:29Z</time>
      </trkpt>
      <trkpt lat="48.39591" lon="2.70703">
        <ele>65.99</ele>
        <time>2013-07-07T09:17:41Z</time>
      </trkpt>
      <trkpt lat="48.39593" lon="2.70682">
        <ele>65.99</ele>
        <time>2013-07-07T09:17:53Z</time>
      </trkpt>
      <trkpt lat="48.39597" lon="2.70665">
        <ele>65.99</ele>
        <time>2013-07-07T09:18:02Z</time>
      </trkpt>
      <trkpt lat="48.39597" lon="2.70658">
        <ele>66.47</ele>
        <time>2013-07-07T09:18:06Z</time>
      </trkpt>
      <trkpt lat="48.39595" lon="2.70646">
        <ele>65.99</ele>
        <time>2013-07-07T09:18:11Z</time>
      </trkpt>
      <trkpt lat="48.39594" lon="2.70634">
        <ele>65.51</ele>
        <time>2013-07-07T09:18:17Z</time>
      </trkpt>
      <trkpt lat="48.3959" lon="2.70609">
        <ele>65.99</ele>
        <time>2013-07-07T09:18:30Z</time>
      </trkpt>
      <trkpt lat="48.3959" lon="2.706">
        <ele>66.47</ele>
        <time>2013-07-07T09:18:34Z</time>
      </trkpt>
      <trkpt lat="48.39587" lon="2.70589">
        <ele>65.99</ele>
        <time>2013-07-07T09:18:40Z</time>
      </trkpt>
      <trkpt lat="48.39586" lon="2.70563">
        <ele>66.47</ele>
        <time>2013-07-07T09:18:53Z</time>
      </trkpt>
      <trkpt lat="48.39584" lon="2.70552">
        <ele>65.51</ele>
        <time>2013-07-07T09:18:58Z</time>
      </trkpt>
      <trkpt lat="48.3958" lon="2.70527">
        <ele>65.99</ele>
        <time>2013-07-07T09:19:11Z</time>
      </trkpt>
      <trkpt lat="48.39577" lon="2.70515">
        <ele>65.99</ele>
        <time>2013-07-07T09:19:17Z</time>
      </trkpt>
      <trkpt lat="48.39576" lon="2.70503">
        <ele>65.51</ele>
        <time>2013-07-07T09:19:23Z</time>
      </trkpt>
      <trkpt lat="48.39575" lon="2.70496">
        <ele>65.51</ele>
        <time>2013-07-07T09:19:27Z</time>
      </trkpt>
      <trkpt lat="48.39571" lon="2.70472">
        <ele>65.51</ele>
        <time>2013-07-07T09:19:39Z</time>
      </trkpt>
      <trkpt lat="48.39565" lon="2.70451">
        <ele>65.03</ele>
        <time>2013-07-07T09:19:51Z</time>
      </trkpt>
      <trkpt lat="48.39565" lon="2.7045">
        <ele>65.99</ele>
        <time>2013-07-07T09:19:52Z</time>
      </trkpt>
      <trkpt lat="48.39562" lon="2.7044">
        <ele>65.99</ele>
        <time>2013-07-07T09:19:57Z</time>
      </trkpt>
      <trkpt lat="48.39561" lon="2.7043">
        <ele>65.99</ele>
        <time>2013-07-07T09:20:02Z</time>
      </trkpt>
      <trkpt lat="48.39557" lon="2.70414">
        <ele>65.51</ele>
        <time>2013-07-07T09:20:10Z</time>
      </trkpt>
      <trkpt lat="48.39554" lon="2.70403">
        <ele>65.51</ele>
        <time>2013-07-07T09:20:16Z</time>
      </trkpt>
      <trkpt lat="48.3955" lon="2.70388">
        <ele>65.51</ele>
        <time>2013-07-07T09:20:25Z</time>
      </trkpt>
      <trkpt lat="48.39546" lon="2.70367">
        <ele>65.51</ele>
        <time>2013-07-07T09:20:35Z</time>
      </trkpt>
      <trkpt lat="48.39539" lon="2.70345">
        <ele>66.47</ele>
        <time>2013-07-07T09:20:47Z</time>
      </trkpt>
      <trkpt lat="48.39538" lon="2.7034">
        <ele>65.99</ele>
        <time>2013-07-07T09:20:50Z</time>
      </trkpt>
      <trkpt lat="48.39532" lon="2.7032">
        <ele>65.51</ele>
        <time>2013-07-07T09:21:02Z</time>
      </trkpt>
      <trkpt lat="48.39531" lon="2.70317">
        <ele>65.99</ele>
        <time>2013-07-07T09:21:04Z</time>
      </trkpt>
      <trkpt lat="48.39528" lon="2.703">
        <ele>65.99</ele>
        <time>2013-07-07T09:21:12Z</time>
      </trkpt>
      <trkpt lat="48.39526" lon="2.70292">
        <ele>66.47</ele>
        <time>2013-07-07T09:21:16Z</time>
      </trkpt>
      <trkpt lat="48.3952" lon="2.70271">
        <ele>65.99</ele>
        <time>2013-07-07T09:21:27Z</time>
      </trkpt>
      <trkpt lat="48.39517" lon="2.70252">
        <ele>66.95</ele>
        <time>2013-07-07T09:21:37Z</time>
      </trkpt>
      <trkpt lat="48.39515" lon="2.70245">
        <ele>66.47</ele>
        <time>2013-07-07T09:21:41Z</time>
      </trkpt>
      <trkpt lat="48.39512" lon="2.70241">
        <ele>66.47</ele>
        <time>2013-07-07T09:21:56Z</time>
      </trkpt>
      <trkpt lat="48.39512" lon="2.70241">
        <ele>66.47</ele>
        <time>2013-07-07T09:22:11Z</time>
      </trkpt>
      <trkpt lat="48.39512" lon="2.7024">
        <ele>66.95</ele>
        <time>2013-07-07T09:22:13Z</time>
      </trkpt>
      <trkpt lat="48.39509" lon="2.7022">
        <ele>66.47</ele>
        <time>2013-07-07T09:22:23Z</time>
      </trkpt>
      <trkpt lat="48.39507" lon="2.70202">
        <ele>65.99</ele>
        <time>2013-07-07T09:22:34Z</time>
      </trkpt>
      <trkpt lat="48.39504" lon="2.70185">
        <ele>65.51</ele>
        <time>2013-07-07T09:22:43Z</time>
      </trkpt>
      <trkpt lat="48.39495" lon="2.70152">
        <ele>65.51</ele>
        <time>2013-07-07T09:22:58Z</time>
      </trkpt>
      <trkpt lat="48.39494" lon="2.70151">
        <ele>65.99</ele>
        <time>2013-07-07T09:22:59Z</time>
      </trkpt>
      <trkpt lat="48.39491" lon="2.7012">
        <ele>65.51</ele>
        <time>2013-07-07T09:23:13Z</time>
      </trkpt>
      <trkpt lat="48.39491" lon="2.70117">
        <ele>66.47</ele>
        <time>2013-07-07T09:23:14Z</time>
      </trkpt>
      <trkpt lat="48.39485" lon="2.70102">
        <ele>66.47</ele>
        <time>2013-07-07T09:23:20Z</time>
      </trkpt>
      <trkpt lat="48.39475" lon="2.70077">
        <ele>65.99</ele>
        <time>2013-07-07T09:23:33Z</time>
      </trkpt>
      <trkpt lat="48.39473" lon="2.70055">
        <ele>66.47</ele>
        <time>2013-07-07T09:23:45Z</time>
      </trkpt>
      <trkpt lat="48.39472" lon="2.70044">
        <ele>65.99</ele>
        <time>2013-07-07T09:23:50Z</time>
      </trkpt>
      <trkpt lat="48.39465" lon="2.70015">
        <ele>66.95</ele>
        <time>2013-07-07T09:24:04Z</time>
      </trkpt>
      <trkpt lat="48.39464" lon="2.70014">
        <ele>67.43</ele>
        <time>2013-07-07T09:24:05Z</time>
      </trkpt>
      <trkpt lat="48.39456" lon="2.69981">
        <ele>67.43</ele>
        <time>2013-07-07T09:24:19Z</time>
      </trkpt>
      <trkpt lat="48.39449" lon="2.69953">
        <ele>66.95</ele>
        <time>2013-07-07T09:24:31Z</time>
      </trkpt>
      <trkpt lat="48.39447" lon="2.69939">
        <ele>66.95</ele>
        <time>2013-07-07T09:24:37Z</time>
      </trkpt>
      <trkpt lat="48.39443" lon="2.69922">
        <ele>67.43</ele>
        <time>2013-07-07T09:24:45Z</time>
      </trkpt>
      <trkpt lat="48.39442" lon="2.69913">
        <ele>66.95</ele>
        <time>2013-07-07T09:24:49Z</time>
      </trkpt>
      <trkpt lat="48.39435" lon="2.69887">
        <ele>67.43</ele>
        <time>2013-07-07T09:25:01Z</time>
      </trkpt>
      <trkpt lat="48.39431" lon="2.69878">
        <ele>66.95</ele>
        <time>2013-07-07T09:25:07Z</time>
      </trkpt>
      <trkpt lat="48.39429" lon="2.69853">
        <ele>67.43</ele>
        <time>2013-07-07T09:25:20Z</time>
      </trkpt>
      <trkpt lat="48.39426" lon="2.69831">
        <ele>67.91</ele>
        <time>2013-07-07T09:25:29Z</time>
      </trkpt>
      <trkpt lat="48.39424" lon="2.69826">
        <ele>67.43</ele>
        <time>2013-07-07T09:25:33Z</time>
      </trkpt>
      <trkpt lat="48.3942" lon="2.6982">
        <ele>67.43</ele>
        <time>2013-07-07T09:25:37Z</time>
      </trkpt>
      <trkpt lat="48.39414" lon="2.69791">
        <ele>67.43</ele>
        <time>2013-07-07T09:25:51Z</time>
      </trkpt>
      <trkpt lat="48.3941" lon="2.69763">
        <ele>67.43</ele>
        <time>2013-07-07T09:26:03Z</time>
      </trkpt>
      <trkpt lat="48.39403" lon="2.69737">
        <ele>67.43</ele>
        <time>2013-07-07T09:26:17Z</time>
      </trkpt>
      <trkpt lat="48.394" lon="2.6972">
        <ele>66.95</ele>
        <time>2013-07-07T09:26:25Z</time>
      </trkpt>
      <trkpt lat="48.39399" lon="2.69713">
        <ele>66.95</ele>
        <time>2013-07-07T09:26:30Z</time>
      </trkpt>
      <trkpt lat="48.39395" lon="2.69688">
        <ele>67.91</ele>
        <time>2013-07-07T09:26:43Z</time>
      </trkpt>
      <trkpt lat="48.39395" lon="2.69684">
        <ele>67.91</ele>
        <time>2013-07-07T09:26:45Z</time>
      </trkpt>
      <trkpt lat="48.39387" lon="2.69656">
        <ele>67.91</ele>
        <time>2013-07-07T09:27:00Z</time>
      </trkpt>
      <trkpt lat="48.3938" lon="2.6963">
        <ele>67.91</ele>
        <time>2013-07-07T09:27:12Z</time>
      </trkpt>
      <trkpt lat="48.39377" lon="2.69619">
        <ele>66.47</ele>
        <time>2013-07-07T09:27:17Z</time>
      </trkpt>
      <trkpt lat="48.39373" lon="2.69604">
        <ele>67.43</ele>
        <time>2013-07-07T09:27:25Z</time>
      </trkpt>
      <trkpt lat="48.39368" lon="2.69582">
        <ele>66.95</ele>
        <time>2013-07-07T09:27:37Z</time>
      </trkpt>
      <trkpt lat="48.39366" lon="2.69558">
        <ele>65.99</ele>
        <time>2013-07-07T09:27:49Z</time>
      </trkpt>
      <trkpt lat="48.3936" lon="2.69547">
        <ele>66.47</ele>
        <time>2013-07-07T09:27:59Z</time>
      </trkpt>
      <trkpt lat="48.39356" lon="2.69528">
        <ele>66.95</ele>
        <time>2013-07-07T09:28:12Z</time>
      </trkpt>
      <trkpt lat="48.39355" lon="2.69525">
        <ele>67.43</ele>
        <time>2013-07-07T09:28:15Z</time>
      </trkpt>
      <trkpt lat="48.39354" lon="2.6952">
        <ele>66.95</ele>
        <time>2013-07-07T09:28:20Z</time>
      </trkpt>
      <trkpt lat="48.39352" lon="2.69498">
        <ele>67.91</ele>
        <time>2013-07-07T09:28:31Z</time>
      </trkpt>
      <trkpt lat="48.3935" lon="2.69491">
        <ele>66.47</ele>
        <time>2013-07-07T09:28:35Z</time>
      </trkpt>
      <trkpt lat="48.39347" lon="2.6948">
        <ele>66.95</ele>
        <time>2013-07-07T09:28:39Z</time>
      </trkpt>
      <trkpt lat="48.39341" lon="2.69458">
        <ele>67.43</ele>
        <time>2013-07-07T09:28:49Z</time>
      </trkpt>
      <trkpt lat="48.39338" lon="2.69434">
        <ele>67.43</ele>
        <time>2013-07-07T09:29:01Z</time>
      </trkpt>
      <trkpt lat="48.39333" lon="2.69412">
        <ele>66.47</ele>
        <time>2013-07-07T09:29:14Z</time>
      </trkpt>
      <trkpt lat="48.39328" lon="2.69385">
        <ele>66.95</ele>
        <time>2013-07-07T09:29:27Z</time>
      </trkpt>
      <trkpt lat="48.39326" lon="2.69374">
        <ele>66.95</ele>
        <time>2013-07-07T09:29:33Z</time>
      </trkpt>
      <trkpt lat="48.39322" lon="2.6936">
        <ele>66.95</ele>
        <time>2013-07-07T09:29:40Z</time>
      </trkpt>
      <trkpt lat="48.39317" lon="2.69348">
        <ele>67.91</ele>
        <time>2013-07-07T09:29:47Z</time>
      </trkpt>
      <trkpt lat="48.39315" lon="2.69346">
        <ele>67.43</ele>
        <time>2013-07-07T09:29:49Z</time>
      </trkpt>
      <trkpt lat="48.39312" lon="2.69328">
        <ele>66.95</ele>
        <time>2013-07-07T09:30:00Z</time>
      </trkpt>
      <trkpt lat="48.39308" lon="2.69306">
        <ele>67.43</ele>
        <time>2013-07-07T09:30:12Z</time>
      </trkpt>
      <trkpt lat="48.39306" lon="2.69296">
        <ele>67.43</ele>
        <time>2013-07-07T09:30:18Z</time>
      </trkpt>
      <trkpt lat="48.39302" lon="2.6927">
        <ele>67.43</ele>
        <time>2013-07-07T09:30:31Z</time>
      </trkpt>
      <trkpt lat="48.39298" lon="2.69248">
        <ele>67.43</ele>
        <time>2013-07-07T09:30:43Z</time>
      </trkpt>
      <trkpt lat="48.39294" lon="2.69236">
        <ele>67.43</ele>
        <time>2013-07-07T09:30:49Z</time>
      </trkpt>
      <trkpt lat="48.39292" lon="2.69229">
        <ele>67.91</ele>
        <time>2013-07-07T09:30:52Z</time>
      </trkpt>
      <trkpt lat="48.39285" lon="2.69201">
        <ele>66.95</ele>
        <time>2013-07-07T09:31:07Z</time>
      </trkpt>
      <trkpt lat="48.39281" lon="2.69183">
        <ele>67.91</ele>
        <time>2013-07-07T09:31:18Z</time>
      </trkpt>
      <trkpt lat="48.39278" lon="2.69169">
        <ele>67.91</ele>
        <time>2013-07-07T09:31:29Z</time>
      </trkpt>
      <trkpt lat="48.3927" lon="2.69135">
        <ele>67.91</ele>
        <time>2013-07-07T09:31:44Z</time>
      </trkpt>
      <trkpt lat="48.39268" lon="2.69116">
        <ele>68.39</ele>
        <time>2013-07-07T09:31:55Z</time>
      </trkpt>
      <trkpt lat="48.39263" lon="2.69094">
        <ele>68.39</ele>
        <time>2013-07-07T09:32:07Z</time>
      </trkpt>
      <trkpt lat="48.39262" lon="2.69087">
        <ele>68.39</ele>
        <time>2013-07-07T09:32:13Z</time>
      </trkpt>
      <trkpt lat="48.39256" lon="2.69079">
        <ele>68.39</ele>
        <time>2013-07-07T09:32:23Z</time>
      </trkpt>
      <trkpt lat="48.39256" lon="2.69077">
        <ele>67.91</ele>
        <time>2013-07-07T09:32:30Z</time>
      </trkpt>
      <trkpt lat="48.39257" lon="2.69072">
        <ele>68.39</ele>
        <time>2013-07-07T09:32:39Z</time>
      </trkpt>
      <trkpt lat="48.39257" lon="2.69071">
        <ele>67.91</ele>
        <time>2013-07-07T09:32:41Z</time>
      </trkpt>
      <trkpt lat="48.39255" lon="2.69062">
        <ele>68.39</ele>
        <time>2013-07-07T09:32:45Z</time>
      </trkpt>
      <trkpt lat="48.39251" lon="2.69038">
        <ele>68.87</ele>
        <time>2013-07-07T09:32:56Z</time>
      </trkpt>
      <trkpt lat="48.39244" lon="2.6903">
        <ele>68.39</ele>
        <time>2013-07-07T09:33:07Z</time>
      </trkpt>
      <trkpt lat="48.39238" lon="2.69013">
        <ele>69.35</ele>
        <time>2013-07-07T09:33:17Z</time>
      </trkpt>
      <trkpt lat="48.39227" lon="2.68994">
        <ele>69.83</ele>
        <time>2013-07-07T09:33:30Z</time>
      </trkpt>
      <trkpt lat="48.3922" lon="2.68983">
        <ele>68.87</ele>
        <time>2013-07-07T09:33:41Z</time>
      </trkpt>
      <trkpt lat="48.39212" lon="2.68966">
        <ele>69.83</ele>
        <time>2013-07-07T09:33:53Z</time>
      </trkpt>
      <trkpt lat="48.3921" lon="2.6896">
        <ele>69.83</ele>
        <time>2013-07-07T09:33:55Z</time>
      </trkpt>
      <trkpt lat="48.39201" lon="2.68945">
        <ele>68.87</ele>
        <time>2013-07-07T09:34:05Z</time>
      </trkpt>
      <trkpt lat="48.39199" lon="2.68941">
        <ele>68.87</ele>
        <time>2013-07-07T09:34:08Z</time>
      </trkpt>
      <trkpt lat="48.39188" lon="2.68925">
        <ele>68.87</ele>
        <time>2013-07-07T09:34:19Z</time>
      </trkpt>
      <trkpt lat="48.39185" lon="2.68919">
        <ele>69.35</ele>
        <time>2013-07-07T09:34:23Z</time>
      </trkpt>
      <trkpt lat="48.3918" lon="2.68908">
        <ele>69.35</ele>
        <time>2013-07-07T09:34:29Z</time>
      </trkpt>
      <trkpt lat="48.39175" lon="2.68898">
        <ele>69.83</ele>
        <time>2013-07-07T09:34:35Z</time>
      </trkpt>
      <trkpt lat="48.39173" lon="2.68893">
        <ele>69.83</ele>
        <time>2013-07-07T09:34:40Z</time>
      </trkpt>
      <trkpt lat="48.39172" lon="2.68891">
        <ele>69.83</ele>
        <time>2013-07-07T09:34:42Z</time>
      </trkpt>
      <trkpt lat="48.3916" lon="2.68869">
        <ele>70.31</ele>
        <time>2013-07-07T09:34:54Z</time>
      </trkpt>
      <trkpt lat="48.39157" lon="2.68864">
        <ele>68.87</ele>
        <time>2013-07-07T09:34:57Z</time>
      </trkpt>
      <trkpt lat="48.39152" lon="2.6886">
        <ele>69.35</ele>
        <time>2013-07-07T09:35:01Z</time>
      </trkpt>
      <trkpt lat="48.39145" lon="2.68844">
        <ele>68.87</ele>
        <time>2013-07-07T09:35:11Z</time>
      </trkpt>
      <trkpt lat="48.39135" lon="2.68825">
        <ele>69.83</ele>
        <time>2013-07-07T09:35:24Z</time>
      </trkpt>
      <trkpt lat="48.39124" lon="2.68805">
        <ele>69.35</ele>
        <time>2013-07-07T09:35:36Z</time>
      </trkpt>
      <trkpt lat="48.39122" lon="2.68802">
        <ele>68.39</ele>
        <time>2013-07-07T09:35:38Z</time>
      </trkpt>
      <trkpt lat="48.39116" lon="2.68791">
        <ele>69.35</ele>
        <time>2013-07-07T09:35:45Z</time>
      </trkpt>
      <trkpt lat="48.3911" lon="2.68778">
        <ele>69.35</ele>
        <time>2013-07-07T09:35:53Z</time>
      </trkpt>
      <trkpt lat="48.39107" lon="2.68773">
        <ele>69.35</ele>
        <time>2013-07-07T09:35:56Z</time>
      </trkpt>
      <trkpt lat="48.39104" lon="2.68764">
        <ele>69.35</ele>
        <time>2013-07-07T09:36:00Z</time>
      </trkpt>
      <trkpt lat="48.39101" lon="2.68756">
        <ele>68.87</ele>
        <time>2013-07-07T09:36:05Z</time>
      </trkpt>
      <trkpt lat="48.39094" lon="2.68745">
        <ele>68.87</ele>
        <time>2013-07-07T09:36:12Z</time>
      </trkpt>
      <trkpt lat="48.3909" lon="2.68737">
        <ele>69.83</ele>
        <time>2013-07-07T09:36:18Z</time>
      </trkpt>
      <trkpt lat="48.39088" lon="2.68732">
        <ele>68.87</ele>
        <time>2013-07-07T09:36:22Z</time>
      </trkpt>
      <trkpt lat="48.39079" lon="2.68714">
        <ele>69.35</ele>
        <time>2013-07-07T09:36:33Z</time>
      </trkpt>
      <trkpt lat="48.39073" lon="2.68703">
        <ele>69.35</ele>
        <time>2013-07-07T09:36:39Z</time>
      </trkpt>
      <trkpt lat="48.3907" lon="2.68699">
        <ele>69.83</ele>
        <time>2013-07-07T09:36:42Z</time>
      </trkpt>
      <trkpt lat="48.39063" lon="2.68687">
        <ele>69.83</ele>
        <time>2013-07-07T09:36:51Z</time>
      </trkpt>
      <trkpt lat="48.39057" lon="2.68678">
        <ele>69.35</ele>
        <time>2013-07-07T09:36:57Z</time>
      </trkpt>
      <trkpt lat="48.39056" lon="2.68673">
        <ele>70.31</ele>
        <time>2013-07-07T09:36:59Z</time>
      </trkpt>
      <trkpt lat="48.39054" lon="2.68668">
        <ele>69.35</ele>
        <time>2013-07-07T09:37:01Z</time>
      </trkpt>
      <trkpt lat="48.39043" lon="2.68646">
        <ele>69.83</ele>
        <time>2013-07-07T09:37:13Z</time>
      </trkpt>
      <trkpt lat="48.39042" lon="2.68643">
        <ele>70.31</ele>
        <time>2013-07-07T09:37:15Z</time>
      </trkpt>
      <trkpt lat="48.39031" lon="2.68626">
        <ele>70.79</ele>
        <time>2013-07-07T09:37:27Z</time>
      </trkpt>
      <trkpt lat="48.39028" lon="2.6862">
        <ele>70.31</ele>
        <time>2013-07-07T09:37:31Z</time>
      </trkpt>
      <trkpt lat="48.3902" lon="2.68607">
        <ele>71.27</ele>
        <time>2013-07-07T09:37:39Z</time>
      </trkpt>
      <trkpt lat="48.39017" lon="2.686">
        <ele>70.31</ele>
        <time>2013-07-07T09:37:43Z</time>
      </trkpt>
      <trkpt lat="48.39008" lon="2.68588">
        <ele>70.79</ele>
        <time>2013-07-07T09:37:54Z</time>
      </trkpt>
      <trkpt lat="48.39006" lon="2.68585">
        <ele>70.31</ele>
        <time>2013-07-07T09:37:56Z</time>
      </trkpt>
      <trkpt lat="48.39003" lon="2.6858">
        <ele>70.79</ele>
        <time>2013-07-07T09:37:59Z</time>
      </trkpt>
      <trkpt lat="48.38999" lon="2.68568">
        <ele>71.76</ele>
        <time>2013-07-07T09:38:06Z</time>
      </trkpt>
      <trkpt lat="48.38997" lon="2.68566">
        <ele>70.31</ele>
        <time>2013-07-07T09:38:08Z</time>
      </trkpt>
      <trkpt lat="48.38992" lon="2.68555">
        <ele>71.27</ele>
        <time>2013-07-07T09:38:15Z</time>
      </trkpt>
      <trkpt lat="48.38981" lon="2.68535">
        <ele>70.31</ele>
        <time>2013-07-07T09:38:29Z</time>
      </trkpt>
      <trkpt lat="48.38974" lon="2.68523">
        <ele>70.79</ele>
        <time>2013-07-07T09:38:37Z</time>
      </trkpt>
      <trkpt lat="48.38962" lon="2.68504">
        <ele>70.79</ele>
        <time>2013-07-07T09:38:49Z</time>
      </trkpt>
      <trkpt lat="48.3895" lon="2.68482">
        <ele>69.83</ele>
        <time>2013-07-07T09:39:03Z</time>
      </trkpt>
      <trkpt lat="48.38939" lon="2.68463">
        <ele>70.31</ele>
        <time>2013-07-07T09:39:17Z</time>
      </trkpt>
      <trkpt lat="48.38929" lon="2.68447">
        <ele>70.79</ele>
        <time>2013-07-07T09:39:28Z</time>
      </trkpt>
      <trkpt lat="48.38924" lon="2.6844">
        <ele>69.83</ele>
        <time>2013-07-07T09:39:33Z</time>
      </trkpt>
      <trkpt lat="48.38912" lon="2.68417">
        <ele>71.27</ele>
        <time>2013-07-07T09:39:49Z</time>
      </trkpt>
      <trkpt lat="48.38911" lon="2.68414">
        <ele>70.79</ele>
        <time>2013-07-07T09:39:51Z</time>
      </trkpt>
      <trkpt lat="48.38899" lon="2.68395">
        <ele>70.79</ele>
        <time>2013-07-07T09:40:04Z</time>
      </trkpt>
      <trkpt lat="48.38892" lon="2.68382">
        <ele>71.27</ele>
        <time>2013-07-07T09:40:13Z</time>
      </trkpt>
      <trkpt lat="48.38888" lon="2.68374">
        <ele>70.79</ele>
        <time>2013-07-07T09:40:18Z</time>
      </trkpt>
      <trkpt lat="48.38881" lon="2.68365">
        <ele>70.79</ele>
        <time>2013-07-07T09:40:25Z</time>
      </trkpt>
      <trkpt lat="48.38878" lon="2.68356">
        <ele>71.27</ele>
        <time>2013-07-07T09:40:29Z</time>
      </trkpt>
      <trkpt lat="48.38867" lon="2.6834">
        <ele>70.31</ele>
        <time>2013-07-07T09:40:42Z</time>
      </trkpt>
      <trkpt lat="48.38858" lon="2.68324">
        <ele>71.76</ele>
        <time>2013-07-07T09:40:53Z</time>
      </trkpt>
      <trkpt lat="48.38847" lon="2.68306">
        <ele>71.27</ele>
        <time>2013-07-07T09:41:05Z</time>
      </trkpt>
      <trkpt lat="48.38837" lon="2.6829">
        <ele>71.76</ele>
        <time>2013-07-07T09:41:17Z</time>
      </trkpt>
      <trkpt lat="48.38827" lon="2.6827">
        <ele>71.27</ele>
        <time>2013-07-07T09:41:31Z</time>
      </trkpt>
      <trkpt lat="48.38825" lon="2.68269">
        <ele>71.27</ele>
        <time>2013-07-07T09:41:32Z</time>
      </trkpt>
      <trkpt lat="48.38823" lon="2.68264">
        <ele>72.24</ele>
        <time>2013-07-07T09:41:36Z</time>
      </trkpt>
      <trkpt lat="48.38818" lon="2.68257">
        <ele>71.27</ele>
        <time>2013-07-07T09:41:40Z</time>
      </trkpt>
      <trkpt lat="48.38807" lon="2.68241">
        <ele>70.79</ele>
        <time>2013-07-07T09:41:53Z</time>
      </trkpt>
      <trkpt lat="48.38798" lon="2.68223">
        <ele>70.79</ele>
        <time>2013-07-07T09:42:05Z</time>
      </trkpt>
      <trkpt lat="48.38788" lon="2.68207">
        <ele>71.27</ele>
        <time>2013-07-07T09:42:14Z</time>
      </trkpt>
      <trkpt lat="48.38783" lon="2.68199">
        <ele>71.27</ele>
        <time>2013-07-07T09:42:18Z</time>
      </trkpt>
      <trkpt lat="48.38772" lon="2.68181">
        <ele>71.27</ele>
        <time>2013-07-07T09:42:31Z</time>
      </trkpt>
      <trkpt lat="48.3877" lon="2.68179">
        <ele>71.27</ele>
        <time>2013-07-07T09:42:33Z</time>
      </trkpt>
      <trkpt lat="48.38764" lon="2.6818">
        <ele>71.27</ele>
        <time>2013-07-07T09:42:40Z</time>
      </trkpt>
      <trkpt lat="48.38762" lon="2.68179">
        <ele>70.79</ele>
        <time>2013-07-07T09:42:42Z</time>
      </trkpt>
      <trkpt lat="48.38741" lon="2.68178">
        <ele>70.79</ele>
        <time>2013-07-07T09:42:59Z</time>
      </trkpt>
      <trkpt lat="48.38731" lon="2.68177">
        <ele>72.72</ele>
        <time>2013-07-07T09:43:09Z</time>
      </trkpt>
      <trkpt lat="48.38729" lon="2.68177">
        <ele>72.72</ele>
        <time>2013-07-07T09:43:11Z</time>
      </trkpt>
      <trkpt lat="48.38714" lon="2.68177">
        <ele>73.68</ele>
        <time>2013-07-07T09:43:23Z</time>
      </trkpt>
      <trkpt lat="48.38708" lon="2.68178">
        <ele>75.12</ele>
        <time>2013-07-07T09:43:28Z</time>
      </trkpt>
      <trkpt lat="48.38706" lon="2.6818">
        <ele>75.12</ele>
        <time>2013-07-07T09:43:30Z</time>
      </trkpt>
      <trkpt lat="48.38704" lon="2.68179">
        <ele>76.08</ele>
        <time>2013-07-07T09:43:32Z</time>
      </trkpt>
      <trkpt lat="48.38703" lon="2.68178">
        <ele>76.08</ele>
        <time>2013-07-07T09:43:33Z</time>
      </trkpt>
      <trkpt lat="48.38692" lon="2.68177">
        <ele>78</ele>
        <time>2013-07-07T09:43:45Z</time>
      </trkpt>
      <trkpt lat="48.38684" lon="2.68181">
        <ele>79.45</ele>
        <time>2013-07-07T09:43:55Z</time>
      </trkpt>
      <trkpt lat="48.38675" lon="2.68179">
        <ele>79.93</ele>
        <time>2013-07-07T09:44:03Z</time>
      </trkpt>
      <trkpt lat="48.38669" lon="2.6818">
        <ele>81.85</ele>
        <time>2013-07-07T09:44:12Z</time>
      </trkpt>
      <trkpt lat="48.38666" lon="2.68178">
        <ele>81.85</ele>
        <time>2013-07-07T09:44:14Z</time>
      </trkpt>
      <trkpt lat="48.38658" lon="2.68178">
        <ele>85.21</ele>
        <time>2013-07-07T09:44:28Z</time>
      </trkpt>
      <trkpt lat="48.3865" lon="2.68176">
        <ele>87.14</ele>
        <time>2013-07-07T09:44:39Z</time>
      </trkpt>
      <trkpt lat="48.38639" lon="2.68169">
        <ele>87.14</ele>
        <time>2013-07-07T09:44:53Z</time>
      </trkpt>
      <trkpt lat="48.38627" lon="2.68157">
        <ele>88.58</ele>
        <time>2013-07-07T09:45:03Z</time>
      </trkpt>
      <trkpt lat="48.38618" lon="2.68147">
        <ele>90.98</ele>
        <time>2013-07-07T09:45:14Z</time>
      </trkpt>
      <trkpt lat="48.38605" lon="2.68142">
        <ele>92.9</ele>
        <time>2013-07-07T09:45:25Z</time>
      </trkpt>
      <trkpt lat="48.38601" lon="2.68139">
        <ele>94.35</ele>
        <time>2013-07-07T09:45:36Z</time>
      </trkpt>
      <trkpt lat="48.38597" lon="2.68128">
        <ele>96.27</ele>
        <time>2013-07-07T09:45:59Z</time>
      </trkpt>
      <trkpt lat="48.38598" lon="2.68115">
        <ele>97.23</ele>
        <time>2013-07-07T09:46:11Z</time>
      </trkpt>
      <trkpt lat="48.386" lon="2.68101">
        <ele>98.67</ele>
        <time>2013-07-07T09:46:24Z</time>
      </trkpt>
      <trkpt lat="48.38604" lon="2.68082">
        <ele>101.08</ele>
        <time>2013-07-07T09:46:37Z</time>
      </trkpt>
      <trkpt lat="48.3861" lon="2.6807">
        <ele>101.56</ele>
        <time>2013-07-07T09:46:50Z</time>
      </trkpt>
      <trkpt lat="48.38614" lon="2.68062">
        <ele>102.04</ele>
        <time>2013-07-07T09:46:56Z</time>
      </trkpt>
      <trkpt lat="48.38616" lon="2.68051">
        <ele>102.52</ele>
        <time>2013-07-07T09:47:01Z</time>
      </trkpt>
      <trkpt lat="48.38618" lon="2.68043">
        <ele>103.48</ele>
        <time>2013-07-07T09:47:13Z</time>
      </trkpt>
      <trkpt lat="48.38621" lon="2.68033">
        <ele>102.04</ele>
        <time>2013-07-07T09:47:23Z</time>
      </trkpt>
      <trkpt lat="48.3862" lon="2.68016">
        <ele>102.52</ele>
        <time>2013-07-07T09:47:34Z</time>
      </trkpt>
      <trkpt lat="48.38616" lon="2.67996">
        <ele>102.52</ele>
        <time>2013-07-07T09:47:46Z</time>
      </trkpt>
      <trkpt lat="48.38617" lon="2.67994">
        <ele>102.52</ele>
        <time>2013-07-07T09:47:47Z</time>
      </trkpt>
      <trkpt lat="48.38617" lon="2.67985">
        <ele>102.04</ele>
        <time>2013-07-07T09:47:51Z</time>
      </trkpt>
      <trkpt lat="48.38613" lon="2.67967">
        <ele>102.04</ele>
        <time>2013-07-07T09:47:59Z</time>
      </trkpt>
      <trkpt lat="48.38611" lon="2.67939">
        <ele>100.11</ele>
        <time>2013-07-07T09:48:13Z</time>
      </trkpt>
      <trkpt lat="48.38613" lon="2.67922">
        <ele>100.6</ele>
        <time>2013-07-07T09:48:26Z</time>
      </trkpt>
      <trkpt lat="48.38618" lon="2.67909">
        <ele>100.11</ele>
        <time>2013-07-07T09:48:38Z</time>
      </trkpt>
      <trkpt lat="48.38626" lon="2.67897">
        <ele>102.04</ele>
        <time>2013-07-07T09:48:52Z</time>
      </trkpt>
      <trkpt lat="48.38633" lon="2.67884">
        <ele>103.96</ele>
        <time>2013-07-07T09:49:06Z</time>
      </trkpt>
      <trkpt lat="48.38637" lon="2.6787">
        <ele>105.4</ele>
        <time>2013-07-07T09:49:15Z</time>
      </trkpt>
      <trkpt lat="48.38644" lon="2.67861">
        <ele>106.36</ele>
        <time>2013-07-07T09:49:21Z</time>
      </trkpt>
      <trkpt lat="48.38649" lon="2.67852">
        <ele>107.81</ele>
        <time>2013-07-07T09:49:30Z</time>
      </trkpt>
      <trkpt lat="48.38651" lon="2.67839">
        <ele>110.69</ele>
        <time>2013-07-07T09:49:43Z</time>
      </trkpt>
      <trkpt lat="48.38653" lon="2.67829">
        <ele>112.61</ele>
        <time>2013-07-07T09:49:54Z</time>
      </trkpt>
      <trkpt lat="48.3865" lon="2.67821">
        <ele>114.05</ele>
        <time>2013-07-07T09:50:04Z</time>
      </trkpt>
      <trkpt lat="48.38651" lon="2.67811">
        <ele>115.01</ele>
        <time>2013-07-07T09:50:15Z</time>
      </trkpt>
      <trkpt lat="48.38653" lon="2.67797">
        <ele>115.5</ele>
        <time>2013-07-07T09:50:24Z</time>
      </trkpt>
      <trkpt lat="48.38653" lon="2.67787">
        <ele>115.98</ele>
        <time>2013-07-07T09:50:34Z</time>
      </trkpt>
      <trkpt lat="48.38652" lon="2.67787">
        <ele>117.42</ele>
        <time>2013-07-07T09:50:37Z</time>
      </trkpt>
      <trkpt lat="48.38651" lon="2.67787">
        <ele>117.42</ele>
        <time>2013-07-07T09:50:38Z</time>
      </trkpt>
      <trkpt lat="48.38645" lon="2.67785">
        <ele>116.94</ele>
        <time>2013-07-07T09:50:48Z</time>
      </trkpt>
      <trkpt lat="48.38642" lon="2.67778">
        <ele>115.5</ele>
        <time>2013-07-07T09:50:56Z</time>
      </trkpt>
      <trkpt lat="48.38641" lon="2.67767">
        <ele>115.98</ele>
        <time>2013-07-07T09:51:05Z</time>
      </trkpt>
      <trkpt lat="48.3864" lon="2.67757">
        <ele>116.46</ele>
        <time>2013-07-07T09:51:09Z</time>
      </trkpt>
      <trkpt lat="48.38642" lon="2.67737">
        <ele>115.01</ele>
        <time>2013-07-07T09:51:20Z</time>
      </trkpt>
      <trkpt lat="48.38641" lon="2.67734">
        <ele>115.01</ele>
        <time>2013-07-07T09:51:24Z</time>
      </trkpt>
      <trkpt lat="48.38638" lon="2.6773">
        <ele>114.53</ele>
        <time>2013-07-07T09:51:31Z</time>
      </trkpt>
      <trkpt lat="48.38643" lon="2.67716">
        <ele>111.17</ele>
        <time>2013-07-07T09:51:44Z</time>
      </trkpt>
      <trkpt lat="48.3865" lon="2.67709">
        <ele>108.29</ele>
        <time>2013-07-07T09:51:51Z</time>
      </trkpt>
      <trkpt lat="48.38652" lon="2.67703">
        <ele>107.32</ele>
        <time>2013-07-07T09:51:56Z</time>
      </trkpt>
      <trkpt lat="48.38653" lon="2.67695">
        <ele>107.81</ele>
        <time>2013-07-07T09:52:00Z</time>
      </trkpt>
      <trkpt lat="48.38654" lon="2.67691">
        <ele>106.36</ele>
        <time>2013-07-07T09:52:02Z</time>
      </trkpt>
      <trkpt lat="48.38655" lon="2.67671">
        <ele>105.88</ele>
        <time>2013-07-07T09:52:10Z</time>
      </trkpt>
      <trkpt lat="48.38645" lon="2.67656">
        <ele>105.4</ele>
        <time>2013-07-07T09:52:21Z</time>
      </trkpt>
      <trkpt lat="48.38643" lon="2.67648">
        <ele>105.4</ele>
        <time>2013-07-07T09:52:26Z</time>
      </trkpt>
      <trkpt lat="48.3864" lon="2.67639">
        <ele>103.96</ele>
        <time>2013-07-07T09:52:32Z</time>
      </trkpt>
      <trkpt lat="48.38634" lon="2.67619">
        <ele>102.04</ele>
        <time>2013-07-07T09:52:41Z</time>
      </trkpt>
      <trkpt lat="48.38633" lon="2.676">
        <ele>101.56</ele>
        <time>2013-07-07T09:52:52Z</time>
      </trkpt>
      <trkpt lat="48.38632" lon="2.67596">
        <ele>101.08</ele>
        <time>2013-07-07T09:52:54Z</time>
      </trkpt>
      <trkpt lat="48.38629" lon="2.67581">
        <ele>98.67</ele>
        <time>2013-07-07T09:53:06Z</time>
      </trkpt>
      <trkpt lat="48.38627" lon="2.6756">
        <ele>96.27</ele>
        <time>2013-07-07T09:53:17Z</time>
      </trkpt>
      <trkpt lat="48.38628" lon="2.67558">
        <ele>96.75</ele>
        <time>2013-07-07T09:53:18Z</time>
      </trkpt>
      <trkpt lat="48.38621" lon="2.67536">
        <ele>94.35</ele>
        <time>2013-07-07T09:53:30Z</time>
      </trkpt>
      <trkpt lat="48.38615" lon="2.6752">
        <ele>92.42</ele>
        <time>2013-07-07T09:53:41Z</time>
      </trkpt>
      <trkpt lat="48.38614" lon="2.67518">
        <ele>92.9</ele>
        <time>2013-07-07T09:53:42Z</time>
      </trkpt>
      <trkpt lat="48.38606" lon="2.67508">
        <ele>90.98</ele>
        <time>2013-07-07T09:53:50Z</time>
      </trkpt>
      <trkpt lat="48.38603" lon="2.675">
        <ele>90.5</ele>
        <time>2013-07-07T09:53:55Z</time>
      </trkpt>
      <trkpt lat="48.38596" lon="2.6749">
        <ele>89.54</ele>
        <time>2013-07-07T09:54:03Z</time>
      </trkpt>
      <trkpt lat="48.38587" lon="2.67475">
        <ele>88.58</ele>
        <time>2013-07-07T09:54:12Z</time>
      </trkpt>
      <trkpt lat="48.38577" lon="2.67461">
        <ele>87.62</ele>
        <time>2013-07-07T09:54:21Z</time>
      </trkpt>
      <trkpt lat="48.38566" lon="2.67457">
        <ele>88.1</ele>
        <time>2013-07-07T09:54:34Z</time>
      </trkpt>
      <trkpt lat="48.3856" lon="2.67457">
        <ele>88.1</ele>
        <time>2013-07-07T09:54:45Z</time>
      </trkpt>
      <trkpt lat="48.3856" lon="2.67457">
        <ele>89.06</ele>
        <time>2013-07-07T09:54:48Z</time>
      </trkpt>
      <trkpt lat="48.38557" lon="2.67457">
        <ele>88.58</ele>
        <time>2013-07-07T09:55:07Z</time>
      </trkpt>
      <trkpt lat="48.38561" lon="2.67455">
        <ele>88.1</ele>
        <time>2013-07-07T09:55:20Z</time>
      </trkpt>
      <trkpt lat="48.38562" lon="2.67445">
        <ele>88.1</ele>
        <time>2013-07-07T09:55:29Z</time>
      </trkpt>
      <trkpt lat="48.38565" lon="2.67429">
        <ele>87.62</ele>
        <time>2013-07-07T09:55:40Z</time>
      </trkpt>
      <trkpt lat="48.38565" lon="2.67426">
        <ele>88.1</ele>
        <time>2013-07-07T09:55:42Z</time>
      </trkpt>
      <trkpt lat="48.38558" lon="2.674">
        <ele>87.14</ele>
        <time>2013-07-07T09:55:55Z</time>
      </trkpt>
      <trkpt lat="48.38557" lon="2.67399">
        <ele>87.62</ele>
        <time>2013-07-07T09:55:58Z</time>
      </trkpt>
      <trkpt lat="48.38551" lon="2.67385">
        <ele>87.62</ele>
        <time>2013-07-07T09:56:06Z</time>
      </trkpt>
      <trkpt lat="48.38545" lon="2.6737">
        <ele>87.62</ele>
        <time>2013-07-07T09:56:17Z</time>
      </trkpt>
      <trkpt lat="48.38544" lon="2.67366">
        <ele>88.1</ele>
        <time>2013-07-07T09:56:21Z</time>
      </trkpt>
      <trkpt lat="48.38542" lon="2.67352">
        <ele>87.62</ele>
        <time>2013-07-07T09:56:26Z</time>
      </trkpt>
      <trkpt lat="48.38541" lon="2.67341">
        <ele>88.1</ele>
        <time>2013-07-07T09:56:30Z</time>
      </trkpt>
      <trkpt lat="48.38538" lon="2.67336">
        <ele>88.58</ele>
        <time>2013-07-07T09:56:33Z</time>
      </trkpt>
      <trkpt lat="48.38534" lon="2.67313">
        <ele>87.14</ele>
        <time>2013-07-07T09:56:46Z</time>
      </trkpt>
      <trkpt lat="48.38536" lon="2.67298">
        <ele>87.14</ele>
        <time>2013-07-07T09:56:55Z</time>
      </trkpt>
      <trkpt lat="48.38528" lon="2.67284">
        <ele>87.14</ele>
        <time>2013-07-07T09:57:02Z</time>
      </trkpt>
      <trkpt lat="48.38519" lon="2.67271">
        <ele>86.18</ele>
        <time>2013-07-07T09:57:11Z</time>
      </trkpt>
      <trkpt lat="48.38514" lon="2.67256">
        <ele>87.14</ele>
        <time>2013-07-07T09:57:22Z</time>
      </trkpt>
      <trkpt lat="48.38512" lon="2.67251">
        <ele>87.14</ele>
        <time>2013-07-07T09:57:25Z</time>
      </trkpt>
      <trkpt lat="48.38511" lon="2.67246">
        <ele>87.62</ele>
        <time>2013-07-07T09:57:27Z</time>
      </trkpt>
      <trkpt lat="48.38506" lon="2.67233">
        <ele>87.14</ele>
        <time>2013-07-07T09:57:37Z</time>
      </trkpt>
      <trkpt lat="48.38502" lon="2.67222">
        <ele>87.62</ele>
        <time>2013-07-07T09:57:41Z</time>
      </trkpt>
      <trkpt lat="48.38498" lon="2.67218">
        <ele>87.14</ele>
        <time>2013-07-07T09:57:44Z</time>
      </trkpt>
      <trkpt lat="48.3849" lon="2.67186">
        <ele>87.62</ele>
        <time>2013-07-07T09:57:58Z</time>
      </trkpt>
      <trkpt lat="48.38489" lon="2.67183">
        <ele>87.62</ele>
        <time>2013-07-07T09:58:00Z</time>
      </trkpt>
      <trkpt lat="48.38488" lon="2.67179">
        <ele>87.14</ele>
        <time>2013-07-07T09:58:02Z</time>
      </trkpt>
      <trkpt lat="48.38486" lon="2.67174">
        <ele>87.14</ele>
        <time>2013-07-07T09:58:05Z</time>
      </trkpt>
      <trkpt lat="48.38476" lon="2.6716">
        <ele>87.62</ele>
        <time>2013-07-07T09:58:15Z</time>
      </trkpt>
      <trkpt lat="48.38472" lon="2.67147">
        <ele>86.18</ele>
        <time>2013-07-07T09:58:23Z</time>
      </trkpt>
      <trkpt lat="48.38469" lon="2.6714">
        <ele>86.18</ele>
        <time>2013-07-07T09:58:27Z</time>
      </trkpt>
      <trkpt lat="48.38466" lon="2.67137">
        <ele>87.14</ele>
        <time>2013-07-07T09:58:29Z</time>
      </trkpt>
      <trkpt lat="48.38459" lon="2.67123">
        <ele>87.14</ele>
        <time>2013-07-07T09:58:39Z</time>
      </trkpt>
      <trkpt lat="48.38447" lon="2.67116">
        <ele>87.62</ele>
        <time>2013-07-07T09:58:50Z</time>
      </trkpt>
      <trkpt lat="48.38442" lon="2.6711">
        <ele>87.14</ele>
        <time>2013-07-07T09:58:54Z</time>
      </trkpt>
      <trkpt lat="48.38429" lon="2.67104">
        <ele>87.14</ele>
        <time>2013-07-07T09:59:05Z</time>
      </trkpt>
      <trkpt lat="48.3842" lon="2.67099">
        <ele>88.58</ele>
        <time>2013-07-07T09:59:10Z</time>
      </trkpt>
      <trkpt lat="48.38417" lon="2.67098">
        <ele>87.62</ele>
        <time>2013-07-07T09:59:12Z</time>
      </trkpt>
      <trkpt lat="48.38407" lon="2.67093">
        <ele>88.58</ele>
        <time>2013-07-07T09:59:20Z</time>
      </trkpt>
      <trkpt lat="48.38399" lon="2.67087">
        <ele>89.54</ele>
        <time>2013-07-07T09:59:28Z</time>
      </trkpt>
      <trkpt lat="48.38392" lon="2.67081">
        <ele>88.58</ele>
        <time>2013-07-07T09:59:34Z</time>
      </trkpt>
      <trkpt lat="48.38387" lon="2.67078">
        <ele>89.06</ele>
        <time>2013-07-07T09:59:38Z</time>
      </trkpt>
      <trkpt lat="48.38375" lon="2.67075">
        <ele>90.02</ele>
        <time>2013-07-07T09:59:49Z</time>
      </trkpt>
      <trkpt lat="48.38359" lon="2.67064">
        <ele>89.54</ele>
        <time>2013-07-07T10:00:01Z</time>
      </trkpt>
      <trkpt lat="48.38346" lon="2.67064">
        <ele>89.06</ele>
        <time>2013-07-07T10:00:13Z</time>
      </trkpt>
      <trkpt lat="48.38337" lon="2.67062">
        <ele>90.02</ele>
        <time>2013-07-07T10:00:19Z</time>
      </trkpt>
      <trkpt lat="48.38324" lon="2.6706">
        <ele>89.06</ele>
        <time>2013-07-07T10:00:30Z</time>
      </trkpt>
      <trkpt lat="48.38315" lon="2.67051">
        <ele>89.06</ele>
        <time>2013-07-07T10:00:37Z</time>
      </trkpt>
      <trkpt lat="48.38302" lon="2.67048">
        <ele>90.02</ele>
        <time>2013-07-07T10:00:48Z</time>
      </trkpt>
      <trkpt lat="48.38297" lon="2.6705">
        <ele>90.02</ele>
        <time>2013-07-07T10:00:53Z</time>
      </trkpt>
      <trkpt lat="48.38276" lon="2.67044">
        <ele>89.06</ele>
        <time>2013-07-07T10:01:05Z</time>
      </trkpt>
      <trkpt lat="48.38264" lon="2.67051">
        <ele>89.06</ele>
        <time>2013-07-07T10:01:16Z</time>
      </trkpt>
      <trkpt lat="48.38243" lon="2.67062">
        <ele>88.58</ele>
        <time>2013-07-07T10:01:30Z</time>
      </trkpt>
      <trkpt lat="48.38231" lon="2.67064">
        <ele>87.62</ele>
        <time>2013-07-07T10:01:41Z</time>
      </trkpt>
      <trkpt lat="48.38226" lon="2.67064">
        <ele>88.1</ele>
        <time>2013-07-07T10:01:44Z</time>
      </trkpt>
      <trkpt lat="48.38215" lon="2.67073">
        <ele>87.62</ele>
        <time>2013-07-07T10:01:54Z</time>
      </trkpt>
      <trkpt lat="48.38197" lon="2.67082">
        <ele>88.1</ele>
        <time>2013-07-07T10:02:08Z</time>
      </trkpt>
      <trkpt lat="48.3818" lon="2.67088">
        <ele>87.14</ele>
        <time>2013-07-07T10:02:20Z</time>
      </trkpt>
      <trkpt lat="48.38163" lon="2.67099">
        <ele>87.62</ele>
        <time>2013-07-07T10:02:33Z</time>
      </trkpt>
      <trkpt lat="48.38153" lon="2.67108">
        <ele>89.06</ele>
        <time>2013-07-07T10:02:45Z</time>
      </trkpt>
      <trkpt lat="48.38146" lon="2.6711">
        <ele>88.58</ele>
        <time>2013-07-07T10:02:52Z</time>
      </trkpt>
      <trkpt lat="48.38143" lon="2.67109">
        <ele>89.54</ele>
        <time>2013-07-07T10:02:54Z</time>
      </trkpt>
      <trkpt lat="48.38128" lon="2.67107">
        <ele>87.62</ele>
        <time>2013-07-07T10:03:03Z</time>
      </trkpt>
      <trkpt lat="48.38119" lon="2.67114">
        <ele>86.66</ele>
        <time>2013-07-07T10:03:10Z</time>
      </trkpt>
      <trkpt lat="48.38105" lon="2.67115">
        <ele>86.66</ele>
        <time>2013-07-07T10:03:21Z</time>
      </trkpt>
      <trkpt lat="48.38102" lon="2.67115">
        <ele>86.18</ele>
        <time>2013-07-07T10:03:23Z</time>
      </trkpt>
      <trkpt lat="48.38097" lon="2.67121">
        <ele>86.18</ele>
        <time>2013-07-07T10:03:27Z</time>
      </trkpt>
      <trkpt lat="48.38091" lon="2.67124">
        <ele>85.69</ele>
        <time>2013-07-07T10:03:31Z</time>
      </trkpt>
      <trkpt lat="48.38081" lon="2.67124">
        <ele>85.69</ele>
        <time>2013-07-07T10:03:38Z</time>
      </trkpt>
      <trkpt lat="48.38076" lon="2.6712">
        <ele>85.69</ele>
        <time>2013-07-07T10:03:42Z</time>
      </trkpt>
      <trkpt lat="48.38073" lon="2.67121">
        <ele>86.18</ele>
        <time>2013-07-07T10:03:54Z</time>
      </trkpt>
      <trkpt lat="48.38073" lon="2.67121">
        <ele>85.21</ele>
        <time>2013-07-07T10:04:21Z</time>
      </trkpt>
      <trkpt lat="48.38073" lon="2.67111">
        <ele>83.77</ele>
        <time>2013-07-07T10:04:30Z</time>
      </trkpt>
      <trkpt lat="48.38073" lon="2.67113">
        <ele>86.18</ele>
        <time>2013-07-07T10:05:09Z</time>
      </trkpt>
      <trkpt lat="48.38073" lon="2.67113">
        <ele>86.18</ele>
        <time>2013-07-07T10:05:35Z</time>
      </trkpt>
      <trkpt lat="48.38073" lon="2.67113">
        <ele>86.18</ele>
        <time>2013-07-07T10:06:28Z</time>
      </trkpt>
      <trkpt lat="48.38073" lon="2.67113">
        <ele>87.14</ele>
        <time>2013-07-07T10:07:17Z</time>
      </trkpt>
      <trkpt lat="48.38073" lon="2.67114">
        <ele>86.66</ele>
        <time>2013-07-07T10:08:21Z</time>
      </trkpt>
      <trkpt lat="48.38071" lon="2.67119">
        <ele>86.66</ele>
        <time>2013-07-07T10:09:05Z</time>
      </trkpt>
      <trkpt lat="48.38066" lon="2.6712">
        <ele>86.66</ele>
        <time>2013-07-07T10:09:09Z</time>
      </trkpt>
      <trkpt lat="48.38061" lon="2.67119">
        <ele>87.14</ele>
        <time>2013-07-07T10:09:13Z</time>
      </trkpt>
      <trkpt lat="48.38055" lon="2.67119">
        <ele>87.62</ele>
        <time>2013-07-07T10:09:18Z</time>
      </trkpt>
      <trkpt lat="48.38049" lon="2.67118">
        <ele>87.62</ele>
        <time>2013-07-07T10:09:24Z</time>
      </trkpt>
      <trkpt lat="48.38045" lon="2.67118">
        <ele>87.62</ele>
        <time>2013-07-07T10:09:28Z</time>
      </trkpt>
      <trkpt lat="48.38034" lon="2.67116">
        <ele>88.58</ele>
        <time>2013-07-07T10:09:39Z</time>
      </trkpt>
      <trkpt lat="48.38025" lon="2.67117">
        <ele>90.02</ele>
        <time>2013-07-07T10:09:52Z</time>
      </trkpt>
      <trkpt lat="48.38021" lon="2.67116">
        <ele>90.02</ele>
        <time>2013-07-07T10:09:56Z</time>
      </trkpt>
      <trkpt lat="48.38018" lon="2.67115">
        <ele>90.02</ele>
        <time>2013-07-07T10:09:58Z</time>
      </trkpt>
      <trkpt lat="48.38013" lon="2.67115">
        <ele>91.46</ele>
        <time>2013-07-07T10:10:03Z</time>
      </trkpt>
      <trkpt lat="48.38004" lon="2.67113">
        <ele>92.42</ele>
        <time>2013-07-07T10:10:11Z</time>
      </trkpt>
      <trkpt lat="48.37992" lon="2.67113">
        <ele>94.35</ele>
        <time>2013-07-07T10:10:23Z</time>
      </trkpt>
      <trkpt lat="48.37979" lon="2.6711">
        <ele>95.79</ele>
        <time>2013-07-07T10:10:32Z</time>
      </trkpt>
      <trkpt lat="48.37977" lon="2.67109">
        <ele>96.75</ele>
        <time>2013-07-07T10:10:35Z</time>
      </trkpt>
      <trkpt lat="48.3797" lon="2.67105">
        <ele>97.23</ele>
        <time>2013-07-07T10:10:45Z</time>
      </trkpt>
      <trkpt lat="48.3797" lon="2.67099">
        <ele>100.6</ele>
        <time>2013-07-07T10:10:57Z</time>
      </trkpt>
      <trkpt lat="48.37972" lon="2.67099">
        <ele>101.08</ele>
        <time>2013-07-07T10:11:06Z</time>
      </trkpt>
      <trkpt lat="48.37978" lon="2.67098">
        <ele>103.48</ele>
        <time>2013-07-07T10:11:17Z</time>
      </trkpt>
      <trkpt lat="48.37983" lon="2.67088">
        <ele>105.4</ele>
        <time>2013-07-07T10:11:30Z</time>
      </trkpt>
      <trkpt lat="48.37985" lon="2.67078">
        <ele>107.32</ele>
        <time>2013-07-07T10:11:39Z</time>
      </trkpt>
      <trkpt lat="48.37978" lon="2.67069">
        <ele>108.29</ele>
        <time>2013-07-07T10:11:50Z</time>
      </trkpt>
      <trkpt lat="48.37972" lon="2.67066">
        <ele>110.69</ele>
        <time>2013-07-07T10:12:08Z</time>
      </trkpt>
      <trkpt lat="48.37965" lon="2.67052">
        <ele>112.61</ele>
        <time>2013-07-07T10:12:21Z</time>
      </trkpt>
      <trkpt lat="48.37964" lon="2.6705">
        <ele>112.61</ele>
        <time>2013-07-07T10:12:23Z</time>
      </trkpt>
      <trkpt lat="48.37956" lon="2.67044">
        <ele>113.57</ele>
        <time>2013-07-07T10:12:36Z</time>
      </trkpt>
      <trkpt lat="48.37955" lon="2.6704">
        <ele>114.53</ele>
        <time>2013-07-07T10:12:44Z</time>
      </trkpt>
      <trkpt lat="48.37955" lon="2.67032">
        <ele>117.42</ele>
        <time>2013-07-07T10:12:56Z</time>
      </trkpt>
      <trkpt lat="48.37959" lon="2.67034">
        <ele>117.9</ele>
        <time>2013-07-07T10:13:07Z</time>
      </trkpt>
      <trkpt lat="48.37961" lon="2.67029">
        <ele>117.9</ele>
        <time>2013-07-07T10:13:13Z</time>
      </trkpt>
      <trkpt lat="48.37957" lon="2.67022">
        <ele>117.42</ele>
        <time>2013-07-07T10:13:22Z</time>
      </trkpt>
      <trkpt lat="48.37955" lon="2.6702">
        <ele>116.94</ele>
        <time>2013-07-07T10:13:25Z</time>
      </trkpt>
      <trkpt lat="48.37951" lon="2.67014">
        <ele>117.42</ele>
        <time>2013-07-07T10:13:30Z</time>
      </trkpt>
      <trkpt lat="48.37943" lon="2.67014">
        <ele>115.01</ele>
        <time>2013-07-07T10:13:41Z</time>
      </trkpt>
      <trkpt lat="48.37937" lon="2.6701">
        <ele>116.46</ele>
        <time>2013-07-07T10:13:51Z</time>
      </trkpt>
      <trkpt lat="48.37933" lon="2.67007">
        <ele>117.42</ele>
        <time>2013-07-07T10:14:00Z</time>
      </trkpt>
      <trkpt lat="48.37931" lon="2.67006">
        <ele>119.34</ele>
        <time>2013-07-07T10:14:03Z</time>
      </trkpt>
      <trkpt lat="48.3792" lon="2.67007">
        <ele>118.38</ele>
        <time>2013-07-07T10:14:15Z</time>
      </trkpt>
      <trkpt lat="48.37915" lon="2.6701">
        <ele>117.9</ele>
        <time>2013-07-07T10:14:26Z</time>
      </trkpt>
      <trkpt lat="48.37909" lon="2.67009">
        <ele>118.38</ele>
        <time>2013-07-07T10:14:38Z</time>
      </trkpt>
      <trkpt lat="48.379" lon="2.67005">
        <ele>118.38</ele>
        <time>2013-07-07T10:14:52Z</time>
      </trkpt>
      <trkpt lat="48.37894" lon="2.67002">
        <ele>120.3</ele>
        <time>2013-07-07T10:15:03Z</time>
      </trkpt>
      <trkpt lat="48.37892" lon="2.66999">
        <ele>120.78</ele>
        <time>2013-07-07T10:15:09Z</time>
      </trkpt>
      <trkpt lat="48.37891" lon="2.66987">
        <ele>120.3</ele>
        <time>2013-07-07T10:15:20Z</time>
      </trkpt>
      <trkpt lat="48.37889" lon="2.66984">
        <ele>116.94</ele>
        <time>2013-07-07T10:15:28Z</time>
      </trkpt>
      <trkpt lat="48.37889" lon="2.66984">
        <ele>117.9</ele>
        <time>2013-07-07T10:15:29Z</time>
      </trkpt>
      <trkpt lat="48.37879" lon="2.66986">
        <ele>117.42</ele>
        <time>2013-07-07T10:15:39Z</time>
      </trkpt>
      <trkpt lat="48.37873" lon="2.66987">
        <ele>115.5</ele>
        <time>2013-07-07T10:15:46Z</time>
      </trkpt>
      <trkpt lat="48.37871" lon="2.66991">
        <ele>115.5</ele>
        <time>2013-07-07T10:15:57Z</time>
      </trkpt>
      <trkpt lat="48.37871" lon="2.67002">
        <ele>118.38</ele>
        <time>2013-07-07T10:16:11Z</time>
      </trkpt>
      <trkpt lat="48.37874" lon="2.67012">
        <ele>118.38</ele>
        <time>2013-07-07T10:16:19Z</time>
      </trkpt>
      <trkpt lat="48.37875" lon="2.67022">
        <ele>116.94</ele>
        <time>2013-07-07T10:16:25Z</time>
      </trkpt>
      <trkpt lat="48.37877" lon="2.67028">
        <ele>115.5</ele>
        <time>2013-07-07T10:16:32Z</time>
      </trkpt>
      <trkpt lat="48.37874" lon="2.67037">
        <ele>116.46</ele>
        <time>2013-07-07T10:16:38Z</time>
      </trkpt>
      <trkpt lat="48.37873" lon="2.67042">
        <ele>116.94</ele>
        <time>2013-07-07T10:16:40Z</time>
      </trkpt>
      <trkpt lat="48.37875" lon="2.6706">
        <ele>116.94</ele>
        <time>2013-07-07T10:16:50Z</time>
      </trkpt>
      <trkpt lat="48.37877" lon="2.67079">
        <ele>116.94</ele>
        <time>2013-07-07T10:17:01Z</time>
      </trkpt>
      <trkpt lat="48.37877" lon="2.67079">
        <ele>116.94</ele>
        <time>2013-07-07T10:17:02Z</time>
      </trkpt>
      <trkpt lat="48.37874" lon="2.67082">
        <ele>116.46</ele>
        <time>2013-07-07T10:17:04Z</time>
      </trkpt>
      <trkpt lat="48.37868" lon="2.6709">
        <ele>115.98</ele>
        <time>2013-07-07T10:17:08Z</time>
      </trkpt>
      <trkpt lat="48.37864" lon="2.67105">
        <ele>115.98</ele>
        <time>2013-07-07T10:17:21Z</time>
      </trkpt>
      <trkpt lat="48.37864" lon="2.67116">
        <ele>116.46</ele>
        <time>2013-07-07T10:17:28Z</time>
      </trkpt>
      <trkpt lat="48.37865" lon="2.67124">
        <ele>116.46</ele>
        <time>2013-07-07T10:17:33Z</time>
      </trkpt>
      <trkpt lat="48.37865" lon="2.67134">
        <ele>116.46</ele>
        <time>2013-07-07T10:17:39Z</time>
      </trkpt>
      <trkpt lat="48.37865" lon="2.67137">
        <ele>117.42</ele>
        <time>2013-07-07T10:17:41Z</time>
      </trkpt>
      <trkpt lat="48.37866" lon="2.67138">
        <ele>117.42</ele>
        <time>2013-07-07T10:17:42Z</time>
      </trkpt>
      <trkpt lat="48.37866" lon="2.67162">
        <ele>115.98</ele>
        <time>2013-07-07T10:17:56Z</time>
      </trkpt>
      <trkpt lat="48.37866" lon="2.67168">
        <ele>116.94</ele>
        <time>2013-07-07T10:18:00Z</time>
      </trkpt>
      <trkpt lat="48.37858" lon="2.67173">
        <ele>116.94</ele>
        <time>2013-07-07T10:18:07Z</time>
      </trkpt>
      <trkpt lat="48.37867" lon="2.67182">
        <ele>118.86</ele>
        <time>2013-07-07T10:18:17Z</time>
      </trkpt>
      <trkpt lat="48.37869" lon="2.67183">
        <ele>118.38</ele>
        <time>2013-07-07T10:18:20Z</time>
      </trkpt>
      <trkpt lat="48.37875" lon="2.67189">
        <ele>116.46</ele>
        <time>2013-07-07T10:18:29Z</time>
      </trkpt>
      <trkpt lat="48.37877" lon="2.67208">
        <ele>117.42</ele>
        <time>2013-07-07T10:18:43Z</time>
      </trkpt>
      <trkpt lat="48.37877" lon="2.6721">
        <ele>117.42</ele>
        <time>2013-07-07T10:18:45Z</time>
      </trkpt>
      <trkpt lat="48.37879" lon="2.67236">
        <ele>116.46</ele>
        <time>2013-07-07T10:19:02Z</time>
      </trkpt>
      <trkpt lat="48.37876" lon="2.67248">
        <ele>116.94</ele>
        <time>2013-07-07T10:19:13Z</time>
      </trkpt>
      <trkpt lat="48.37876" lon="2.67255">
        <ele>116.46</ele>
        <time>2013-07-07T10:19:22Z</time>
      </trkpt>
      <trkpt lat="48.37871" lon="2.67261">
        <ele>117.42</ele>
        <time>2013-07-07T10:19:41Z</time>
      </trkpt>
      <trkpt lat="48.37866" lon="2.67267">
        <ele>118.38</ele>
        <time>2013-07-07T10:19:50Z</time>
      </trkpt>
      <trkpt lat="48.37862" lon="2.67274">
        <ele>118.86</ele>
        <time>2013-07-07T10:20:01Z</time>
      </trkpt>
      <trkpt lat="48.37862" lon="2.67269">
        <ele>118.86</ele>
        <time>2013-07-07T10:20:19Z</time>
      </trkpt>
      <trkpt lat="48.37869" lon="2.67262">
        <ele>116.94</ele>
        <time>2013-07-07T10:20:32Z</time>
      </trkpt>
      <trkpt lat="48.37873" lon="2.67254">
        <ele>116.94</ele>
        <time>2013-07-07T10:20:40Z</time>
      </trkpt>
      <trkpt lat="48.37879" lon="2.67249">
        <ele>115.98</ele>
        <time>2013-07-07T10:20:50Z</time>
      </trkpt>
      <trkpt lat="48.3788" lon="2.67244">
        <ele>115.5</ele>
        <time>2013-07-07T10:21:01Z</time>
      </trkpt>
      <trkpt lat="48.37883" lon="2.67229">
        <ele>113.57</ele>
        <time>2013-07-07T10:21:13Z</time>
      </trkpt>
      <trkpt lat="48.37886" lon="2.6721">
        <ele>113.57</ele>
        <time>2013-07-07T10:21:26Z</time>
      </trkpt>
      <trkpt lat="48.3789" lon="2.67199">
        <ele>111.65</ele>
        <time>2013-07-07T10:21:38Z</time>
      </trkpt>
      <trkpt lat="48.3789" lon="2.67188">
        <ele>111.17</ele>
        <time>2013-07-07T10:21:46Z</time>
      </trkpt>
      <trkpt lat="48.37893" lon="2.67176">
        <ele>109.25</ele>
        <time>2013-07-07T10:21:58Z</time>
      </trkpt>
      <trkpt lat="48.379" lon="2.67165">
        <ele>108.29</ele>
        <time>2013-07-07T10:22:06Z</time>
      </trkpt>
      <trkpt lat="48.37905" lon="2.67139">
        <ele>105.4</ele>
        <time>2013-07-07T10:22:20Z</time>
      </trkpt>
      <trkpt lat="48.37914" lon="2.67129">
        <ele>103</ele>
        <time>2013-07-07T10:22:32Z</time>
      </trkpt>
      <trkpt lat="48.3792" lon="2.6713">
        <ele>101.56</ele>
        <time>2013-07-07T10:22:35Z</time>
      </trkpt>
      <trkpt lat="48.37928" lon="2.67136">
        <ele>100.11</ele>
        <time>2013-07-07T10:22:44Z</time>
      </trkpt>
      <trkpt lat="48.3794" lon="2.67149">
        <ele>98.19</ele>
        <time>2013-07-07T10:22:56Z</time>
      </trkpt>
      <trkpt lat="48.37937" lon="2.67168">
        <ele>97.71</ele>
        <time>2013-07-07T10:23:09Z</time>
      </trkpt>
      <trkpt lat="48.37941" lon="2.67173">
        <ele>98.19</ele>
        <time>2013-07-07T10:23:25Z</time>
      </trkpt>
      <trkpt lat="48.37942" lon="2.67171">
        <ele>97.71</ele>
        <time>2013-07-07T10:23:49Z</time>
      </trkpt>
      <trkpt lat="48.37943" lon="2.6717">
        <ele>96.75</ele>
        <time>2013-07-07T10:23:58Z</time>
      </trkpt>
      <trkpt lat="48.37947" lon="2.67163">
        <ele>98.19</ele>
        <time>2013-07-07T10:24:15Z</time>
      </trkpt>
      <trkpt lat="48.37953" lon="2.67153">
        <ele>97.23</ele>
        <time>2013-07-07T10:24:31Z</time>
      </trkpt>
      <trkpt lat="48.37963" lon="2.67139">
        <ele>97.71</ele>
        <time>2013-07-07T10:24:45Z</time>
      </trkpt>
      <trkpt lat="48.37974" lon="2.67142">
        <ele>98.67</ele>
        <time>2013-07-07T10:24:58Z</time>
      </trkpt>
      <trkpt lat="48.37976" lon="2.67143">
        <ele>99.63</ele>
        <time>2013-07-07T10:25:03Z</time>
      </trkpt>
      <trkpt lat="48.37975" lon="2.67155">
        <ele>102.52</ele>
        <time>2013-07-07T10:25:15Z</time>
      </trkpt>
      <trkpt lat="48.37978" lon="2.67157">
        <ele>104.44</ele>
        <time>2013-07-07T10:25:29Z</time>
      </trkpt>
      <trkpt lat="48.37982" lon="2.67157">
        <ele>105.4</ele>
        <time>2013-07-07T10:25:33Z</time>
      </trkpt>
      <trkpt lat="48.37984" lon="2.67163">
        <ele>105.88</ele>
        <time>2013-07-07T10:25:46Z</time>
      </trkpt>
      <trkpt lat="48.37987" lon="2.67168">
        <ele>108.29</ele>
        <time>2013-07-07T10:25:57Z</time>
      </trkpt>
      <trkpt lat="48.37989" lon="2.67177">
        <ele>107.32</ele>
        <time>2013-07-07T10:26:15Z</time>
      </trkpt>
      <trkpt lat="48.37988" lon="2.67177">
        <ele>107.32</ele>
        <time>2013-07-07T10:26:16Z</time>
      </trkpt>
      <trkpt lat="48.37987" lon="2.67177">
        <ele>108.77</ele>
        <time>2013-07-07T10:26:28Z</time>
      </trkpt>
      <trkpt lat="48.37989" lon="2.67179">
        <ele>107.32</ele>
        <time>2013-07-07T10:26:33Z</time>
      </trkpt>
      <trkpt lat="48.37993" lon="2.67181">
        <ele>108.29</ele>
        <time>2013-07-07T10:26:48Z</time>
      </trkpt>
      <trkpt lat="48.37989" lon="2.67184">
        <ele>107.32</ele>
        <time>2013-07-07T10:27:01Z</time>
      </trkpt>
      <trkpt lat="48.37984" lon="2.67191">
        <ele>109.73</ele>
        <time>2013-07-07T10:27:17Z</time>
      </trkpt>
      <trkpt lat="48.37985" lon="2.67198">
        <ele>110.69</ele>
        <time>2013-07-07T10:27:38Z</time>
      </trkpt>
      <trkpt lat="48.37984" lon="2.67199">
        <ele>111.65</ele>
        <time>2013-07-07T10:27:42Z</time>
      </trkpt>
      <trkpt lat="48.37991" lon="2.67206">
        <ele>112.61</ele>
        <time>2013-07-07T10:27:56Z</time>
      </trkpt>
      <trkpt lat="48.37991" lon="2.67208">
        <ele>112.61</ele>
        <time>2013-07-07T10:27:58Z</time>
      </trkpt>
      <trkpt lat="48.37984" lon="2.67226">
        <ele>114.05</ele>
        <time>2013-07-07T10:28:10Z</time>
      </trkpt>
      <trkpt lat="48.37981" lon="2.67226">
        <ele>115.01</ele>
        <time>2013-07-07T10:28:13Z</time>
      </trkpt>
      <trkpt lat="48.37973" lon="2.67229">
        <ele>116.46</ele>
        <time>2013-07-07T10:28:25Z</time>
      </trkpt>
      <trkpt lat="48.3797" lon="2.67226">
        <ele>117.42</ele>
        <time>2013-07-07T10:28:40Z</time>
      </trkpt>
      <trkpt lat="48.37966" lon="2.67227">
        <ele>116.46</ele>
        <time>2013-07-07T10:28:45Z</time>
      </trkpt>
      <trkpt lat="48.37959" lon="2.67238">
        <ele>115.5</ele>
        <time>2013-07-07T10:28:59Z</time>
      </trkpt>
      <trkpt lat="48.37958" lon="2.67242">
        <ele>115.5</ele>
        <time>2013-07-07T10:29:04Z</time>
      </trkpt>
      <trkpt lat="48.37952" lon="2.67249">
        <ele>115.01</ele>
        <time>2013-07-07T10:29:11Z</time>
      </trkpt>
      <trkpt lat="48.3795" lon="2.67258">
        <ele>116.46</ele>
        <time>2013-07-07T10:29:21Z</time>
      </trkpt>
      <trkpt lat="48.37942" lon="2.67277">
        <ele>116.46</ele>
        <time>2013-07-07T10:29:35Z</time>
      </trkpt>
      <trkpt lat="48.37935" lon="2.67292">
        <ele>115.98</ele>
        <time>2013-07-07T10:29:48Z</time>
      </trkpt>
      <trkpt lat="48.37931" lon="2.67295">
        <ele>115.98</ele>
        <time>2013-07-07T10:30:07Z</time>
      </trkpt>
      <trkpt lat="48.3793" lon="2.67298">
        <ele>115.98</ele>
        <time>2013-07-07T10:30:23Z</time>
      </trkpt>
      <trkpt lat="48.37929" lon="2.67303">
        <ele>115.5</ele>
        <time>2013-07-07T10:30:33Z</time>
      </trkpt>
      <trkpt lat="48.37928" lon="2.67303">
        <ele>115.98</ele>
        <time>2013-07-07T10:30:36Z</time>
      </trkpt>
      <trkpt lat="48.37923" lon="2.6731">
        <ele>115.98</ele>
        <time>2013-07-07T10:30:49Z</time>
      </trkpt>
      <trkpt lat="48.37923" lon="2.67315">
        <ele>118.86</ele>
        <time>2013-07-07T10:31:05Z</time>
      </trkpt>
      <trkpt lat="48.37921" lon="2.6732">
        <ele>118.86</ele>
        <time>2013-07-07T10:31:18Z</time>
      </trkpt>
      <trkpt lat="48.37921" lon="2.6732">
        <ele>117.9</ele>
        <time>2013-07-07T10:31:23Z</time>
      </trkpt>
      <trkpt lat="48.37922" lon="2.67332">
        <ele>120.3</ele>
        <time>2013-07-07T10:31:37Z</time>
      </trkpt>
      <trkpt lat="48.37923" lon="2.67334">
        <ele>120.78</ele>
        <time>2013-07-07T10:31:56Z</time>
      </trkpt>
      <trkpt lat="48.37926" lon="2.67329">
        <ele>120.3</ele>
        <time>2013-07-07T10:32:07Z</time>
      </trkpt>
      <trkpt lat="48.37926" lon="2.67326">
        <ele>119.34</ele>
        <time>2013-07-07T10:32:20Z</time>
      </trkpt>
      <trkpt lat="48.37928" lon="2.67324">
        <ele>118.38</ele>
        <time>2013-07-07T10:32:52Z</time>
      </trkpt>
      <trkpt lat="48.37929" lon="2.67324">
        <ele>119.82</ele>
        <time>2013-07-07T10:33:12Z</time>
      </trkpt>
      <trkpt lat="48.37928" lon="2.67323">
        <ele>119.82</ele>
        <time>2013-07-07T10:34:19Z</time>
      </trkpt>
      <trkpt lat="48.37927" lon="2.6733">
        <ele>119.82</ele>
        <time>2013-07-07T10:34:32Z</time>
      </trkpt>
      <trkpt lat="48.37927" lon="2.67339">
        <ele>119.34</ele>
        <time>2013-07-07T10:34:40Z</time>
      </trkpt>
      <trkpt lat="48.37929" lon="2.67342">
        <ele>119.34</ele>
        <time>2013-07-07T10:34:48Z</time>
      </trkpt>
      <trkpt lat="48.37928" lon="2.67342">
        <ele>119.34</ele>
        <time>2013-07-07T10:34:59Z</time>
      </trkpt>
      <trkpt lat="48.37933" lon="2.67346">
        <ele>119.34</ele>
        <time>2013-07-07T10:35:11Z</time>
      </trkpt>
      <trkpt lat="48.37933" lon="2.6735">
        <ele>120.3</ele>
        <time>2013-07-07T10:35:21Z</time>
      </trkpt>
      <trkpt lat="48.37937" lon="2.67361">
        <ele>120.78</ele>
        <time>2013-07-07T10:35:32Z</time>
      </trkpt>
      <trkpt lat="48.37939" lon="2.67368">
        <ele>118.38</ele>
        <time>2013-07-07T10:35:51Z</time>
      </trkpt>
      <trkpt lat="48.37939" lon="2.67368">
        <ele>118.86</ele>
        <time>2013-07-07T10:35:55Z</time>
      </trkpt>
      <trkpt lat="48.3794" lon="2.6737">
        <ele>119.34</ele>
        <time>2013-07-07T10:36:16Z</time>
      </trkpt>
      <trkpt lat="48.37941" lon="2.67371">
        <ele>117.9</ele>
        <time>2013-07-07T10:38:45Z</time>
      </trkpt>
      <trkpt lat="48.37939" lon="2.67369">
        <ele>116.94</ele>
        <time>2013-07-07T10:45:31Z</time>
      </trkpt>
      <trkpt lat="48.37939" lon="2.67368">
        <ele>115.5</ele>
        <time>2013-07-07T10:46:23Z</time>
      </trkpt>
      <trkpt lat="48.3794" lon="2.67369">
        <ele>115.01</ele>
        <time>2013-07-07T10:52:23Z</time>
      </trkpt>
      <trkpt lat="48.3794" lon="2.67369">
        <ele>113.57</ele>
        <time>2013-07-07T10:52:25Z</time>
      </trkpt>
      <trkpt lat="48.37941" lon="2.67368">
        <ele>112.61</ele>
        <time>2013-07-07T10:58:48Z</time>
      </trkpt>
      <trkpt lat="48.37941" lon="2.67367">
        <ele>113.57</ele>
        <time>2013-07-07T11:00:16Z</time>
      </trkpt>
      <trkpt lat="48.37941" lon="2.67368">
        <ele>113.09</ele>
        <time>2013-07-07T11:00:28Z</time>
      </trkpt>
      <trkpt lat="48.37936" lon="2.67366">
        <ele>113.09</ele>
        <time>2013-07-07T11:00:38Z</time>
      </trkpt>
      <trkpt lat="48.37936" lon="2.67368">
        <ele>112.61</ele>
        <time>2013-07-07T11:00:40Z</time>
      </trkpt>
      <trkpt lat="48.37939" lon="2.6737">
        <ele>112.61</ele>
        <time>2013-07-07T11:00:48Z</time>
      </trkpt>
      <trkpt lat="48.37938" lon="2.67369">
        <ele>111.17</ele>
        <time>2013-07-07T11:01:18Z</time>
      </trkpt>
      <trkpt lat="48.37938" lon="2.67368">
        <ele>112.13</ele>
        <time>2013-07-07T11:03:35Z</time>
      </trkpt>
      <trkpt lat="48.37937" lon="2.67368">
        <ele>112.61</ele>
        <time>2013-07-07T11:09:52Z</time>
      </trkpt>
      <trkpt lat="48.37937" lon="2.67362">
        <ele>114.53</ele>
        <time>2013-07-07T11:10:14Z</time>
      </trkpt>
      <trkpt lat="48.37933" lon="2.67361">
        <ele>114.53</ele>
        <time>2013-07-07T11:10:32Z</time>
      </trkpt>
      <trkpt lat="48.37931" lon="2.67367">
        <ele>113.09</ele>
        <time>2013-07-07T11:10:58Z</time>
      </trkpt>
      <trkpt lat="48.37934" lon="2.67371">
        <ele>112.13</ele>
        <time>2013-07-07T11:11:10Z</time>
      </trkpt>
      <trkpt lat="48.37944" lon="2.67382">
        <ele>111.65</ele>
        <time>2013-07-07T11:11:23Z</time>
      </trkpt>
      <trkpt lat="48.37958" lon="2.67382">
        <ele>111.17</ele>
        <time>2013-07-07T11:11:36Z</time>
      </trkpt>
      <trkpt lat="48.3796" lon="2.6739">
        <ele>111.65</ele>
        <time>2013-07-07T11:11:48Z</time>
      </trkpt>
      <trkpt lat="48.37961" lon="2.67404">
        <ele>112.61</ele>
        <time>2013-07-07T11:11:59Z</time>
      </trkpt>
      <trkpt lat="48.37965" lon="2.67412">
        <ele>110.69</ele>
        <time>2013-07-07T11:12:13Z</time>
      </trkpt>
      <trkpt lat="48.37965" lon="2.67423">
        <ele>110.21</ele>
        <time>2013-07-07T11:12:29Z</time>
      </trkpt>
      <trkpt lat="48.37965" lon="2.67427">
        <ele>110.69</ele>
        <time>2013-07-07T11:12:36Z</time>
      </trkpt>
      <trkpt lat="48.37968" lon="2.67439">
        <ele>111.65</ele>
        <time>2013-07-07T11:12:45Z</time>
      </trkpt>
      <trkpt lat="48.37967" lon="2.67464">
        <ele>110.21</ele>
        <time>2013-07-07T11:12:56Z</time>
      </trkpt>
      <trkpt lat="48.37966" lon="2.67481">
        <ele>110.21</ele>
        <time>2013-07-07T11:13:04Z</time>
      </trkpt>
      <trkpt lat="48.37963" lon="2.67496">
        <ele>109.73</ele>
        <time>2013-07-07T11:13:11Z</time>
      </trkpt>
      <trkpt lat="48.37959" lon="2.67513">
        <ele>112.13</ele>
        <time>2013-07-07T11:13:25Z</time>
      </trkpt>
      <trkpt lat="48.37958" lon="2.67518">
        <ele>112.13</ele>
        <time>2013-07-07T11:13:30Z</time>
      </trkpt>
      <trkpt lat="48.37956" lon="2.67527">
        <ele>111.65</ele>
        <time>2013-07-07T11:13:41Z</time>
      </trkpt>
      <trkpt lat="48.37955" lon="2.67545">
        <ele>109.25</ele>
        <time>2013-07-07T11:13:56Z</time>
      </trkpt>
      <trkpt lat="48.37944" lon="2.67555">
        <ele>108.77</ele>
        <time>2013-07-07T11:14:08Z</time>
      </trkpt>
      <trkpt lat="48.37939" lon="2.67566">
        <ele>109.25</ele>
        <time>2013-07-07T11:14:15Z</time>
      </trkpt>
      <trkpt lat="48.37933" lon="2.67574">
        <ele>108.77</ele>
        <time>2013-07-07T11:14:20Z</time>
      </trkpt>
      <trkpt lat="48.37928" lon="2.67584">
        <ele>110.21</ele>
        <time>2013-07-07T11:14:33Z</time>
      </trkpt>
      <trkpt lat="48.37923" lon="2.67593">
        <ele>110.69</ele>
        <time>2013-07-07T11:14:42Z</time>
      </trkpt>
      <trkpt lat="48.37919" lon="2.67609">
        <ele>109.73</ele>
        <time>2013-07-07T11:14:52Z</time>
      </trkpt>
      <trkpt lat="48.37917" lon="2.67612">
        <ele>110.21</ele>
        <time>2013-07-07T11:14:55Z</time>
      </trkpt>
      <trkpt lat="48.37912" lon="2.67615">
        <ele>108.29</ele>
        <time>2013-07-07T11:15:01Z</time>
      </trkpt>
      <trkpt lat="48.37909" lon="2.67618">
        <ele>106.84</ele>
        <time>2013-07-07T11:15:05Z</time>
      </trkpt>
      <trkpt lat="48.37906" lon="2.67615">
        <ele>106.36</ele>
        <time>2013-07-07T11:15:10Z</time>
      </trkpt>
      <trkpt lat="48.37901" lon="2.67602">
        <ele>105.88</ele>
        <time>2013-07-07T11:15:23Z</time>
      </trkpt>
      <trkpt lat="48.37896" lon="2.67598">
        <ele>107.32</ele>
        <time>2013-07-07T11:15:34Z</time>
      </trkpt>
      <trkpt lat="48.37891" lon="2.67589">
        <ele>109.25</ele>
        <time>2013-07-07T11:15:47Z</time>
      </trkpt>
      <trkpt lat="48.3789" lon="2.67592">
        <ele>109.73</ele>
        <time>2013-07-07T11:15:51Z</time>
      </trkpt>
      <trkpt lat="48.37883" lon="2.67601">
        <ele>111.65</ele>
        <time>2013-07-07T11:16:03Z</time>
      </trkpt>
      <trkpt lat="48.3788" lon="2.67606">
        <ele>113.09</ele>
        <time>2013-07-07T11:16:10Z</time>
      </trkpt>
      <trkpt lat="48.37879" lon="2.67606">
        <ele>113.57</ele>
        <time>2013-07-07T11:16:12Z</time>
      </trkpt>
      <trkpt lat="48.37865" lon="2.67591">
        <ele>114.05</ele>
        <time>2013-07-07T11:16:26Z</time>
      </trkpt>
      <trkpt lat="48.37855" lon="2.67587">
        <ele>114.53</ele>
        <time>2013-07-07T11:16:36Z</time>
      </trkpt>
      <trkpt lat="48.37844" lon="2.67576">
        <ele>114.53</ele>
        <time>2013-07-07T11:16:45Z</time>
      </trkpt>
      <trkpt lat="48.37832" lon="2.67557">
        <ele>115.01</ele>
        <time>2013-07-07T11:16:58Z</time>
      </trkpt>
      <trkpt lat="48.37824" lon="2.67545">
        <ele>115.01</ele>
        <time>2013-07-07T11:17:10Z</time>
      </trkpt>
      <trkpt lat="48.37819" lon="2.67538">
        <ele>115.01</ele>
        <time>2013-07-07T11:17:18Z</time>
      </trkpt>
      <trkpt lat="48.37807" lon="2.67537">
        <ele>113.57</ele>
        <time>2013-07-07T11:17:29Z</time>
      </trkpt>
      <trkpt lat="48.37806" lon="2.67537">
        <ele>114.53</ele>
        <time>2013-07-07T11:17:41Z</time>
      </trkpt>
      <trkpt lat="48.37805" lon="2.67549">
        <ele>114.53</ele>
        <time>2013-07-07T11:17:53Z</time>
      </trkpt>
      <trkpt lat="48.37809" lon="2.67554">
        <ele>114.53</ele>
        <time>2013-07-07T11:18:11Z</time>
      </trkpt>
      <trkpt lat="48.37819" lon="2.67574">
        <ele>115.98</ele>
        <time>2013-07-07T11:18:25Z</time>
      </trkpt>
      <trkpt lat="48.37824" lon="2.67588">
        <ele>115.5</ele>
        <time>2013-07-07T11:18:36Z</time>
      </trkpt>
      <trkpt lat="48.37828" lon="2.676">
        <ele>115.98</ele>
        <time>2013-07-07T11:18:49Z</time>
      </trkpt>
      <trkpt lat="48.37829" lon="2.6761">
        <ele>115.01</ele>
        <time>2013-07-07T11:19:03Z</time>
      </trkpt>
      <trkpt lat="48.37829" lon="2.67639">
        <ele>115.5</ele>
        <time>2013-07-07T11:19:15Z</time>
      </trkpt>
      <trkpt lat="48.37833" lon="2.67679">
        <ele>115.01</ele>
        <time>2013-07-07T11:19:31Z</time>
      </trkpt>
      <trkpt lat="48.37836" lon="2.67706">
        <ele>115.01</ele>
        <time>2013-07-07T11:19:45Z</time>
      </trkpt>
      <trkpt lat="48.37844" lon="2.67726">
        <ele>115.5</ele>
        <time>2013-07-07T11:19:59Z</time>
      </trkpt>
      <trkpt lat="48.37844" lon="2.67728">
        <ele>115.5</ele>
        <time>2013-07-07T11:20:14Z</time>
      </trkpt>
      <trkpt lat="48.37844" lon="2.67728">
        <ele>114.05</ele>
        <time>2013-07-07T11:20:44Z</time>
      </trkpt>
      <trkpt lat="48.37844" lon="2.6773">
        <ele>115.01</ele>
        <time>2013-07-07T11:20:51Z</time>
      </trkpt>
      <trkpt lat="48.37851" lon="2.67742">
        <ele>112.13</ele>
        <time>2013-07-07T11:21:05Z</time>
      </trkpt>
      <trkpt lat="48.37856" lon="2.67757">
        <ele>111.17</ele>
        <time>2013-07-07T11:21:19Z</time>
      </trkpt>
      <trkpt lat="48.37856" lon="2.67759">
        <ele>113.09</ele>
        <time>2013-07-07T11:21:23Z</time>
      </trkpt>
      <trkpt lat="48.37856" lon="2.6777">
        <ele>114.05</ele>
        <time>2013-07-07T11:21:32Z</time>
      </trkpt>
      <trkpt lat="48.37857" lon="2.67784">
        <ele>115.5</ele>
        <time>2013-07-07T11:21:42Z</time>
      </trkpt>
      <trkpt lat="48.3786" lon="2.67792">
        <ele>114.53</ele>
        <time>2013-07-07T11:21:46Z</time>
      </trkpt>
      <trkpt lat="48.37868" lon="2.67813">
        <ele>115.98</ele>
        <time>2013-07-07T11:22:00Z</time>
      </trkpt>
      <trkpt lat="48.37861" lon="2.67823">
        <ele>116.46</ele>
        <time>2013-07-07T11:22:11Z</time>
      </trkpt>
      <trkpt lat="48.3786" lon="2.67824">
        <ele>116.46</ele>
        <time>2013-07-07T11:22:13Z</time>
      </trkpt>
      <trkpt lat="48.37858" lon="2.6783">
        <ele>117.42</ele>
        <time>2013-07-07T11:22:28Z</time>
      </trkpt>
      <trkpt lat="48.37859" lon="2.67833">
        <ele>116.46</ele>
        <time>2013-07-07T11:22:41Z</time>
      </trkpt>
      <trkpt lat="48.3786" lon="2.67849">
        <ele>115.98</ele>
        <time>2013-07-07T11:22:54Z</time>
      </trkpt>
      <trkpt lat="48.37855" lon="2.67873">
        <ele>114.53</ele>
        <time>2013-07-07T11:23:08Z</time>
      </trkpt>
      <trkpt lat="48.37851" lon="2.67886">
        <ele>115.5</ele>
        <time>2013-07-07T11:23:18Z</time>
      </trkpt>
      <trkpt lat="48.37847" lon="2.67897">
        <ele>115.01</ele>
        <time>2013-07-07T11:23:31Z</time>
      </trkpt>
      <trkpt lat="48.37844" lon="2.679">
        <ele>114.53</ele>
        <time>2013-07-07T11:23:45Z</time>
      </trkpt>
      <trkpt lat="48.37844" lon="2.67899">
        <ele>115.01</ele>
        <time>2013-07-07T11:23:47Z</time>
      </trkpt>
      <trkpt lat="48.3784" lon="2.6789">
        <ele>115.5</ele>
        <time>2013-07-07T11:23:51Z</time>
      </trkpt>
      <trkpt lat="48.37832" lon="2.67888">
        <ele>116.46</ele>
        <time>2013-07-07T11:24:02Z</time>
      </trkpt>
      <trkpt lat="48.37831" lon="2.67889">
        <ele>116.46</ele>
        <time>2013-07-07T11:24:03Z</time>
      </trkpt>
      <trkpt lat="48.37828" lon="2.67894">
        <ele>115.01</ele>
        <time>2013-07-07T11:24:18Z</time>
      </trkpt>
      <trkpt lat="48.3783" lon="2.67902">
        <ele>116.46</ele>
        <time>2013-07-07T11:24:23Z</time>
      </trkpt>
      <trkpt lat="48.37824" lon="2.67906">
        <ele>114.05</ele>
        <time>2013-07-07T11:24:32Z</time>
      </trkpt>
      <trkpt lat="48.37819" lon="2.67907">
        <ele>114.05</ele>
        <time>2013-07-07T11:24:52Z</time>
      </trkpt>
      <trkpt lat="48.3782" lon="2.67912">
        <ele>113.09</ele>
        <time>2013-07-07T11:25:05Z</time>
      </trkpt>
      <trkpt lat="48.37819" lon="2.67919">
        <ele>113.09</ele>
        <time>2013-07-07T11:25:32Z</time>
      </trkpt>
      <trkpt lat="48.37815" lon="2.67929">
        <ele>111.17</ele>
        <time>2013-07-07T11:25:42Z</time>
      </trkpt>
      <trkpt lat="48.3781" lon="2.67939">
        <ele>109.25</ele>
        <time>2013-07-07T11:25:52Z</time>
      </trkpt>
      <trkpt lat="48.37809" lon="2.67942">
        <ele>108.29</ele>
        <time>2013-07-07T11:25:54Z</time>
      </trkpt>
      <trkpt lat="48.3781" lon="2.67946">
        <ele>107.81</ele>
        <time>2013-07-07T11:25:58Z</time>
      </trkpt>
      <trkpt lat="48.37807" lon="2.67953">
        <ele>104.92</ele>
        <time>2013-07-07T11:26:10Z</time>
      </trkpt>
      <trkpt lat="48.37797" lon="2.67961">
        <ele>104.92</ele>
        <time>2013-07-07T11:26:24Z</time>
      </trkpt>
      <trkpt lat="48.37797" lon="2.67964">
        <ele>104.44</ele>
        <time>2013-07-07T11:26:30Z</time>
      </trkpt>
      <trkpt lat="48.37796" lon="2.67985">
        <ele>102.04</ele>
        <time>2013-07-07T11:26:44Z</time>
      </trkpt>
      <trkpt lat="48.37796" lon="2.6799">
        <ele>102.04</ele>
        <time>2013-07-07T11:26:49Z</time>
      </trkpt>
      <trkpt lat="48.37803" lon="2.67991">
        <ele>98.67</ele>
        <time>2013-07-07T11:27:02Z</time>
      </trkpt>
      <trkpt lat="48.37804" lon="2.67991">
        <ele>97.71</ele>
        <time>2013-07-07T11:27:07Z</time>
      </trkpt>
      <trkpt lat="48.37808" lon="2.67992">
        <ele>97.71</ele>
        <time>2013-07-07T11:27:10Z</time>
      </trkpt>
      <trkpt lat="48.37817" lon="2.67995">
        <ele>95.31</ele>
        <time>2013-07-07T11:27:23Z</time>
      </trkpt>
      <trkpt lat="48.3782" lon="2.67995">
        <ele>94.83</ele>
        <time>2013-07-07T11:27:25Z</time>
      </trkpt>
      <trkpt lat="48.37831" lon="2.68007">
        <ele>91.46</ele>
        <time>2013-07-07T11:27:37Z</time>
      </trkpt>
      <trkpt lat="48.37838" lon="2.68026">
        <ele>90.02</ele>
        <time>2013-07-07T11:27:52Z</time>
      </trkpt>
      <trkpt lat="48.37847" lon="2.68045">
        <ele>87.62</ele>
        <time>2013-07-07T11:28:05Z</time>
      </trkpt>
      <trkpt lat="48.3785" lon="2.68049">
        <ele>87.62</ele>
        <time>2013-07-07T11:28:07Z</time>
      </trkpt>
      <trkpt lat="48.37851" lon="2.68052">
        <ele>86.66</ele>
        <time>2013-07-07T11:28:09Z</time>
      </trkpt>
      <trkpt lat="48.37855" lon="2.68062">
        <ele>86.66</ele>
        <time>2013-07-07T11:28:14Z</time>
      </trkpt>
      <trkpt lat="48.37857" lon="2.68077">
        <ele>84.73</ele>
        <time>2013-07-07T11:28:27Z</time>
      </trkpt>
      <trkpt lat="48.37857" lon="2.68079">
        <ele>84.25</ele>
        <time>2013-07-07T11:28:28Z</time>
      </trkpt>
      <trkpt lat="48.3786" lon="2.68096">
        <ele>83.77</ele>
        <time>2013-07-07T11:28:38Z</time>
      </trkpt>
      <trkpt lat="48.37858" lon="2.68114">
        <ele>83.77</ele>
        <time>2013-07-07T11:28:50Z</time>
      </trkpt>
      <trkpt lat="48.37864" lon="2.68134">
        <ele>83.77</ele>
        <time>2013-07-07T11:29:05Z</time>
      </trkpt>
      <trkpt lat="48.37865" lon="2.68152">
        <ele>83.29</ele>
        <time>2013-07-07T11:29:18Z</time>
      </trkpt>
      <trkpt lat="48.37875" lon="2.68169">
        <ele>82.81</ele>
        <time>2013-07-07T11:29:32Z</time>
      </trkpt>
      <trkpt lat="48.37877" lon="2.68186">
        <ele>82.33</ele>
        <time>2013-07-07T11:29:42Z</time>
      </trkpt>
      <trkpt lat="48.3788" lon="2.68197">
        <ele>81.37</ele>
        <time>2013-07-07T11:29:49Z</time>
      </trkpt>
      <trkpt lat="48.37882" lon="2.68207">
        <ele>81.85</ele>
        <time>2013-07-07T11:29:55Z</time>
      </trkpt>
      <trkpt lat="48.37884" lon="2.68229">
        <ele>81.85</ele>
        <time>2013-07-07T11:30:05Z</time>
      </trkpt>
      <trkpt lat="48.37888" lon="2.68242">
        <ele>80.89</ele>
        <time>2013-07-07T11:30:18Z</time>
      </trkpt>
      <trkpt lat="48.37888" lon="2.68247">
        <ele>80.89</ele>
        <time>2013-07-07T11:30:21Z</time>
      </trkpt>
      <trkpt lat="48.37887" lon="2.68271">
        <ele>79.93</ele>
        <time>2013-07-07T11:30:35Z</time>
      </trkpt>
      <trkpt lat="48.37887" lon="2.68272">
        <ele>79.45</ele>
        <time>2013-07-07T11:30:36Z</time>
      </trkpt>
      <trkpt lat="48.37886" lon="2.68288">
        <ele>79.93</ele>
        <time>2013-07-07T11:30:46Z</time>
      </trkpt>
      <trkpt lat="48.37884" lon="2.68311">
        <ele>79.45</ele>
        <time>2013-07-07T11:31:00Z</time>
      </trkpt>
      <trkpt lat="48.37884" lon="2.68334">
        <ele>79.93</ele>
        <time>2013-07-07T11:31:12Z</time>
      </trkpt>
      <trkpt lat="48.37882" lon="2.68342">
        <ele>79.45</ele>
        <time>2013-07-07T11:31:16Z</time>
      </trkpt>
      <trkpt lat="48.3788" lon="2.68367">
        <ele>80.41</ele>
        <time>2013-07-07T11:31:29Z</time>
      </trkpt>
      <trkpt lat="48.37879" lon="2.68382">
        <ele>79.93</ele>
        <time>2013-07-07T11:31:34Z</time>
      </trkpt>
      <trkpt lat="48.3788" lon="2.68391">
        <ele>80.41</ele>
        <time>2013-07-07T11:31:38Z</time>
      </trkpt>
      <trkpt lat="48.37878" lon="2.68416">
        <ele>79.93</ele>
        <time>2013-07-07T11:31:52Z</time>
      </trkpt>
      <trkpt lat="48.37875" lon="2.68435">
        <ele>80.41</ele>
        <time>2013-07-07T11:32:04Z</time>
      </trkpt>
      <trkpt lat="48.37876" lon="2.68442">
        <ele>80.41</ele>
        <time>2013-07-07T11:32:08Z</time>
      </trkpt>
      <trkpt lat="48.37876" lon="2.68467">
        <ele>79.93</ele>
        <time>2013-07-07T11:32:21Z</time>
      </trkpt>
      <trkpt lat="48.37876" lon="2.68485">
        <ele>79.93</ele>
        <time>2013-07-07T11:32:32Z</time>
      </trkpt>
      <trkpt lat="48.37876" lon="2.68491">
        <ele>79.93</ele>
        <time>2013-07-07T11:32:34Z</time>
      </trkpt>
      <trkpt lat="48.37874" lon="2.68501">
        <ele>79.45</ele>
        <time>2013-07-07T11:32:39Z</time>
      </trkpt>
      <trkpt lat="48.37873" lon="2.68511">
        <ele>79.45</ele>
        <time>2013-07-07T11:32:44Z</time>
      </trkpt>
      <trkpt lat="48.37872" lon="2.68517">
        <ele>80.41</ele>
        <time>2013-07-07T11:32:47Z</time>
      </trkpt>
      <trkpt lat="48.37871" lon="2.68533">
        <ele>79.45</ele>
        <time>2013-07-07T11:32:54Z</time>
      </trkpt>
      <trkpt lat="48.37868" lon="2.68544">
        <ele>79.45</ele>
        <time>2013-07-07T11:33:01Z</time>
      </trkpt>
      <trkpt lat="48.37873" lon="2.68566">
        <ele>78.97</ele>
        <time>2013-07-07T11:33:14Z</time>
      </trkpt>
      <trkpt lat="48.37874" lon="2.68573">
        <ele>78.97</ele>
        <time>2013-07-07T11:33:23Z</time>
      </trkpt>
      <trkpt lat="48.37872" lon="2.68578">
        <ele>78.48</ele>
        <time>2013-07-07T11:33:26Z</time>
      </trkpt>
      <trkpt lat="48.37871" lon="2.68589">
        <ele>79.45</ele>
        <time>2013-07-07T11:33:31Z</time>
      </trkpt>
      <trkpt lat="48.37871" lon="2.68594">
        <ele>78.97</ele>
        <time>2013-07-07T11:33:34Z</time>
      </trkpt>
      <trkpt lat="48.37871" lon="2.686">
        <ele>79.45</ele>
        <time>2013-07-07T11:33:49Z</time>
      </trkpt>
      <trkpt lat="48.37872" lon="2.68601">
        <ele>78.97</ele>
        <time>2013-07-07T11:34:26Z</time>
      </trkpt>
      <trkpt lat="48.37872" lon="2.68607">
        <ele>78.97</ele>
        <time>2013-07-07T11:34:46Z</time>
      </trkpt>
      <trkpt lat="48.37874" lon="2.68618">
        <ele>79.93</ele>
        <time>2013-07-07T11:34:58Z</time>
      </trkpt>
      <trkpt lat="48.37869" lon="2.68621">
        <ele>79.45</ele>
        <time>2013-07-07T11:35:09Z</time>
      </trkpt>
      <trkpt lat="48.37866" lon="2.68628">
        <ele>79.45</ele>
        <time>2013-07-07T11:35:44Z</time>
      </trkpt>
      <trkpt lat="48.37865" lon="2.68643">
        <ele>79.93</ele>
        <time>2013-07-07T11:35:55Z</time>
      </trkpt>
      <trkpt lat="48.37867" lon="2.68662">
        <ele>79.45</ele>
        <time>2013-07-07T11:36:08Z</time>
      </trkpt>
      <trkpt lat="48.37866" lon="2.68687">
        <ele>79.45</ele>
        <time>2013-07-07T11:36:21Z</time>
      </trkpt>
      <trkpt lat="48.37865" lon="2.6869">
        <ele>80.41</ele>
        <time>2013-07-07T11:36:23Z</time>
      </trkpt>
      <trkpt lat="48.37864" lon="2.68713">
        <ele>79.45</ele>
        <time>2013-07-07T11:36:37Z</time>
      </trkpt>
      <trkpt lat="48.37863" lon="2.68738">
        <ele>80.89</ele>
        <time>2013-07-07T11:36:50Z</time>
      </trkpt>
      <trkpt lat="48.37862" lon="2.68758">
        <ele>80.41</ele>
        <time>2013-07-07T11:37:00Z</time>
      </trkpt>
      <trkpt lat="48.37861" lon="2.68775">
        <ele>78.97</ele>
        <time>2013-07-07T11:37:11Z</time>
      </trkpt>
      <trkpt lat="48.37861" lon="2.688">
        <ele>80.89</ele>
        <time>2013-07-07T11:37:25Z</time>
      </trkpt>
      <trkpt lat="48.37861" lon="2.68804">
        <ele>81.37</ele>
        <time>2013-07-07T11:37:27Z</time>
      </trkpt>
      <trkpt lat="48.37861" lon="2.68835">
        <ele>81.37</ele>
        <time>2013-07-07T11:37:42Z</time>
      </trkpt>
      <trkpt lat="48.37861" lon="2.68839">
        <ele>80.89</ele>
        <time>2013-07-07T11:37:44Z</time>
      </trkpt>
      <trkpt lat="48.37859" lon="2.68867">
        <ele>81.37</ele>
        <time>2013-07-07T11:37:59Z</time>
      </trkpt>
      <trkpt lat="48.37859" lon="2.6889">
        <ele>81.37</ele>
        <time>2013-07-07T11:38:10Z</time>
      </trkpt>
      <trkpt lat="48.37859" lon="2.68921">
        <ele>81.85</ele>
        <time>2013-07-07T11:38:25Z</time>
      </trkpt>
      <trkpt lat="48.37857" lon="2.68947">
        <ele>81.85</ele>
        <time>2013-07-07T11:38:38Z</time>
      </trkpt>
      <trkpt lat="48.37854" lon="2.68972">
        <ele>81.85</ele>
        <time>2013-07-07T11:38:49Z</time>
      </trkpt>
      <trkpt lat="48.37854" lon="2.68994">
        <ele>82.33</ele>
        <time>2013-07-07T11:39:02Z</time>
      </trkpt>
      <trkpt lat="48.37854" lon="2.68995">
        <ele>82.81</ele>
        <time>2013-07-07T11:39:03Z</time>
      </trkpt>
      <trkpt lat="48.37853" lon="2.69024">
        <ele>83.29</ele>
        <time>2013-07-07T11:39:18Z</time>
      </trkpt>
      <trkpt lat="48.3785" lon="2.6905">
        <ele>83.29</ele>
        <time>2013-07-07T11:39:30Z</time>
      </trkpt>
      <trkpt lat="48.3785" lon="2.69071">
        <ele>84.25</ele>
        <time>2013-07-07T11:39:43Z</time>
      </trkpt>
      <trkpt lat="48.37849" lon="2.69087">
        <ele>83.77</ele>
        <time>2013-07-07T11:39:51Z</time>
      </trkpt>
      <trkpt lat="48.37848" lon="2.6912">
        <ele>84.25</ele>
        <time>2013-07-07T11:40:08Z</time>
      </trkpt>
      <trkpt lat="48.37847" lon="2.69139">
        <ele>85.21</ele>
        <time>2013-07-07T11:40:20Z</time>
      </trkpt>
      <trkpt lat="48.37849" lon="2.69168">
        <ele>86.18</ele>
        <time>2013-07-07T11:40:34Z</time>
      </trkpt>
      <trkpt lat="48.3785" lon="2.69174">
        <ele>86.18</ele>
        <time>2013-07-07T11:40:38Z</time>
      </trkpt>
      <trkpt lat="48.37848" lon="2.69197">
        <ele>86.66</ele>
        <time>2013-07-07T11:40:52Z</time>
      </trkpt>
      <trkpt lat="48.37846" lon="2.6923">
        <ele>86.18</ele>
        <time>2013-07-07T11:41:07Z</time>
      </trkpt>
      <trkpt lat="48.37844" lon="2.6925">
        <ele>86.18</ele>
        <time>2013-07-07T11:41:21Z</time>
      </trkpt>
      <trkpt lat="48.37843" lon="2.69269">
        <ele>87.14</ele>
        <time>2013-07-07T11:41:31Z</time>
      </trkpt>
      <trkpt lat="48.37844" lon="2.69273">
        <ele>87.14</ele>
        <time>2013-07-07T11:41:33Z</time>
      </trkpt>
      <trkpt lat="48.37843" lon="2.69304">
        <ele>87.14</ele>
        <time>2013-07-07T11:41:50Z</time>
      </trkpt>
      <trkpt lat="48.37842" lon="2.69317">
        <ele>86.66</ele>
        <time>2013-07-07T11:41:57Z</time>
      </trkpt>
      <trkpt lat="48.37844" lon="2.69331">
        <ele>87.62</ele>
        <time>2013-07-07T11:42:03Z</time>
      </trkpt>
      <trkpt lat="48.37843" lon="2.69335">
        <ele>87.14</ele>
        <time>2013-07-07T11:42:05Z</time>
      </trkpt>
      <trkpt lat="48.37845" lon="2.69342">
        <ele>87.62</ele>
        <time>2013-07-07T11:42:08Z</time>
      </trkpt>
      <trkpt lat="48.37844" lon="2.69361">
        <ele>87.62</ele>
        <time>2013-07-07T11:42:16Z</time>
      </trkpt>
      <trkpt lat="48.3784" lon="2.69382">
        <ele>88.1</ele>
        <time>2013-07-07T11:42:27Z</time>
      </trkpt>
      <trkpt lat="48.3784" lon="2.69385">
        <ele>88.1</ele>
        <time>2013-07-07T11:42:29Z</time>
      </trkpt>
      <trkpt lat="48.3784" lon="2.69395">
        <ele>89.06</ele>
        <time>2013-07-07T11:42:36Z</time>
      </trkpt>
      <trkpt lat="48.37839" lon="2.69399">
        <ele>88.1</ele>
        <time>2013-07-07T11:42:38Z</time>
      </trkpt>
      <trkpt lat="48.37837" lon="2.69406">
        <ele>88.58</ele>
        <time>2013-07-07T11:42:42Z</time>
      </trkpt>
      <trkpt lat="48.37836" lon="2.69427">
        <ele>89.06</ele>
        <time>2013-07-07T11:42:51Z</time>
      </trkpt>
      <trkpt lat="48.37836" lon="2.69445">
        <ele>90.02</ele>
        <time>2013-07-07T11:43:00Z</time>
      </trkpt>
      <trkpt lat="48.37835" lon="2.69451">
        <ele>89.06</ele>
        <time>2013-07-07T11:43:04Z</time>
      </trkpt>
      <trkpt lat="48.37834" lon="2.69464">
        <ele>90.5</ele>
        <time>2013-07-07T11:43:13Z</time>
      </trkpt>
      <trkpt lat="48.37833" lon="2.69468">
        <ele>90.5</ele>
        <time>2013-07-07T11:43:15Z</time>
      </trkpt>
      <trkpt lat="48.37833" lon="2.69488">
        <ele>90.98</ele>
        <time>2013-07-07T11:43:26Z</time>
      </trkpt>
      <trkpt lat="48.3783" lon="2.69511">
        <ele>90.98</ele>
        <time>2013-07-07T11:43:37Z</time>
      </trkpt>
      <trkpt lat="48.3783" lon="2.69519">
        <ele>91.46</ele>
        <time>2013-07-07T11:43:42Z</time>
      </trkpt>
      <trkpt lat="48.37827" lon="2.69526">
        <ele>90.98</ele>
        <time>2013-07-07T11:43:46Z</time>
      </trkpt>
      <trkpt lat="48.37828" lon="2.69532">
        <ele>91.46</ele>
        <time>2013-07-07T11:43:49Z</time>
      </trkpt>
      <trkpt lat="48.37827" lon="2.69539">
        <ele>91.46</ele>
        <time>2013-07-07T11:43:53Z</time>
      </trkpt>
      <trkpt lat="48.37824" lon="2.69562">
        <ele>92.42</ele>
        <time>2013-07-07T11:44:05Z</time>
      </trkpt>
      <trkpt lat="48.37825" lon="2.69581">
        <ele>92.42</ele>
        <time>2013-07-07T11:44:16Z</time>
      </trkpt>
      <trkpt lat="48.37825" lon="2.69587">
        <ele>92.9</ele>
        <time>2013-07-07T11:44:19Z</time>
      </trkpt>
      <trkpt lat="48.37825" lon="2.69598">
        <ele>93.39</ele>
        <time>2013-07-07T11:44:25Z</time>
      </trkpt>
      <trkpt lat="48.37815" lon="2.69621">
        <ele>93.39</ele>
        <time>2013-07-07T11:44:38Z</time>
      </trkpt>
      <trkpt lat="48.37806" lon="2.69638">
        <ele>95.31</ele>
        <time>2013-07-07T11:44:52Z</time>
      </trkpt>
      <trkpt lat="48.37806" lon="2.69647">
        <ele>94.83</ele>
        <time>2013-07-07T11:44:56Z</time>
      </trkpt>
      <trkpt lat="48.37798" lon="2.69674">
        <ele>96.27</ele>
        <time>2013-07-07T11:45:10Z</time>
      </trkpt>
      <trkpt lat="48.37793" lon="2.69693">
        <ele>96.75</ele>
        <time>2013-07-07T11:45:22Z</time>
      </trkpt>
      <trkpt lat="48.37786" lon="2.69714">
        <ele>97.71</ele>
        <time>2013-07-07T11:45:35Z</time>
      </trkpt>
      <trkpt lat="48.37784" lon="2.69732">
        <ele>97.71</ele>
        <time>2013-07-07T11:45:46Z</time>
      </trkpt>
      <trkpt lat="48.37786" lon="2.69745">
        <ele>97.71</ele>
        <time>2013-07-07T11:45:56Z</time>
      </trkpt>
      <trkpt lat="48.37785" lon="2.69752">
        <ele>98.67</ele>
        <time>2013-07-07T11:46:00Z</time>
      </trkpt>
      <trkpt lat="48.3778" lon="2.69775">
        <ele>99.63</ele>
        <time>2013-07-07T11:46:12Z</time>
      </trkpt>
      <trkpt lat="48.3778" lon="2.69776">
        <ele>99.15</ele>
        <time>2013-07-07T11:46:13Z</time>
      </trkpt>
      <trkpt lat="48.37778" lon="2.69781">
        <ele>98.67</ele>
        <time>2013-07-07T11:46:19Z</time>
      </trkpt>
      <trkpt lat="48.37779" lon="2.69808">
        <ele>100.6</ele>
        <time>2013-07-07T11:46:31Z</time>
      </trkpt>
      <trkpt lat="48.37771" lon="2.69834">
        <ele>101.56</ele>
        <time>2013-07-07T11:46:46Z</time>
      </trkpt>
      <trkpt lat="48.37769" lon="2.69833">
        <ele>102.04</ele>
        <time>2013-07-07T11:47:05Z</time>
      </trkpt>
      <trkpt lat="48.37768" lon="2.69833">
        <ele>102.04</ele>
        <time>2013-07-07T11:47:29Z</time>
      </trkpt>
      <trkpt lat="48.37769" lon="2.69837">
        <ele>100.6</ele>
        <time>2013-07-07T11:48:26Z</time>
      </trkpt>
      <trkpt lat="48.37773" lon="2.6984">
        <ele>101.56</ele>
        <time>2013-07-07T11:48:43Z</time>
      </trkpt>
      <trkpt lat="48.37772" lon="2.6984">
        <ele>101.56</ele>
        <time>2013-07-07T11:49:11Z</time>
      </trkpt>
      <trkpt lat="48.37772" lon="2.69839">
        <ele>100.6</ele>
        <time>2013-07-07T11:50:13Z</time>
      </trkpt>
      <trkpt lat="48.37772" lon="2.69839">
        <ele>101.56</ele>
        <time>2013-07-07T11:50:32Z</time>
      </trkpt>
      <trkpt lat="48.37771" lon="2.6984">
        <ele>102.04</ele>
        <time>2013-07-07T11:50:47Z</time>
      </trkpt>
      <trkpt lat="48.37765" lon="2.69859">
        <ele>102.52</ele>
        <time>2013-07-07T11:50:55Z</time>
      </trkpt>
      <trkpt lat="48.37761" lon="2.69885">
        <ele>103</ele>
        <time>2013-07-07T11:51:07Z</time>
      </trkpt>
      <trkpt lat="48.3776" lon="2.69895">
        <ele>102.52</ele>
        <time>2013-07-07T11:51:17Z</time>
      </trkpt>
      <trkpt lat="48.37759" lon="2.69899">
        <ele>103</ele>
        <time>2013-07-07T11:51:19Z</time>
      </trkpt>
      <trkpt lat="48.37758" lon="2.69919">
        <ele>103.96</ele>
        <time>2013-07-07T11:51:29Z</time>
      </trkpt>
      <trkpt lat="48.37751" lon="2.69939">
        <ele>104.44</ele>
        <time>2013-07-07T11:51:41Z</time>
      </trkpt>
      <trkpt lat="48.37747" lon="2.69959">
        <ele>105.4</ele>
        <time>2013-07-07T11:51:53Z</time>
      </trkpt>
      <trkpt lat="48.3774" lon="2.69975">
        <ele>106.84</ele>
        <time>2013-07-07T11:52:07Z</time>
      </trkpt>
      <trkpt lat="48.37738" lon="2.69994">
        <ele>106.84</ele>
        <time>2013-07-07T11:52:19Z</time>
      </trkpt>
      <trkpt lat="48.37738" lon="2.69997">
        <ele>107.32</ele>
        <time>2013-07-07T11:52:21Z</time>
      </trkpt>
      <trkpt lat="48.37741" lon="2.70013">
        <ele>107.32</ele>
        <time>2013-07-07T11:52:30Z</time>
      </trkpt>
      <trkpt lat="48.3774" lon="2.70028">
        <ele>109.25</ele>
        <time>2013-07-07T11:52:37Z</time>
      </trkpt>
      <trkpt lat="48.37734" lon="2.70048">
        <ele>109.25</ele>
        <time>2013-07-07T11:52:48Z</time>
      </trkpt>
      <trkpt lat="48.37733" lon="2.70055">
        <ele>109.73</ele>
        <time>2013-07-07T11:52:52Z</time>
      </trkpt>
      <trkpt lat="48.37726" lon="2.70086">
        <ele>111.65</ele>
        <time>2013-07-07T11:53:08Z</time>
      </trkpt>
      <trkpt lat="48.37726" lon="2.70086">
        <ele>112.13</ele>
        <time>2013-07-07T11:53:09Z</time>
      </trkpt>
      <trkpt lat="48.37728" lon="2.70107">
        <ele>112.13</ele>
        <time>2013-07-07T11:53:17Z</time>
      </trkpt>
      <trkpt lat="48.37724" lon="2.7013">
        <ele>113.57</ele>
        <time>2013-07-07T11:53:29Z</time>
      </trkpt>
      <trkpt lat="48.37722" lon="2.70155">
        <ele>115.98</ele>
        <time>2013-07-07T11:53:43Z</time>
      </trkpt>
      <trkpt lat="48.37722" lon="2.70156">
        <ele>115.98</ele>
        <time>2013-07-07T11:53:44Z</time>
      </trkpt>
      <trkpt lat="48.3772" lon="2.70168">
        <ele>116.94</ele>
        <time>2013-07-07T11:53:50Z</time>
      </trkpt>
      <trkpt lat="48.37716" lon="2.70178">
        <ele>116.46</ele>
        <time>2013-07-07T11:53:56Z</time>
      </trkpt>
      <trkpt lat="48.37715" lon="2.70184">
        <ele>117.9</ele>
        <time>2013-07-07T11:53:59Z</time>
      </trkpt>
      <trkpt lat="48.37712" lon="2.70205">
        <ele>118.86</ele>
        <time>2013-07-07T11:54:12Z</time>
      </trkpt>
      <trkpt lat="48.37713" lon="2.70221">
        <ele>120.3</ele>
        <time>2013-07-07T11:54:21Z</time>
      </trkpt>
      <trkpt lat="48.37712" lon="2.70244">
        <ele>120.3</ele>
        <time>2013-07-07T11:54:33Z</time>
      </trkpt>
      <trkpt lat="48.3771" lon="2.70274">
        <ele>121.26</ele>
        <time>2013-07-07T11:54:47Z</time>
      </trkpt>
      <trkpt lat="48.37709" lon="2.7028">
        <ele>121.74</ele>
        <time>2013-07-07T11:54:51Z</time>
      </trkpt>
      <trkpt lat="48.37708" lon="2.70288">
        <ele>121.74</ele>
        <time>2013-07-07T11:54:55Z</time>
      </trkpt>
      <trkpt lat="48.37707" lon="2.70302">
        <ele>121.74</ele>
        <time>2013-07-07T11:55:05Z</time>
      </trkpt>
      <trkpt lat="48.37707" lon="2.70306">
        <ele>121.74</ele>
        <time>2013-07-07T11:55:07Z</time>
      </trkpt>
      <trkpt lat="48.37704" lon="2.7033">
        <ele>121.74</ele>
        <time>2013-07-07T11:55:18Z</time>
      </trkpt>
      <trkpt lat="48.37703" lon="2.70333">
        <ele>121.74</ele>
        <time>2013-07-07T11:55:20Z</time>
      </trkpt>
      <trkpt lat="48.37701" lon="2.70362">
        <ele>121.74</ele>
        <time>2013-07-07T11:55:33Z</time>
      </trkpt>
      <trkpt lat="48.37701" lon="2.70366">
        <ele>121.26</ele>
        <time>2013-07-07T11:55:35Z</time>
      </trkpt>
      <trkpt lat="48.37698" lon="2.70378">
        <ele>121.26</ele>
        <time>2013-07-07T11:55:42Z</time>
      </trkpt>
      <trkpt lat="48.37697" lon="2.70386">
        <ele>121.26</ele>
        <time>2013-07-07T11:55:47Z</time>
      </trkpt>
      <trkpt lat="48.37696" lon="2.7041">
        <ele>119.82</ele>
        <time>2013-07-07T11:56:00Z</time>
      </trkpt>
      <trkpt lat="48.37695" lon="2.70414">
        <ele>120.3</ele>
        <time>2013-07-07T11:56:02Z</time>
      </trkpt>
      <trkpt lat="48.37692" lon="2.70423">
        <ele>120.78</ele>
        <time>2013-07-07T11:56:06Z</time>
      </trkpt>
      <trkpt lat="48.37687" lon="2.7044">
        <ele>120.78</ele>
        <time>2013-07-07T11:56:15Z</time>
      </trkpt>
      <trkpt lat="48.37687" lon="2.70447">
        <ele>121.26</ele>
        <time>2013-07-07T11:56:20Z</time>
      </trkpt>
      <trkpt lat="48.37686" lon="2.70464">
        <ele>121.26</ele>
        <time>2013-07-07T11:56:30Z</time>
      </trkpt>
      <trkpt lat="48.37683" lon="2.70486">
        <ele>120.78</ele>
        <time>2013-07-07T11:56:41Z</time>
      </trkpt>
      <trkpt lat="48.37679" lon="2.70504">
        <ele>120.78</ele>
        <time>2013-07-07T11:56:49Z</time>
      </trkpt>
      <trkpt lat="48.37676" lon="2.70517">
        <ele>121.26</ele>
        <time>2013-07-07T11:56:56Z</time>
      </trkpt>
      <trkpt lat="48.37674" lon="2.70537">
        <ele>121.74</ele>
        <time>2013-07-07T11:57:08Z</time>
      </trkpt>
      <trkpt lat="48.37672" lon="2.70549">
        <ele>121.26</ele>
        <time>2013-07-07T11:57:13Z</time>
      </trkpt>
      <trkpt lat="48.37666" lon="2.7058">
        <ele>120.78</ele>
        <time>2013-07-07T11:57:27Z</time>
      </trkpt>
      <trkpt lat="48.37666" lon="2.70586">
        <ele>120.78</ele>
        <time>2013-07-07T11:57:29Z</time>
      </trkpt>
      <trkpt lat="48.3766" lon="2.70614">
        <ele>120.78</ele>
        <time>2013-07-07T11:57:43Z</time>
      </trkpt>
      <trkpt lat="48.37661" lon="2.70619">
        <ele>120.3</ele>
        <time>2013-07-07T11:57:46Z</time>
      </trkpt>
      <trkpt lat="48.37665" lon="2.70631">
        <ele>121.26</ele>
        <time>2013-07-07T11:57:56Z</time>
      </trkpt>
      <trkpt lat="48.3767" lon="2.70636">
        <ele>121.26</ele>
        <time>2013-07-07T11:58:15Z</time>
      </trkpt>
      <trkpt lat="48.37671" lon="2.70637">
        <ele>120.78</ele>
        <time>2013-07-07T11:59:08Z</time>
      </trkpt>
      <trkpt lat="48.37681" lon="2.70653">
        <ele>121.26</ele>
        <time>2013-07-07T11:59:19Z</time>
      </trkpt>
      <trkpt lat="48.37694" lon="2.70667">
        <ele>122.22</ele>
        <time>2013-07-07T11:59:30Z</time>
      </trkpt>
      <trkpt lat="48.37699" lon="2.70671">
        <ele>122.22</ele>
        <time>2013-07-07T11:59:34Z</time>
      </trkpt>
      <trkpt lat="48.37706" lon="2.7068">
        <ele>122.71</ele>
        <time>2013-07-07T11:59:41Z</time>
      </trkpt>
      <trkpt lat="48.37711" lon="2.70685">
        <ele>123.67</ele>
        <time>2013-07-07T11:59:45Z</time>
      </trkpt>
      <trkpt lat="48.37724" lon="2.70699">
        <ele>123.67</ele>
        <time>2013-07-07T11:59:57Z</time>
      </trkpt>
      <trkpt lat="48.37728" lon="2.70704">
        <ele>123.67</ele>
        <time>2013-07-07T12:00:02Z</time>
      </trkpt>
      <trkpt lat="48.37737" lon="2.70715">
        <ele>123.67</ele>
        <time>2013-07-07T12:00:11Z</time>
      </trkpt>
      <trkpt lat="48.37741" lon="2.70718">
        <ele>124.63</ele>
        <time>2013-07-07T12:00:14Z</time>
      </trkpt>
      <trkpt lat="48.37756" lon="2.70732">
        <ele>124.63</ele>
        <time>2013-07-07T12:00:28Z</time>
      </trkpt>
      <trkpt lat="48.37768" lon="2.7074">
        <ele>124.15</ele>
        <time>2013-07-07T12:00:40Z</time>
      </trkpt>
      <trkpt lat="48.37772" lon="2.70744">
        <ele>125.11</ele>
        <time>2013-07-07T12:00:45Z</time>
      </trkpt>
      <trkpt lat="48.37781" lon="2.7075">
        <ele>125.59</ele>
        <time>2013-07-07T12:00:50Z</time>
      </trkpt>
      <trkpt lat="48.37796" lon="2.7077">
        <ele>124.63</ele>
        <time>2013-07-07T12:01:05Z</time>
      </trkpt>
      <trkpt lat="48.37801" lon="2.70773">
        <ele>125.11</ele>
        <time>2013-07-07T12:01:09Z</time>
      </trkpt>
      <trkpt lat="48.37816" lon="2.70785">
        <ele>126.07</ele>
        <time>2013-07-07T12:01:21Z</time>
      </trkpt>
      <trkpt lat="48.37825" lon="2.70791">
        <ele>126.07</ele>
        <time>2013-07-07T12:01:28Z</time>
      </trkpt>
      <trkpt lat="48.37827" lon="2.70792">
        <ele>126.07</ele>
        <time>2013-07-07T12:01:30Z</time>
      </trkpt>
      <trkpt lat="48.37828" lon="2.70795">
        <ele>125.11</ele>
        <time>2013-07-07T12:01:32Z</time>
      </trkpt>
      <trkpt lat="48.37833" lon="2.70801">
        <ele>125.59</ele>
        <time>2013-07-07T12:01:37Z</time>
      </trkpt>
      <trkpt lat="48.37839" lon="2.7081">
        <ele>125.11</ele>
        <time>2013-07-07T12:01:43Z</time>
      </trkpt>
      <trkpt lat="48.37844" lon="2.70815">
        <ele>125.59</ele>
        <time>2013-07-07T12:01:46Z</time>
      </trkpt>
      <trkpt lat="48.37851" lon="2.7082">
        <ele>125.59</ele>
        <time>2013-07-07T12:01:51Z</time>
      </trkpt>
      <trkpt lat="48.37857" lon="2.70825">
        <ele>125.59</ele>
        <time>2013-07-07T12:01:55Z</time>
      </trkpt>
      <trkpt lat="48.3786" lon="2.70825">
        <ele>126.07</ele>
        <time>2013-07-07T12:01:57Z</time>
      </trkpt>
      <trkpt lat="48.37869" lon="2.70839">
        <ele>124.63</ele>
        <time>2013-07-07T12:02:08Z</time>
      </trkpt>
      <trkpt lat="48.37879" lon="2.7085">
        <ele>126.07</ele>
        <time>2013-07-07T12:02:16Z</time>
      </trkpt>
      <trkpt lat="48.37894" lon="2.70865">
        <ele>125.59</ele>
        <time>2013-07-07T12:02:29Z</time>
      </trkpt>
      <trkpt lat="48.37899" lon="2.7087">
        <ele>126.07</ele>
        <time>2013-07-07T12:02:33Z</time>
      </trkpt>
      <trkpt lat="48.37903" lon="2.70874">
        <ele>125.59</ele>
        <time>2013-07-07T12:02:37Z</time>
      </trkpt>
      <trkpt lat="48.37913" lon="2.70883">
        <ele>125.59</ele>
        <time>2013-07-07T12:02:47Z</time>
      </trkpt>
      <trkpt lat="48.37926" lon="2.70898">
        <ele>125.11</ele>
        <time>2013-07-07T12:02:59Z</time>
      </trkpt>
      <trkpt lat="48.37935" lon="2.70907">
        <ele>125.11</ele>
        <time>2013-07-07T12:03:09Z</time>
      </trkpt>
      <trkpt lat="48.37944" lon="2.70917">
        <ele>125.11</ele>
        <time>2013-07-07T12:03:16Z</time>
      </trkpt>
      <trkpt lat="48.37957" lon="2.70927">
        <ele>125.59</ele>
        <time>2013-07-07T12:03:29Z</time>
      </trkpt>
      <trkpt lat="48.37959" lon="2.70931">
        <ele>124.63</ele>
        <time>2013-07-07T12:03:31Z</time>
      </trkpt>
      <trkpt lat="48.37966" lon="2.70941">
        <ele>125.11</ele>
        <time>2013-07-07T12:03:36Z</time>
      </trkpt>
      <trkpt lat="48.3797" lon="2.70944">
        <ele>124.63</ele>
        <time>2013-07-07T12:03:39Z</time>
      </trkpt>
      <trkpt lat="48.3798" lon="2.70949">
        <ele>124.63</ele>
        <time>2013-07-07T12:03:46Z</time>
      </trkpt>
      <trkpt lat="48.37992" lon="2.70961">
        <ele>124.63</ele>
        <time>2013-07-07T12:03:56Z</time>
      </trkpt>
      <trkpt lat="48.38002" lon="2.70975">
        <ele>123.67</ele>
        <time>2013-07-07T12:04:08Z</time>
      </trkpt>
      <trkpt lat="48.38015" lon="2.70987">
        <ele>124.15</ele>
        <time>2013-07-07T12:04:19Z</time>
      </trkpt>
      <trkpt lat="48.38025" lon="2.70993">
        <ele>124.15</ele>
        <time>2013-07-07T12:04:27Z</time>
      </trkpt>
      <trkpt lat="48.38034" lon="2.71009">
        <ele>123.67</ele>
        <time>2013-07-07T12:04:39Z</time>
      </trkpt>
      <trkpt lat="48.38044" lon="2.71023">
        <ele>124.63</ele>
        <time>2013-07-07T12:04:47Z</time>
      </trkpt>
      <trkpt lat="48.3806" lon="2.71045">
        <ele>123.19</ele>
        <time>2013-07-07T12:05:00Z</time>
      </trkpt>
      <trkpt lat="48.38073" lon="2.71059">
        <ele>123.67</ele>
        <time>2013-07-07T12:05:13Z</time>
      </trkpt>
      <trkpt lat="48.38075" lon="2.71061">
        <ele>123.19</ele>
        <time>2013-07-07T12:05:15Z</time>
      </trkpt>
      <trkpt lat="48.38081" lon="2.71068">
        <ele>123.19</ele>
        <time>2013-07-07T12:05:21Z</time>
      </trkpt>
      <trkpt lat="48.38095" lon="2.71078">
        <ele>123.67</ele>
        <time>2013-07-07T12:05:30Z</time>
      </trkpt>
      <trkpt lat="48.38096" lon="2.71079">
        <ele>123.19</ele>
        <time>2013-07-07T12:05:31Z</time>
      </trkpt>
      <trkpt lat="48.38109" lon="2.711">
        <ele>123.67</ele>
        <time>2013-07-07T12:05:45Z</time>
      </trkpt>
      <trkpt lat="48.38109" lon="2.71101">
        <ele>124.15</ele>
        <time>2013-07-07T12:05:46Z</time>
      </trkpt>
      <trkpt lat="48.38118" lon="2.71113">
        <ele>122.22</ele>
        <time>2013-07-07T12:05:57Z</time>
      </trkpt>
      <trkpt lat="48.38129" lon="2.7113">
        <ele>121.26</ele>
        <time>2013-07-07T12:06:08Z</time>
      </trkpt>
      <trkpt lat="48.38134" lon="2.71139">
        <ele>118.86</ele>
        <time>2013-07-07T12:06:15Z</time>
      </trkpt>
      <trkpt lat="48.38144" lon="2.71158">
        <ele>116.94</ele>
        <time>2013-07-07T12:06:27Z</time>
      </trkpt>
      <trkpt lat="48.38151" lon="2.71172">
        <ele>114.53</ele>
        <time>2013-07-07T12:06:34Z</time>
      </trkpt>
      <trkpt lat="48.38158" lon="2.7119">
        <ele>111.17</ele>
        <time>2013-07-07T12:06:46Z</time>
      </trkpt>
      <trkpt lat="48.38159" lon="2.712">
        <ele>110.69</ele>
        <time>2013-07-07T12:06:53Z</time>
      </trkpt>
      <trkpt lat="48.38164" lon="2.7121">
        <ele>109.25</ele>
        <time>2013-07-07T12:06:57Z</time>
      </trkpt>
      <trkpt lat="48.38173" lon="2.71232">
        <ele>107.81</ele>
        <time>2013-07-07T12:07:07Z</time>
      </trkpt>
      <trkpt lat="48.38179" lon="2.71247">
        <ele>107.81</ele>
        <time>2013-07-07T12:07:15Z</time>
      </trkpt>
      <trkpt lat="48.38187" lon="2.71268">
        <ele>105.4</ele>
        <time>2013-07-07T12:07:25Z</time>
      </trkpt>
      <trkpt lat="48.38194" lon="2.71288">
        <ele>104.44</ele>
        <time>2013-07-07T12:07:38Z</time>
      </trkpt>
      <trkpt lat="48.38195" lon="2.7129">
        <ele>103.96</ele>
        <time>2013-07-07T12:07:39Z</time>
      </trkpt>
      <trkpt lat="48.38203" lon="2.71308">
        <ele>103.96</ele>
        <time>2013-07-07T12:07:54Z</time>
      </trkpt>
      <trkpt lat="48.38207" lon="2.71319">
        <ele>105.4</ele>
        <time>2013-07-07T12:08:18Z</time>
      </trkpt>
      <trkpt lat="48.38213" lon="2.7133">
        <ele>106.84</ele>
        <time>2013-07-07T12:08:28Z</time>
      </trkpt>
      <trkpt lat="48.38213" lon="2.71331">
        <ele>106.36</ele>
        <time>2013-07-07T12:08:29Z</time>
      </trkpt>
      <trkpt lat="48.3822" lon="2.71354">
        <ele>108.29</ele>
        <time>2013-07-07T12:08:44Z</time>
      </trkpt>
      <trkpt lat="48.38223" lon="2.71358">
        <ele>107.32</ele>
        <time>2013-07-07T12:08:48Z</time>
      </trkpt>
      <trkpt lat="48.38226" lon="2.71362">
        <ele>109.73</ele>
        <time>2013-07-07T12:08:52Z</time>
      </trkpt>
      <trkpt lat="48.38231" lon="2.71366">
        <ele>110.21</ele>
        <time>2013-07-07T12:08:57Z</time>
      </trkpt>
      <trkpt lat="48.38237" lon="2.71375">
        <ele>110.21</ele>
        <time>2013-07-07T12:09:10Z</time>
      </trkpt>
      <trkpt lat="48.38245" lon="2.71388">
        <ele>110.21</ele>
        <time>2013-07-07T12:09:27Z</time>
      </trkpt>
      <trkpt lat="48.38245" lon="2.71388">
        <ele>109.25</ele>
        <time>2013-07-07T12:09:30Z</time>
      </trkpt>
      <trkpt lat="48.38246" lon="2.71389">
        <ele>108.77</ele>
        <time>2013-07-07T12:09:31Z</time>
      </trkpt>
      <trkpt lat="48.38251" lon="2.71393">
        <ele>109.25</ele>
        <time>2013-07-07T12:09:44Z</time>
      </trkpt>
      <trkpt lat="48.3826" lon="2.71406">
        <ele>107.81</ele>
        <time>2013-07-07T12:10:00Z</time>
      </trkpt>
      <trkpt lat="48.38269" lon="2.71412">
        <ele>105.4</ele>
        <time>2013-07-07T12:10:09Z</time>
      </trkpt>
      <trkpt lat="48.38281" lon="2.7142">
        <ele>103</ele>
        <time>2013-07-07T12:10:21Z</time>
      </trkpt>
      <trkpt lat="48.38282" lon="2.7142">
        <ele>103</ele>
        <time>2013-07-07T12:10:22Z</time>
      </trkpt>
      <trkpt lat="48.38287" lon="2.71416">
        <ele>101.56</ele>
        <time>2013-07-07T12:10:27Z</time>
      </trkpt>
      <trkpt lat="48.38291" lon="2.71409">
        <ele>100.11</ele>
        <time>2013-07-07T12:10:40Z</time>
      </trkpt>
      <trkpt lat="48.38303" lon="2.71397">
        <ele>98.67</ele>
        <time>2013-07-07T12:10:55Z</time>
      </trkpt>
      <trkpt lat="48.38305" lon="2.71395">
        <ele>98.19</ele>
        <time>2013-07-07T12:10:56Z</time>
      </trkpt>
      <trkpt lat="48.38308" lon="2.7139">
        <ele>98.67</ele>
        <time>2013-07-07T12:10:59Z</time>
      </trkpt>
      <trkpt lat="48.38315" lon="2.71368">
        <ele>96.75</ele>
        <time>2013-07-07T12:11:12Z</time>
      </trkpt>
      <trkpt lat="48.38315" lon="2.71367">
        <ele>97.23</ele>
        <time>2013-07-07T12:11:13Z</time>
      </trkpt>
      <trkpt lat="48.38323" lon="2.7135">
        <ele>95.79</ele>
        <time>2013-07-07T12:11:24Z</time>
      </trkpt>
      <trkpt lat="48.38326" lon="2.71348">
        <ele>94.35</ele>
        <time>2013-07-07T12:11:27Z</time>
      </trkpt>
      <trkpt lat="48.38328" lon="2.7135">
        <ele>94.35</ele>
        <time>2013-07-07T12:11:30Z</time>
      </trkpt>
      <trkpt lat="48.38337" lon="2.71361">
        <ele>93.39</ele>
        <time>2013-07-07T12:11:40Z</time>
      </trkpt>
      <trkpt lat="48.38342" lon="2.71373">
        <ele>93.87</ele>
        <time>2013-07-07T12:11:51Z</time>
      </trkpt>
      <trkpt lat="48.38344" lon="2.71375">
        <ele>93.39</ele>
        <time>2013-07-07T12:11:54Z</time>
      </trkpt>
      <trkpt lat="48.38348" lon="2.71382">
        <ele>94.35</ele>
        <time>2013-07-07T12:11:59Z</time>
      </trkpt>
      <trkpt lat="48.38351" lon="2.71393">
        <ele>96.27</ele>
        <time>2013-07-07T12:12:09Z</time>
      </trkpt>
      <trkpt lat="48.38365" lon="2.71398">
        <ele>93.87</ele>
        <time>2013-07-07T12:12:23Z</time>
      </trkpt>
      <trkpt lat="48.3837" lon="2.71407">
        <ele>91.94</ele>
        <time>2013-07-07T12:12:34Z</time>
      </trkpt>
      <trkpt lat="48.38375" lon="2.71422">
        <ele>89.54</ele>
        <time>2013-07-07T12:12:45Z</time>
      </trkpt>
      <trkpt lat="48.38377" lon="2.71426">
        <ele>88.58</ele>
        <time>2013-07-07T12:12:47Z</time>
      </trkpt>
      <trkpt lat="48.38386" lon="2.71427">
        <ele>87.14</ele>
        <time>2013-07-07T12:12:56Z</time>
      </trkpt>
      <trkpt lat="48.38401" lon="2.71431">
        <ele>86.18</ele>
        <time>2013-07-07T12:13:08Z</time>
      </trkpt>
      <trkpt lat="48.38424" lon="2.71426">
        <ele>85.21</ele>
        <time>2013-07-07T12:13:23Z</time>
      </trkpt>
      <trkpt lat="48.38435" lon="2.71423">
        <ele>84.25</ele>
        <time>2013-07-07T12:13:34Z</time>
      </trkpt>
      <trkpt lat="48.38445" lon="2.71416">
        <ele>84.73</ele>
        <time>2013-07-07T12:13:46Z</time>
      </trkpt>
      <trkpt lat="48.38457" lon="2.7141">
        <ele>84.73</ele>
        <time>2013-07-07T12:13:56Z</time>
      </trkpt>
      <trkpt lat="48.38473" lon="2.714">
        <ele>84.73</ele>
        <time>2013-07-07T12:14:08Z</time>
      </trkpt>
      <trkpt lat="48.38475" lon="2.71399">
        <ele>84.73</ele>
        <time>2013-07-07T12:14:09Z</time>
      </trkpt>
      <trkpt lat="48.38486" lon="2.71388">
        <ele>84.73</ele>
        <time>2013-07-07T12:14:19Z</time>
      </trkpt>
      <trkpt lat="48.38506" lon="2.71382">
        <ele>86.66</ele>
        <time>2013-07-07T12:14:32Z</time>
      </trkpt>
      <trkpt lat="48.38524" lon="2.71367">
        <ele>87.14</ele>
        <time>2013-07-07T12:14:46Z</time>
      </trkpt>
      <trkpt lat="48.38525" lon="2.71367">
        <ele>86.66</ele>
        <time>2013-07-07T12:14:47Z</time>
      </trkpt>
      <trkpt lat="48.38533" lon="2.71361">
        <ele>87.14</ele>
        <time>2013-07-07T12:15:05Z</time>
      </trkpt>
      <trkpt lat="48.38542" lon="2.71349">
        <ele>87.62</ele>
        <time>2013-07-07T12:15:18Z</time>
      </trkpt>
      <trkpt lat="48.38556" lon="2.71332">
        <ele>88.58</ele>
        <time>2013-07-07T12:15:31Z</time>
      </trkpt>
      <trkpt lat="48.38569" lon="2.71326">
        <ele>88.58</ele>
        <time>2013-07-07T12:15:43Z</time>
      </trkpt>
      <trkpt lat="48.38588" lon="2.71322">
        <ele>89.54</ele>
        <time>2013-07-07T12:15:59Z</time>
      </trkpt>
      <trkpt lat="48.38602" lon="2.71324">
        <ele>89.54</ele>
        <time>2013-07-07T12:16:10Z</time>
      </trkpt>
      <trkpt lat="48.38611" lon="2.71327">
        <ele>90.98</ele>
        <time>2013-07-07T12:16:21Z</time>
      </trkpt>
      <trkpt lat="48.38614" lon="2.71328">
        <ele>91.46</ele>
        <time>2013-07-07T12:16:24Z</time>
      </trkpt>
      <trkpt lat="48.38639" lon="2.71326">
        <ele>91.46</ele>
        <time>2013-07-07T12:16:38Z</time>
      </trkpt>
      <trkpt lat="48.38656" lon="2.71336">
        <ele>93.39</ele>
        <time>2013-07-07T12:16:52Z</time>
      </trkpt>
      <trkpt lat="48.38665" lon="2.71342">
        <ele>93.87</ele>
        <time>2013-07-07T12:17:00Z</time>
      </trkpt>
      <trkpt lat="48.38681" lon="2.71344">
        <ele>94.83</ele>
        <time>2013-07-07T12:17:13Z</time>
      </trkpt>
      <trkpt lat="48.38694" lon="2.71345">
        <ele>94.83</ele>
        <time>2013-07-07T12:17:23Z</time>
      </trkpt>
      <trkpt lat="48.38706" lon="2.71343">
        <ele>95.31</ele>
        <time>2013-07-07T12:17:32Z</time>
      </trkpt>
      <trkpt lat="48.38722" lon="2.71343">
        <ele>95.31</ele>
        <time>2013-07-07T12:17:44Z</time>
      </trkpt>
      <trkpt lat="48.38723" lon="2.71343">
        <ele>95.79</ele>
        <time>2013-07-07T12:17:45Z</time>
      </trkpt>
      <trkpt lat="48.38726" lon="2.71343">
        <ele>94.83</ele>
        <time>2013-07-07T12:17:47Z</time>
      </trkpt>
      <trkpt lat="48.38741" lon="2.71341">
        <ele>95.79</ele>
        <time>2013-07-07T12:18:00Z</time>
      </trkpt>
      <trkpt lat="48.38751" lon="2.71335">
        <ele>97.23</ele>
        <time>2013-07-07T12:18:07Z</time>
      </trkpt>
      <trkpt lat="48.38758" lon="2.71331">
        <ele>96.75</ele>
        <time>2013-07-07T12:18:13Z</time>
      </trkpt>
      <trkpt lat="48.38769" lon="2.71325">
        <ele>95.31</ele>
        <time>2013-07-07T12:18:25Z</time>
      </trkpt>
      <trkpt lat="48.38772" lon="2.71324">
        <ele>95.31</ele>
        <time>2013-07-07T12:18:27Z</time>
      </trkpt>
      <trkpt lat="48.38789" lon="2.71322">
        <ele>92.9</ele>
        <time>2013-07-07T12:18:38Z</time>
      </trkpt>
      <trkpt lat="48.38804" lon="2.71314">
        <ele>92.9</ele>
        <time>2013-07-07T12:18:51Z</time>
      </trkpt>
      <trkpt lat="48.38815" lon="2.71311">
        <ele>93.87</ele>
        <time>2013-07-07T12:18:59Z</time>
      </trkpt>
      <trkpt lat="48.38833" lon="2.71318">
        <ele>93.39</ele>
        <time>2013-07-07T12:19:12Z</time>
      </trkpt>
      <trkpt lat="48.38851" lon="2.71323">
        <ele>93.87</ele>
        <time>2013-07-07T12:19:27Z</time>
      </trkpt>
      <trkpt lat="48.38865" lon="2.71318">
        <ele>94.83</ele>
        <time>2013-07-07T12:19:40Z</time>
      </trkpt>
      <trkpt lat="48.38869" lon="2.71318">
        <ele>93.87</ele>
        <time>2013-07-07T12:19:43Z</time>
      </trkpt>
      <trkpt lat="48.38875" lon="2.71319">
        <ele>92.9</ele>
        <time>2013-07-07T12:19:46Z</time>
      </trkpt>
      <trkpt lat="48.38889" lon="2.71324">
        <ele>91.94</ele>
        <time>2013-07-07T12:19:56Z</time>
      </trkpt>
      <trkpt lat="48.38894" lon="2.71329">
        <ele>90.5</ele>
        <time>2013-07-07T12:20:05Z</time>
      </trkpt>
      <trkpt lat="48.3891" lon="2.71344">
        <ele>90.5</ele>
        <time>2013-07-07T12:20:17Z</time>
      </trkpt>
      <trkpt lat="48.38924" lon="2.71356">
        <ele>90.98</ele>
        <time>2013-07-07T12:20:31Z</time>
      </trkpt>
      <trkpt lat="48.38937" lon="2.71355">
        <ele>90.98</ele>
        <time>2013-07-07T12:20:43Z</time>
      </trkpt>
      <trkpt lat="48.38949" lon="2.71341">
        <ele>93.39</ele>
        <time>2013-07-07T12:20:55Z</time>
      </trkpt>
      <trkpt lat="48.38959" lon="2.71328">
        <ele>92.9</ele>
        <time>2013-07-07T12:21:07Z</time>
      </trkpt>
      <trkpt lat="48.38967" lon="2.71316">
        <ele>92.9</ele>
        <time>2013-07-07T12:21:19Z</time>
      </trkpt>
      <trkpt lat="48.38969" lon="2.71313">
        <ele>94.35</ele>
        <time>2013-07-07T12:21:22Z</time>
      </trkpt>
      <trkpt lat="48.38977" lon="2.71302">
        <ele>94.83</ele>
        <time>2013-07-07T12:21:30Z</time>
      </trkpt>
      <trkpt lat="48.38998" lon="2.71285">
        <ele>94.35</ele>
        <time>2013-07-07T12:21:44Z</time>
      </trkpt>
      <trkpt lat="48.39006" lon="2.71278">
        <ele>94.83</ele>
        <time>2013-07-07T12:21:51Z</time>
      </trkpt>
      <trkpt lat="48.39014" lon="2.7127">
        <ele>96.27</ele>
        <time>2013-07-07T12:21:59Z</time>
      </trkpt>
      <trkpt lat="48.39018" lon="2.71261">
        <ele>95.79</ele>
        <time>2013-07-07T12:22:05Z</time>
      </trkpt>
      <trkpt lat="48.39026" lon="2.71246">
        <ele>95.79</ele>
        <time>2013-07-07T12:22:14Z</time>
      </trkpt>
      <trkpt lat="48.39038" lon="2.71225">
        <ele>95.31</ele>
        <time>2013-07-07T12:22:28Z</time>
      </trkpt>
      <trkpt lat="48.39039" lon="2.71224">
        <ele>95.31</ele>
        <time>2013-07-07T12:22:29Z</time>
      </trkpt>
      <trkpt lat="48.39044" lon="2.712">
        <ele>95.31</ele>
        <time>2013-07-07T12:22:42Z</time>
      </trkpt>
      <trkpt lat="48.39045" lon="2.71186">
        <ele>94.83</ele>
        <time>2013-07-07T12:22:49Z</time>
      </trkpt>
      <trkpt lat="48.39048" lon="2.71159">
        <ele>93.39</ele>
        <time>2013-07-07T12:23:02Z</time>
      </trkpt>
      <trkpt lat="48.39052" lon="2.7114">
        <ele>91.46</ele>
        <time>2013-07-07T12:23:15Z</time>
      </trkpt>
      <trkpt lat="48.39052" lon="2.71138">
        <ele>90.98</ele>
        <time>2013-07-07T12:23:16Z</time>
      </trkpt>
      <trkpt lat="48.39057" lon="2.71113">
        <ele>89.06</ele>
        <time>2013-07-07T12:23:27Z</time>
      </trkpt>
      <trkpt lat="48.39059" lon="2.71099">
        <ele>87.62</ele>
        <time>2013-07-07T12:23:34Z</time>
      </trkpt>
      <trkpt lat="48.39061" lon="2.71087">
        <ele>88.1</ele>
        <time>2013-07-07T12:23:41Z</time>
      </trkpt>
      <trkpt lat="48.39062" lon="2.71083">
        <ele>87.62</ele>
        <time>2013-07-07T12:23:43Z</time>
      </trkpt>
      <trkpt lat="48.39067" lon="2.71062">
        <ele>86.66</ele>
        <time>2013-07-07T12:23:53Z</time>
      </trkpt>
      <trkpt lat="48.39068" lon="2.71059">
        <ele>87.14</ele>
        <time>2013-07-07T12:23:55Z</time>
      </trkpt>
      <trkpt lat="48.39076" lon="2.71049">
        <ele>86.66</ele>
        <time>2013-07-07T12:24:08Z</time>
      </trkpt>
      <trkpt lat="48.3909" lon="2.71041">
        <ele>86.18</ele>
        <time>2013-07-07T12:24:21Z</time>
      </trkpt>
      <trkpt lat="48.39103" lon="2.71033">
        <ele>86.18</ele>
        <time>2013-07-07T12:24:36Z</time>
      </trkpt>
      <trkpt lat="48.39108" lon="2.71032">
        <ele>85.21</ele>
        <time>2013-07-07T12:24:39Z</time>
      </trkpt>
      <trkpt lat="48.39127" lon="2.71026">
        <ele>84.73</ele>
        <time>2013-07-07T12:24:49Z</time>
      </trkpt>
      <trkpt lat="48.39143" lon="2.7102">
        <ele>84.25</ele>
        <time>2013-07-07T12:25:02Z</time>
      </trkpt>
      <trkpt lat="48.39164" lon="2.71017">
        <ele>84.25</ele>
        <time>2013-07-07T12:25:15Z</time>
      </trkpt>
      <trkpt lat="48.39174" lon="2.7101">
        <ele>85.21</ele>
        <time>2013-07-07T12:25:27Z</time>
      </trkpt>
      <trkpt lat="48.39175" lon="2.7101">
        <ele>84.25</ele>
        <time>2013-07-07T12:25:28Z</time>
      </trkpt>
      <trkpt lat="48.39178" lon="2.71009">
        <ele>84.25</ele>
        <time>2013-07-07T12:25:30Z</time>
      </trkpt>
      <trkpt lat="48.39182" lon="2.71006">
        <ele>85.21</ele>
        <time>2013-07-07T12:25:34Z</time>
      </trkpt>
      <trkpt lat="48.39196" lon="2.70994">
        <ele>85.69</ele>
        <time>2013-07-07T12:25:47Z</time>
      </trkpt>
      <trkpt lat="48.39197" lon="2.70993">
        <ele>85.69</ele>
        <time>2013-07-07T12:25:48Z</time>
      </trkpt>
      <trkpt lat="48.39201" lon="2.7099">
        <ele>85.69</ele>
        <time>2013-07-07T12:25:51Z</time>
      </trkpt>
      <trkpt lat="48.39215" lon="2.7098">
        <ele>87.14</ele>
        <time>2013-07-07T12:26:04Z</time>
      </trkpt>
      <trkpt lat="48.39226" lon="2.70972">
        <ele>88.1</ele>
        <time>2013-07-07T12:26:16Z</time>
      </trkpt>
      <trkpt lat="48.39227" lon="2.7097">
        <ele>88.1</ele>
        <time>2013-07-07T12:26:19Z</time>
      </trkpt>
      <trkpt lat="48.39237" lon="2.70964">
        <ele>88.1</ele>
        <time>2013-07-07T12:26:26Z</time>
      </trkpt>
      <trkpt lat="48.39254" lon="2.70949">
        <ele>88.1</ele>
        <time>2013-07-07T12:26:39Z</time>
      </trkpt>
      <trkpt lat="48.39259" lon="2.70942">
        <ele>87.62</ele>
        <time>2013-07-07T12:26:43Z</time>
      </trkpt>
      <trkpt lat="48.39266" lon="2.70929">
        <ele>88.1</ele>
        <time>2013-07-07T12:26:55Z</time>
      </trkpt>
      <trkpt lat="48.39273" lon="2.70916">
        <ele>89.06</ele>
        <time>2013-07-07T12:27:08Z</time>
      </trkpt>
      <trkpt lat="48.39274" lon="2.70911">
        <ele>89.54</ele>
        <time>2013-07-07T12:27:11Z</time>
      </trkpt>
      <trkpt lat="48.39276" lon="2.70909">
        <ele>89.54</ele>
        <time>2013-07-07T12:27:13Z</time>
      </trkpt>
      <trkpt lat="48.39278" lon="2.70906">
        <ele>90.02</ele>
        <time>2013-07-07T12:27:15Z</time>
      </trkpt>
      <trkpt lat="48.39289" lon="2.70898">
        <ele>90.98</ele>
        <time>2013-07-07T12:27:21Z</time>
      </trkpt>
      <trkpt lat="48.39294" lon="2.70897">
        <ele>91.46</ele>
        <time>2013-07-07T12:27:23Z</time>
      </trkpt>
      <trkpt lat="48.39307" lon="2.70886">
        <ele>91.46</ele>
        <time>2013-07-07T12:27:35Z</time>
      </trkpt>
      <trkpt lat="48.39308" lon="2.70885">
        <ele>93.39</ele>
        <time>2013-07-07T12:27:38Z</time>
      </trkpt>
      <trkpt lat="48.39316" lon="2.70874">
        <ele>93.87</ele>
        <time>2013-07-07T12:27:52Z</time>
      </trkpt>
      <trkpt lat="48.39341" lon="2.70873">
        <ele>93.87</ele>
        <time>2013-07-07T12:28:08Z</time>
      </trkpt>
      <trkpt lat="48.39347" lon="2.70872">
        <ele>94.35</ele>
        <time>2013-07-07T12:28:12Z</time>
      </trkpt>
      <trkpt lat="48.39366" lon="2.70878">
        <ele>94.35</ele>
        <time>2013-07-07T12:28:26Z</time>
      </trkpt>
      <trkpt lat="48.3937" lon="2.70877">
        <ele>93.87</ele>
        <time>2013-07-07T12:28:32Z</time>
      </trkpt>
      <trkpt lat="48.39388" lon="2.70873">
        <ele>94.35</ele>
        <time>2013-07-07T12:28:45Z</time>
      </trkpt>
      <trkpt lat="48.39402" lon="2.70869">
        <ele>94.83</ele>
        <time>2013-07-07T12:29:00Z</time>
      </trkpt>
      <trkpt lat="48.39422" lon="2.7087">
        <ele>94.35</ele>
        <time>2013-07-07T12:29:14Z</time>
      </trkpt>
      <trkpt lat="48.39434" lon="2.70866">
        <ele>91.94</ele>
        <time>2013-07-07T12:29:30Z</time>
      </trkpt>
      <trkpt lat="48.3944" lon="2.70859">
        <ele>90.98</ele>
        <time>2013-07-07T12:29:42Z</time>
      </trkpt>
      <trkpt lat="48.39444" lon="2.70858">
        <ele>85.21</ele>
        <time>2013-07-07T12:29:48Z</time>
      </trkpt>
      <trkpt lat="48.39447" lon="2.70854">
        <ele>90.5</ele>
        <time>2013-07-07T12:29:51Z</time>
      </trkpt>
      <trkpt lat="48.39447" lon="2.70854">
        <ele>85.21</ele>
        <time>2013-07-07T12:29:52Z</time>
      </trkpt>
      <trkpt lat="48.39447" lon="2.70855">
        <ele>89.06</ele>
        <time>2013-07-07T12:29:53Z</time>
      </trkpt>
      <trkpt lat="48.39447" lon="2.70855">
        <ele>86.18</ele>
        <time>2013-07-07T12:30:08Z</time>
      </trkpt>
      <trkpt lat="48.39447" lon="2.70855">
        <ele>92.9</ele>
        <time>2013-07-07T12:30:56Z</time>
      </trkpt>
      <trkpt lat="48.39447" lon="2.70855">
        <ele>90.5</ele>
        <time>2013-07-07T12:30:57Z</time>
      </trkpt>
      <trkpt lat="48.39447" lon="2.70855">
        <ele>90.02</ele>
        <time>2013-07-07T12:30:58Z</time>
      </trkpt>
      <trkpt lat="48.39447" lon="2.70855">
        <ele>89.06</ele>
        <time>2013-07-07T12:30:59Z</time>
      </trkpt>
      <trkpt lat="48.39447" lon="2.70855">
        <ele>90.98</ele>
        <time>2013-07-07T12:31:00Z</time>
      </trkpt>
      <trkpt lat="48.39451" lon="2.70835">
        <ele>89.54</ele>
        <time>2013-07-07T12:31:03Z</time>
      </trkpt>
      <trkpt lat="48.39457" lon="2.70845">
        <ele>89.06</ele>
        <time>2013-07-07T12:31:10Z</time>
      </trkpt>
      <trkpt lat="48.39453" lon="2.7084">
        <ele>90.98</ele>
        <time>2013-07-07T12:32:39Z</time>
      </trkpt>
      <trkpt lat="48.39454" lon="2.70872">
        <ele>93.39</ele>
        <time>2013-07-07T12:34:24Z</time>
      </trkpt>
      <trkpt lat="48.39456" lon="2.70876">
        <ele>94.35</ele>
        <time>2013-07-07T12:34:26Z</time>
      </trkpt>
      <trkpt lat="48.39461" lon="2.709">
        <ele>96.27</ele>
        <time>2013-07-07T12:34:42Z</time>
      </trkpt>
      <trkpt lat="48.39459" lon="2.70916">
        <ele>96.75</ele>
        <time>2013-07-07T12:34:54Z</time>
      </trkpt>
      <trkpt lat="48.39459" lon="2.70919">
        <ele>95.79</ele>
        <time>2013-07-07T12:34:56Z</time>
      </trkpt>
      <trkpt lat="48.39457" lon="2.70937">
        <ele>96.27</ele>
        <time>2013-07-07T12:35:08Z</time>
      </trkpt>
      <trkpt lat="48.39457" lon="2.70949">
        <ele>96.27</ele>
        <time>2013-07-07T12:35:17Z</time>
      </trkpt>
      <trkpt lat="48.39458" lon="2.70956">
        <ele>95.79</ele>
        <time>2013-07-07T12:35:20Z</time>
      </trkpt>
      <trkpt lat="48.39452" lon="2.70977">
        <ele>96.75</ele>
        <time>2013-07-07T12:35:32Z</time>
      </trkpt>
      <trkpt lat="48.39451" lon="2.70981">
        <ele>95.79</ele>
        <time>2013-07-07T12:35:34Z</time>
      </trkpt>
      <trkpt lat="48.39442" lon="2.70993">
        <ele>95.79</ele>
        <time>2013-07-07T12:35:45Z</time>
      </trkpt>
      <trkpt lat="48.3944" lon="2.70997">
        <ele>95.79</ele>
        <time>2013-07-07T12:35:48Z</time>
      </trkpt>
      <trkpt lat="48.39438" lon="2.70999">
        <ele>95.79</ele>
        <time>2013-07-07T12:35:50Z</time>
      </trkpt>
      <trkpt lat="48.39428" lon="2.71021">
        <ele>92.9</ele>
        <time>2013-07-07T12:36:04Z</time>
      </trkpt>
      <trkpt lat="48.39422" lon="2.71042">
        <ele>91.46</ele>
        <time>2013-07-07T12:36:17Z</time>
      </trkpt>
      <trkpt lat="48.39429" lon="2.71062">
        <ele>90.5</ele>
        <time>2013-07-07T12:36:29Z</time>
      </trkpt>
      <trkpt lat="48.39441" lon="2.71084">
        <ele>89.54</ele>
        <time>2013-07-07T12:36:44Z</time>
      </trkpt>
      <trkpt lat="48.39452" lon="2.71098">
        <ele>88.58</ele>
        <time>2013-07-07T12:36:58Z</time>
      </trkpt>
      <trkpt lat="48.39463" lon="2.71114">
        <ele>90.02</ele>
        <time>2013-07-07T12:37:11Z</time>
      </trkpt>
      <trkpt lat="48.39467" lon="2.71121">
        <ele>90.02</ele>
        <time>2013-07-07T12:37:25Z</time>
      </trkpt>
      <trkpt lat="48.39476" lon="2.71128">
        <ele>90.5</ele>
        <time>2013-07-07T12:37:34Z</time>
      </trkpt>
      <trkpt lat="48.39469" lon="2.71133">
        <ele>91.46</ele>
        <time>2013-07-07T12:37:47Z</time>
      </trkpt>
      <trkpt lat="48.39452" lon="2.71139">
        <ele>92.9</ele>
        <time>2013-07-07T12:38:02Z</time>
      </trkpt>
      <trkpt lat="48.39441" lon="2.71138">
        <ele>94.35</ele>
        <time>2013-07-07T12:38:12Z</time>
      </trkpt>
      <trkpt lat="48.39433" lon="2.7113">
        <ele>96.75</ele>
        <time>2013-07-07T12:38:23Z</time>
      </trkpt>
      <trkpt lat="48.3943" lon="2.71123">
        <ele>96.27</ele>
        <time>2013-07-07T12:38:29Z</time>
      </trkpt>
      <trkpt lat="48.39425" lon="2.71117">
        <ele>95.79</ele>
        <time>2013-07-07T12:38:34Z</time>
      </trkpt>
      <trkpt lat="48.39415" lon="2.711">
        <ele>95.79</ele>
        <time>2013-07-07T12:38:48Z</time>
      </trkpt>
      <trkpt lat="48.39404" lon="2.71087">
        <ele>97.23</ele>
        <time>2013-07-07T12:39:01Z</time>
      </trkpt>
      <trkpt lat="48.39403" lon="2.71086">
        <ele>97.23</ele>
        <time>2013-07-07T12:39:02Z</time>
      </trkpt>
      <trkpt lat="48.39399" lon="2.7108">
        <ele>97.23</ele>
        <time>2013-07-07T12:39:05Z</time>
      </trkpt>
      <trkpt lat="48.39389" lon="2.71068">
        <ele>99.63</ele>
        <time>2013-07-07T12:39:17Z</time>
      </trkpt>
      <trkpt lat="48.39376" lon="2.71061">
        <ele>100.11</ele>
        <time>2013-07-07T12:39:28Z</time>
      </trkpt>
      <trkpt lat="48.39362" lon="2.71067">
        <ele>100.6</ele>
        <time>2013-07-07T12:39:41Z</time>
      </trkpt>
      <trkpt lat="48.39355" lon="2.71071">
        <ele>100.11</ele>
        <time>2013-07-07T12:39:46Z</time>
      </trkpt>
      <trkpt lat="48.39351" lon="2.71075">
        <ele>101.08</ele>
        <time>2013-07-07T12:39:52Z</time>
      </trkpt>
      <trkpt lat="48.39351" lon="2.71072">
        <ele>101.08</ele>
        <time>2013-07-07T12:39:55Z</time>
      </trkpt>
      <trkpt lat="48.39336" lon="2.71088">
        <ele>101.08</ele>
        <time>2013-07-07T12:40:05Z</time>
      </trkpt>
      <trkpt lat="48.39331" lon="2.71116">
        <ele>101.56</ele>
        <time>2013-07-07T12:40:18Z</time>
      </trkpt>
      <trkpt lat="48.39331" lon="2.71138">
        <ele>103</ele>
        <time>2013-07-07T12:40:31Z</time>
      </trkpt>
      <trkpt lat="48.3933" lon="2.7114">
        <ele>103</ele>
        <time>2013-07-07T12:40:32Z</time>
      </trkpt>
      <trkpt lat="48.3932" lon="2.71166">
        <ele>103</ele>
        <time>2013-07-07T12:40:45Z</time>
      </trkpt>
      <trkpt lat="48.3932" lon="2.7117">
        <ele>103.48</ele>
        <time>2013-07-07T12:40:47Z</time>
      </trkpt>
      <trkpt lat="48.39323" lon="2.71198">
        <ele>103.48</ele>
        <time>2013-07-07T12:41:03Z</time>
      </trkpt>
      <trkpt lat="48.39322" lon="2.71223">
        <ele>102.04</ele>
        <time>2013-07-07T12:41:14Z</time>
      </trkpt>
      <trkpt lat="48.39321" lon="2.71226">
        <ele>102.04</ele>
        <time>2013-07-07T12:41:15Z</time>
      </trkpt>
      <trkpt lat="48.3931" lon="2.7125">
        <ele>102.52</ele>
        <time>2013-07-07T12:41:29Z</time>
      </trkpt>
      <trkpt lat="48.39307" lon="2.71256">
        <ele>101.56</ele>
        <time>2013-07-07T12:41:33Z</time>
      </trkpt>
      <trkpt lat="48.39305" lon="2.71284">
        <ele>102.04</ele>
        <time>2013-07-07T12:41:46Z</time>
      </trkpt>
      <trkpt lat="48.39303" lon="2.713">
        <ele>101.56</ele>
        <time>2013-07-07T12:41:58Z</time>
      </trkpt>
      <trkpt lat="48.39308" lon="2.71324">
        <ele>101.08</ele>
        <time>2013-07-07T12:42:09Z</time>
      </trkpt>
      <trkpt lat="48.39311" lon="2.71332">
        <ele>100.11</ele>
        <time>2013-07-07T12:42:13Z</time>
      </trkpt>
      <trkpt lat="48.39315" lon="2.71349">
        <ele>102.52</ele>
        <time>2013-07-07T12:42:26Z</time>
      </trkpt>
      <trkpt lat="48.39325" lon="2.71359">
        <ele>103</ele>
        <time>2013-07-07T12:42:35Z</time>
      </trkpt>
      <trkpt lat="48.39326" lon="2.71368">
        <ele>102.04</ele>
        <time>2013-07-07T12:42:42Z</time>
      </trkpt>
      <trkpt lat="48.39327" lon="2.71373">
        <ele>101.56</ele>
        <time>2013-07-07T12:42:46Z</time>
      </trkpt>
      <trkpt lat="48.39332" lon="2.71398">
        <ele>99.63</ele>
        <time>2013-07-07T12:42:57Z</time>
      </trkpt>
      <trkpt lat="48.3934" lon="2.71418">
        <ele>99.15</ele>
        <time>2013-07-07T12:43:11Z</time>
      </trkpt>
      <trkpt lat="48.3934" lon="2.71422">
        <ele>100.11</ele>
        <time>2013-07-07T12:43:13Z</time>
      </trkpt>
      <trkpt lat="48.39339" lon="2.71441">
        <ele>100.11</ele>
        <time>2013-07-07T12:43:27Z</time>
      </trkpt>
      <trkpt lat="48.39337" lon="2.71442">
        <ele>100.6</ele>
        <time>2013-07-07T12:43:28Z</time>
      </trkpt>
      <trkpt lat="48.39328" lon="2.71439">
        <ele>100.11</ele>
        <time>2013-07-07T12:43:34Z</time>
      </trkpt>
      <trkpt lat="48.39319" lon="2.71435">
        <ele>100.6</ele>
        <time>2013-07-07T12:43:40Z</time>
      </trkpt>
      <trkpt lat="48.39311" lon="2.71432">
        <ele>101.08</ele>
        <time>2013-07-07T12:43:46Z</time>
      </trkpt>
      <trkpt lat="48.39303" lon="2.71429">
        <ele>101.56</ele>
        <time>2013-07-07T12:43:58Z</time>
      </trkpt>
      <trkpt lat="48.39295" lon="2.71426">
        <ele>101.56</ele>
        <time>2013-07-07T12:44:10Z</time>
      </trkpt>
      <trkpt lat="48.39296" lon="2.71425">
        <ele>101.08</ele>
        <time>2013-07-07T12:44:13Z</time>
      </trkpt>
      <trkpt lat="48.39295" lon="2.71416">
        <ele>100.11</ele>
        <time>2013-07-07T12:44:21Z</time>
      </trkpt>
      <trkpt lat="48.39294" lon="2.71417">
        <ele>100.6</ele>
        <time>2013-07-07T12:44:28Z</time>
      </trkpt>
      <trkpt lat="48.3929" lon="2.71425">
        <ele>102.04</ele>
        <time>2013-07-07T12:44:40Z</time>
      </trkpt>
      <trkpt lat="48.39285" lon="2.71422">
        <ele>101.08</ele>
        <time>2013-07-07T12:44:52Z</time>
      </trkpt>
      <trkpt lat="48.3928" lon="2.71424">
        <ele>102.04</ele>
        <time>2013-07-07T12:45:00Z</time>
      </trkpt>
      <trkpt lat="48.39278" lon="2.71433">
        <ele>101.08</ele>
        <time>2013-07-07T12:45:05Z</time>
      </trkpt>
      <trkpt lat="48.3927" lon="2.71447">
        <ele>102.04</ele>
        <time>2013-07-07T12:45:19Z</time>
      </trkpt>
      <trkpt lat="48.39271" lon="2.71461">
        <ele>103</ele>
        <time>2013-07-07T12:45:26Z</time>
      </trkpt>
      <trkpt lat="48.39277" lon="2.71465">
        <ele>102.52</ele>
        <time>2013-07-07T12:45:34Z</time>
      </trkpt>
      <trkpt lat="48.39291" lon="2.71473">
        <ele>102.52</ele>
        <time>2013-07-07T12:45:46Z</time>
      </trkpt>
      <trkpt lat="48.39292" lon="2.71477">
        <ele>102.52</ele>
        <time>2013-07-07T12:45:49Z</time>
      </trkpt>
      <trkpt lat="48.39291" lon="2.7148">
        <ele>103.96</ele>
        <time>2013-07-07T12:45:52Z</time>
      </trkpt>
      <trkpt lat="48.39286" lon="2.71492">
        <ele>104.44</ele>
        <time>2013-07-07T12:46:03Z</time>
      </trkpt>
      <trkpt lat="48.39279" lon="2.71514">
        <ele>105.4</ele>
        <time>2013-07-07T12:46:18Z</time>
      </trkpt>
      <trkpt lat="48.3927" lon="2.71531">
        <ele>106.84</ele>
        <time>2013-07-07T12:46:31Z</time>
      </trkpt>
      <trkpt lat="48.39256" lon="2.71546">
        <ele>105.88</ele>
        <time>2013-07-07T12:46:46Z</time>
      </trkpt>
      <trkpt lat="48.39255" lon="2.71559">
        <ele>106.84</ele>
        <time>2013-07-07T12:46:54Z</time>
      </trkpt>
      <trkpt lat="48.39256" lon="2.71563">
        <ele>107.81</ele>
        <time>2013-07-07T12:46:56Z</time>
      </trkpt>
      <trkpt lat="48.39263" lon="2.71572">
        <ele>108.77</ele>
        <time>2013-07-07T12:47:10Z</time>
      </trkpt>
      <trkpt lat="48.39269" lon="2.71577">
        <ele>110.69</ele>
        <time>2013-07-07T12:47:22Z</time>
      </trkpt>
      <trkpt lat="48.3927" lon="2.71584">
        <ele>110.69</ele>
        <time>2013-07-07T12:47:30Z</time>
      </trkpt>
      <trkpt lat="48.39276" lon="2.71601">
        <ele>111.65</ele>
        <time>2013-07-07T12:47:41Z</time>
      </trkpt>
      <trkpt lat="48.3928" lon="2.71605">
        <ele>112.61</ele>
        <time>2013-07-07T12:47:47Z</time>
      </trkpt>
      <trkpt lat="48.39285" lon="2.71611">
        <ele>113.57</ele>
        <time>2013-07-07T12:47:57Z</time>
      </trkpt>
      <trkpt lat="48.39292" lon="2.71623">
        <ele>115.5</ele>
        <time>2013-07-07T12:48:07Z</time>
      </trkpt>
      <trkpt lat="48.39298" lon="2.7163">
        <ele>115.98</ele>
        <time>2013-07-07T12:48:11Z</time>
      </trkpt>
      <trkpt lat="48.393" lon="2.71634">
        <ele>115.5</ele>
        <time>2013-07-07T12:48:13Z</time>
      </trkpt>
      <trkpt lat="48.39295" lon="2.71638">
        <ele>118.86</ele>
        <time>2013-07-07T12:48:26Z</time>
      </trkpt>
      <trkpt lat="48.39293" lon="2.71637">
        <ele>117.9</ele>
        <time>2013-07-07T12:48:29Z</time>
      </trkpt>
      <trkpt lat="48.39284" lon="2.71644">
        <ele>121.26</ele>
        <time>2013-07-07T12:48:42Z</time>
      </trkpt>
      <trkpt lat="48.39285" lon="2.71646">
        <ele>121.26</ele>
        <time>2013-07-07T12:48:49Z</time>
      </trkpt>
      <trkpt lat="48.39288" lon="2.71657">
        <ele>122.71</ele>
        <time>2013-07-07T12:49:00Z</time>
      </trkpt>
      <trkpt lat="48.39283" lon="2.71664">
        <ele>123.67</ele>
        <time>2013-07-07T12:49:08Z</time>
      </trkpt>
      <trkpt lat="48.39281" lon="2.71675">
        <ele>124.63</ele>
        <time>2013-07-07T12:49:19Z</time>
      </trkpt>
      <trkpt lat="48.39276" lon="2.71689">
        <ele>125.11</ele>
        <time>2013-07-07T12:49:30Z</time>
      </trkpt>
      <trkpt lat="48.39273" lon="2.71697">
        <ele>125.11</ele>
        <time>2013-07-07T12:49:39Z</time>
      </trkpt>
      <trkpt lat="48.39275" lon="2.71706">
        <ele>123.19</ele>
        <time>2013-07-07T12:49:51Z</time>
      </trkpt>
      <trkpt lat="48.39276" lon="2.71724">
        <ele>121.74</ele>
        <time>2013-07-07T12:50:03Z</time>
      </trkpt>
      <trkpt lat="48.39275" lon="2.71739">
        <ele>118.38</ele>
        <time>2013-07-07T12:50:13Z</time>
      </trkpt>
      <trkpt lat="48.39277" lon="2.71745">
        <ele>117.9</ele>
        <time>2013-07-07T12:50:16Z</time>
      </trkpt>
      <trkpt lat="48.39282" lon="2.71755">
        <ele>117.42</ele>
        <time>2013-07-07T12:50:23Z</time>
      </trkpt>
      <trkpt lat="48.39287" lon="2.71759">
        <ele>115.5</ele>
        <time>2013-07-07T12:50:28Z</time>
      </trkpt>
      <trkpt lat="48.39295" lon="2.71775">
        <ele>115.5</ele>
        <time>2013-07-07T12:50:39Z</time>
      </trkpt>
      <trkpt lat="48.39297" lon="2.71795">
        <ele>115.01</ele>
        <time>2013-07-07T12:50:53Z</time>
      </trkpt>
      <trkpt lat="48.39296" lon="2.71799">
        <ele>115.98</ele>
        <time>2013-07-07T12:50:56Z</time>
      </trkpt>
      <trkpt lat="48.39294" lon="2.71803">
        <ele>116.46</ele>
        <time>2013-07-07T12:50:58Z</time>
      </trkpt>
      <trkpt lat="48.39288" lon="2.71817">
        <ele>115.01</ele>
        <time>2013-07-07T12:51:06Z</time>
      </trkpt>
      <trkpt lat="48.39286" lon="2.71833">
        <ele>114.05</ele>
        <time>2013-07-07T12:51:15Z</time>
      </trkpt>
      <trkpt lat="48.39284" lon="2.71853">
        <ele>112.13</ele>
        <time>2013-07-07T12:51:27Z</time>
      </trkpt>
      <trkpt lat="48.39283" lon="2.71862">
        <ele>112.13</ele>
        <time>2013-07-07T12:51:32Z</time>
      </trkpt>
      <trkpt lat="48.39284" lon="2.71866">
        <ele>111.17</ele>
        <time>2013-07-07T12:51:35Z</time>
      </trkpt>
      <trkpt lat="48.39285" lon="2.71869">
        <ele>110.69</ele>
        <time>2013-07-07T12:51:37Z</time>
      </trkpt>
      <trkpt lat="48.39289" lon="2.71885">
        <ele>109.73</ele>
        <time>2013-07-07T12:51:46Z</time>
      </trkpt>
      <trkpt lat="48.39292" lon="2.71893">
        <ele>110.21</ele>
        <time>2013-07-07T12:51:51Z</time>
      </trkpt>
      <trkpt lat="48.39295" lon="2.71897">
        <ele>110.21</ele>
        <time>2013-07-07T12:51:54Z</time>
      </trkpt>
      <trkpt lat="48.39303" lon="2.71902">
        <ele>111.17</ele>
        <time>2013-07-07T12:52:02Z</time>
      </trkpt>
      <trkpt lat="48.39309" lon="2.71922">
        <ele>111.65</ele>
        <time>2013-07-07T12:52:13Z</time>
      </trkpt>
      <trkpt lat="48.39311" lon="2.71936">
        <ele>114.05</ele>
        <time>2013-07-07T12:52:21Z</time>
      </trkpt>
      <trkpt lat="48.39312" lon="2.71939">
        <ele>112.61</ele>
        <time>2013-07-07T12:52:23Z</time>
      </trkpt>
      <trkpt lat="48.39316" lon="2.71958">
        <ele>114.05</ele>
        <time>2013-07-07T12:52:37Z</time>
      </trkpt>
      <trkpt lat="48.39316" lon="2.71962">
        <ele>113.57</ele>
        <time>2013-07-07T12:52:39Z</time>
      </trkpt>
      <trkpt lat="48.39318" lon="2.71969">
        <ele>115.5</ele>
        <time>2013-07-07T12:52:42Z</time>
      </trkpt>
      <trkpt lat="48.39313" lon="2.71987">
        <ele>115.5</ele>
        <time>2013-07-07T12:52:55Z</time>
      </trkpt>
      <trkpt lat="48.3931" lon="2.72001">
        <ele>114.53</ele>
        <time>2013-07-07T12:53:10Z</time>
      </trkpt>
      <trkpt lat="48.39296" lon="2.72024">
        <ele>113.09</ele>
        <time>2013-07-07T12:53:25Z</time>
      </trkpt>
      <trkpt lat="48.39293" lon="2.72042">
        <ele>114.05</ele>
        <time>2013-07-07T12:53:37Z</time>
      </trkpt>
      <trkpt lat="48.39293" lon="2.72045">
        <ele>114.05</ele>
        <time>2013-07-07T12:53:39Z</time>
      </trkpt>
      <trkpt lat="48.39296" lon="2.72068">
        <ele>115.5</ele>
        <time>2013-07-07T12:53:51Z</time>
      </trkpt>
      <trkpt lat="48.39299" lon="2.72075">
        <ele>116.94</ele>
        <time>2013-07-07T12:54:00Z</time>
      </trkpt>
      <trkpt lat="48.39309" lon="2.72092">
        <ele>117.9</ele>
        <time>2013-07-07T12:54:12Z</time>
      </trkpt>
      <trkpt lat="48.39309" lon="2.72102">
        <ele>117.9</ele>
        <time>2013-07-07T12:54:19Z</time>
      </trkpt>
      <trkpt lat="48.39309" lon="2.7211">
        <ele>118.86</ele>
        <time>2013-07-07T12:54:23Z</time>
      </trkpt>
      <trkpt lat="48.39308" lon="2.72118">
        <ele>117.9</ele>
        <time>2013-07-07T12:54:28Z</time>
      </trkpt>
      <trkpt lat="48.39306" lon="2.72125">
        <ele>117.42</ele>
        <time>2013-07-07T12:54:33Z</time>
      </trkpt>
      <trkpt lat="48.39304" lon="2.7213">
        <ele>117.9</ele>
        <time>2013-07-07T12:54:36Z</time>
      </trkpt>
      <trkpt lat="48.39302" lon="2.72141">
        <ele>117.42</ele>
        <time>2013-07-07T12:54:41Z</time>
      </trkpt>
      <trkpt lat="48.39299" lon="2.72149">
        <ele>116.46</ele>
        <time>2013-07-07T12:54:46Z</time>
      </trkpt>
      <trkpt lat="48.39299" lon="2.7217">
        <ele>113.57</ele>
        <time>2013-07-07T12:55:00Z</time>
      </trkpt>
      <trkpt lat="48.39297" lon="2.7218">
        <ele>114.53</ele>
        <time>2013-07-07T12:55:07Z</time>
      </trkpt>
      <trkpt lat="48.39292" lon="2.7219">
        <ele>113.09</ele>
        <time>2013-07-07T12:55:12Z</time>
      </trkpt>
      <trkpt lat="48.39288" lon="2.72216">
        <ele>111.17</ele>
        <time>2013-07-07T12:55:27Z</time>
      </trkpt>
      <trkpt lat="48.39288" lon="2.7223">
        <ele>109.73</ele>
        <time>2013-07-07T12:55:36Z</time>
      </trkpt>
      <trkpt lat="48.39288" lon="2.72246">
        <ele>109.73</ele>
        <time>2013-07-07T12:55:47Z</time>
      </trkpt>
      <trkpt lat="48.39292" lon="2.72251">
        <ele>110.69</ele>
        <time>2013-07-07T12:55:55Z</time>
      </trkpt>
      <trkpt lat="48.39298" lon="2.72254">
        <ele>110.69</ele>
        <time>2013-07-07T12:56:03Z</time>
      </trkpt>
      <trkpt lat="48.39306" lon="2.72267">
        <ele>112.61</ele>
        <time>2013-07-07T12:56:17Z</time>
      </trkpt>
      <trkpt lat="48.39308" lon="2.72278">
        <ele>114.53</ele>
        <time>2013-07-07T12:56:29Z</time>
      </trkpt>
      <trkpt lat="48.39308" lon="2.72284">
        <ele>115.5</ele>
        <time>2013-07-07T12:56:41Z</time>
      </trkpt>
      <trkpt lat="48.39308" lon="2.72284">
        <ele>114.53</ele>
        <time>2013-07-07T12:58:23Z</time>
      </trkpt>
      <trkpt lat="48.39309" lon="2.72284">
        <ele>114.53</ele>
        <time>2013-07-07T13:00:18Z</time>
      </trkpt>
      <trkpt lat="48.39308" lon="2.72284">
        <ele>114.53</ele>
        <time>2013-07-07T13:01:19Z</time>
      </trkpt>
      <trkpt lat="48.39308" lon="2.72284">
        <ele>115.5</ele>
        <time>2013-07-07T13:02:08Z</time>
      </trkpt>
      <trkpt lat="48.39308" lon="2.72284">
        <ele>115.01</ele>
        <time>2013-07-07T13:03:12Z</time>
      </trkpt>
      <trkpt lat="48.3931" lon="2.72282">
        <ele>114.05</ele>
        <time>2013-07-07T13:03:32Z</time>
      </trkpt>
      <trkpt lat="48.39315" lon="2.7228">
        <ele>115.5</ele>
        <time>2013-07-07T13:03:44Z</time>
      </trkpt>
      <trkpt lat="48.39314" lon="2.72291">
        <ele>117.42</ele>
        <time>2013-07-07T13:03:58Z</time>
      </trkpt>
      <trkpt lat="48.39312" lon="2.72305">
        <ele>118.86</ele>
        <time>2013-07-07T13:04:09Z</time>
      </trkpt>
      <trkpt lat="48.39309" lon="2.72316">
        <ele>119.34</ele>
        <time>2013-07-07T13:04:19Z</time>
      </trkpt>
      <trkpt lat="48.39305" lon="2.72329">
        <ele>118.38</ele>
        <time>2013-07-07T13:04:30Z</time>
      </trkpt>
      <trkpt lat="48.39303" lon="2.72349">
        <ele>118.86</ele>
        <time>2013-07-07T13:04:41Z</time>
      </trkpt>
      <trkpt lat="48.39303" lon="2.72366">
        <ele>118.38</ele>
        <time>2013-07-07T13:04:52Z</time>
      </trkpt>
      <trkpt lat="48.39304" lon="2.72366">
        <ele>118.86</ele>
        <time>2013-07-07T13:04:53Z</time>
      </trkpt>
      <trkpt lat="48.39312" lon="2.72363">
        <ele>120.3</ele>
        <time>2013-07-07T13:05:04Z</time>
      </trkpt>
      <trkpt lat="48.39313" lon="2.7237">
        <ele>118.86</ele>
        <time>2013-07-07T13:05:17Z</time>
      </trkpt>
      <trkpt lat="48.39308" lon="2.72389">
        <ele>117.9</ele>
        <time>2013-07-07T13:05:30Z</time>
      </trkpt>
      <trkpt lat="48.3931" lon="2.72395">
        <ele>116.46</ele>
        <time>2013-07-07T13:05:45Z</time>
      </trkpt>
      <trkpt lat="48.3931" lon="2.72398">
        <ele>115.98</ele>
        <time>2013-07-07T13:06:19Z</time>
      </trkpt>
      <trkpt lat="48.39309" lon="2.72396">
        <ele>116.46</ele>
        <time>2013-07-07T13:06:33Z</time>
      </trkpt>
      <trkpt lat="48.39307" lon="2.72392">
        <ele>116.46</ele>
        <time>2013-07-07T13:06:37Z</time>
      </trkpt>
      <trkpt lat="48.39301" lon="2.72391">
        <ele>116.94</ele>
        <time>2013-07-07T13:06:45Z</time>
      </trkpt>
      <trkpt lat="48.39298" lon="2.72397">
        <ele>116.46</ele>
        <time>2013-07-07T13:06:50Z</time>
      </trkpt>
      <trkpt lat="48.39299" lon="2.7241">
        <ele>115.98</ele>
        <time>2013-07-07T13:06:58Z</time>
      </trkpt>
      <trkpt lat="48.39298" lon="2.72421">
        <ele>116.46</ele>
        <time>2013-07-07T13:07:04Z</time>
      </trkpt>
      <trkpt lat="48.39297" lon="2.72444">
        <ele>116.94</ele>
        <time>2013-07-07T13:07:16Z</time>
      </trkpt>
      <trkpt lat="48.39295" lon="2.72449">
        <ele>117.42</ele>
        <time>2013-07-07T13:07:19Z</time>
      </trkpt>
      <trkpt lat="48.39293" lon="2.72453">
        <ele>117.9</ele>
        <time>2013-07-07T13:07:21Z</time>
      </trkpt>
      <trkpt lat="48.39289" lon="2.72473">
        <ele>119.82</ele>
        <time>2013-07-07T13:07:34Z</time>
      </trkpt>
      <trkpt lat="48.39294" lon="2.72484">
        <ele>121.26</ele>
        <time>2013-07-07T13:07:46Z</time>
      </trkpt>
      <trkpt lat="48.39293" lon="2.72485">
        <ele>122.71</ele>
        <time>2013-07-07T13:07:49Z</time>
      </trkpt>
      <trkpt lat="48.39294" lon="2.72494">
        <ele>123.67</ele>
        <time>2013-07-07T13:07:58Z</time>
      </trkpt>
      <trkpt lat="48.39294" lon="2.72496">
        <ele>123.19</ele>
        <time>2013-07-07T13:08:00Z</time>
      </trkpt>
      <trkpt lat="48.39295" lon="2.72504">
        <ele>122.71</ele>
        <time>2013-07-07T13:08:11Z</time>
      </trkpt>
      <trkpt lat="48.39296" lon="2.72506">
        <ele>123.19</ele>
        <time>2013-07-07T13:08:13Z</time>
      </trkpt>
      <trkpt lat="48.393" lon="2.72506">
        <ele>123.67</ele>
        <time>2013-07-07T13:08:23Z</time>
      </trkpt>
      <trkpt lat="48.39299" lon="2.725">
        <ele>122.71</ele>
        <time>2013-07-07T13:08:33Z</time>
      </trkpt>
      <trkpt lat="48.39302" lon="2.72493">
        <ele>120.78</ele>
        <time>2013-07-07T13:08:43Z</time>
      </trkpt>
      <trkpt lat="48.39308" lon="2.72486">
        <ele>116.94</ele>
        <time>2013-07-07T13:08:56Z</time>
      </trkpt>
      <trkpt lat="48.3931" lon="2.72479">
        <ele>116.46</ele>
        <time>2013-07-07T13:09:01Z</time>
      </trkpt>
      <trkpt lat="48.39309" lon="2.72476">
        <ele>116.94</ele>
        <time>2013-07-07T13:09:03Z</time>
      </trkpt>
      <trkpt lat="48.39305" lon="2.72462">
        <ele>117.9</ele>
        <time>2013-07-07T13:09:12Z</time>
      </trkpt>
      <trkpt lat="48.39305" lon="2.72456">
        <ele>115.98</ele>
        <time>2013-07-07T13:09:19Z</time>
      </trkpt>
      <trkpt lat="48.39306" lon="2.72452">
        <ele>114.53</ele>
        <time>2013-07-07T13:09:23Z</time>
      </trkpt>
      <trkpt lat="48.39307" lon="2.72442">
        <ele>113.09</ele>
        <time>2013-07-07T13:09:28Z</time>
      </trkpt>
      <trkpt lat="48.39308" lon="2.72423">
        <ele>112.13</ele>
        <time>2013-07-07T13:09:39Z</time>
      </trkpt>
      <trkpt lat="48.39309" lon="2.72408">
        <ele>113.57</ele>
        <time>2013-07-07T13:09:50Z</time>
      </trkpt>
      <trkpt lat="48.3931" lon="2.72398">
        <ele>115.98</ele>
        <time>2013-07-07T13:10:00Z</time>
      </trkpt>
      <trkpt lat="48.39313" lon="2.72391">
        <ele>116.46</ele>
        <time>2013-07-07T13:10:06Z</time>
      </trkpt>
      <trkpt lat="48.39319" lon="2.7238">
        <ele>118.86</ele>
        <time>2013-07-07T13:10:17Z</time>
      </trkpt>
      <trkpt lat="48.39324" lon="2.72372">
        <ele>117.9</ele>
        <time>2013-07-07T13:10:23Z</time>
      </trkpt>
      <trkpt lat="48.39328" lon="2.7236">
        <ele>120.3</ele>
        <time>2013-07-07T13:10:34Z</time>
      </trkpt>
      <trkpt lat="48.3933" lon="2.72349">
        <ele>122.71</ele>
        <time>2013-07-07T13:10:45Z</time>
      </trkpt>
      <trkpt lat="48.39333" lon="2.72339">
        <ele>123.19</ele>
        <time>2013-07-07T13:10:52Z</time>
      </trkpt>
      <trkpt lat="48.39344" lon="2.72339">
        <ele>120.78</ele>
        <time>2013-07-07T13:11:02Z</time>
      </trkpt>
      <trkpt lat="48.39348" lon="2.72338">
        <ele>119.82</ele>
        <time>2013-07-07T13:11:05Z</time>
      </trkpt>
      <trkpt lat="48.39351" lon="2.72336">
        <ele>120.3</ele>
        <time>2013-07-07T13:11:07Z</time>
      </trkpt>
      <trkpt lat="48.39351" lon="2.7232">
        <ele>117.9</ele>
        <time>2013-07-07T13:11:19Z</time>
      </trkpt>
      <trkpt lat="48.39351" lon="2.72312">
        <ele>116.94</ele>
        <time>2013-07-07T13:11:26Z</time>
      </trkpt>
      <trkpt lat="48.39349" lon="2.72293">
        <ele>116.94</ele>
        <time>2013-07-07T13:11:35Z</time>
      </trkpt>
      <trkpt lat="48.39349" lon="2.72289">
        <ele>115.01</ele>
        <time>2013-07-07T13:11:37Z</time>
      </trkpt>
      <trkpt lat="48.3935" lon="2.72285">
        <ele>114.53</ele>
        <time>2013-07-07T13:11:39Z</time>
      </trkpt>
      <trkpt lat="48.39351" lon="2.72277">
        <ele>113.57</ele>
        <time>2013-07-07T13:11:43Z</time>
      </trkpt>
      <trkpt lat="48.39352" lon="2.72267">
        <ele>112.13</ele>
        <time>2013-07-07T13:11:54Z</time>
      </trkpt>
      <trkpt lat="48.39352" lon="2.72254">
        <ele>110.69</ele>
        <time>2013-07-07T13:12:06Z</time>
      </trkpt>
      <trkpt lat="48.39357" lon="2.72252">
        <ele>108.77</ele>
        <time>2013-07-07T13:12:15Z</time>
      </trkpt>
      <trkpt lat="48.39358" lon="2.72251">
        <ele>107.32</ele>
        <time>2013-07-07T13:12:19Z</time>
      </trkpt>
      <trkpt lat="48.3936" lon="2.72249">
        <ele>106.84</ele>
        <time>2013-07-07T13:12:26Z</time>
      </trkpt>
      <trkpt lat="48.39362" lon="2.72238">
        <ele>105.4</ele>
        <time>2013-07-07T13:12:39Z</time>
      </trkpt>
      <trkpt lat="48.39363" lon="2.72233">
        <ele>104.92</ele>
        <time>2013-07-07T13:12:52Z</time>
      </trkpt>
      <trkpt lat="48.39358" lon="2.72232">
        <ele>105.88</ele>
        <time>2013-07-07T13:13:12Z</time>
      </trkpt>
      <trkpt lat="48.39356" lon="2.72233">
        <ele>106.36</ele>
        <time>2013-07-07T13:13:23Z</time>
      </trkpt>
      <trkpt lat="48.39354" lon="2.72234">
        <ele>107.81</ele>
        <time>2013-07-07T13:13:36Z</time>
      </trkpt>
      <trkpt lat="48.3935" lon="2.7224">
        <ele>108.77</ele>
        <time>2013-07-07T13:13:50Z</time>
      </trkpt>
      <trkpt lat="48.39354" lon="2.72249">
        <ele>110.21</ele>
        <time>2013-07-07T13:14:07Z</time>
      </trkpt>
      <trkpt lat="48.3936" lon="2.72255">
        <ele>109.73</ele>
        <time>2013-07-07T13:14:26Z</time>
      </trkpt>
      <trkpt lat="48.39363" lon="2.72258">
        <ele>108.77</ele>
        <time>2013-07-07T13:14:31Z</time>
      </trkpt>
      <trkpt lat="48.3937" lon="2.72253">
        <ele>106.84</ele>
        <time>2013-07-07T13:14:44Z</time>
      </trkpt>
      <trkpt lat="48.39378" lon="2.72246">
        <ele>103.96</ele>
        <time>2013-07-07T13:14:56Z</time>
      </trkpt>
      <trkpt lat="48.3938" lon="2.72233">
        <ele>101.56</ele>
        <time>2013-07-07T13:15:12Z</time>
      </trkpt>
      <trkpt lat="48.39379" lon="2.72218">
        <ele>99.63</ele>
        <time>2013-07-07T13:15:23Z</time>
      </trkpt>
      <trkpt lat="48.39383" lon="2.72211">
        <ele>98.67</ele>
        <time>2013-07-07T13:15:38Z</time>
      </trkpt>
      <trkpt lat="48.39382" lon="2.72208">
        <ele>98.19</ele>
        <time>2013-07-07T13:15:49Z</time>
      </trkpt>
      <trkpt lat="48.39373" lon="2.72205">
        <ele>98.67</ele>
        <time>2013-07-07T13:16:00Z</time>
      </trkpt>
      <trkpt lat="48.39365" lon="2.72194">
        <ele>98.19</ele>
        <time>2013-07-07T13:16:07Z</time>
      </trkpt>
      <trkpt lat="48.39354" lon="2.72185">
        <ele>96.75</ele>
        <time>2013-07-07T13:16:16Z</time>
      </trkpt>
      <trkpt lat="48.39354" lon="2.72183">
        <ele>95.31</ele>
        <time>2013-07-07T13:16:18Z</time>
      </trkpt>
      <trkpt lat="48.39352" lon="2.72179">
        <ele>95.79</ele>
        <time>2013-07-07T13:16:21Z</time>
      </trkpt>
      <trkpt lat="48.39354" lon="2.7217">
        <ele>98.67</ele>
        <time>2013-07-07T13:16:35Z</time>
      </trkpt>
      <trkpt lat="48.39358" lon="2.72169">
        <ele>99.63</ele>
        <time>2013-07-07T13:16:40Z</time>
      </trkpt>
      <trkpt lat="48.39364" lon="2.72155">
        <ele>101.08</ele>
        <time>2013-07-07T13:16:52Z</time>
      </trkpt>
      <trkpt lat="48.3936" lon="2.72149">
        <ele>102.04</ele>
        <time>2013-07-07T13:17:03Z</time>
      </trkpt>
      <trkpt lat="48.3936" lon="2.72144">
        <ele>104.44</ele>
        <time>2013-07-07T13:17:10Z</time>
      </trkpt>
      <trkpt lat="48.39359" lon="2.72144">
        <ele>104.44</ele>
        <time>2013-07-07T13:17:12Z</time>
      </trkpt>
      <trkpt lat="48.39357" lon="2.72138">
        <ele>105.4</ele>
        <time>2013-07-07T13:17:23Z</time>
      </trkpt>
      <trkpt lat="48.39356" lon="2.72124">
        <ele>107.81</ele>
        <time>2013-07-07T13:17:35Z</time>
      </trkpt>
      <trkpt lat="48.3936" lon="2.72108">
        <ele>107.81</ele>
        <time>2013-07-07T13:17:46Z</time>
      </trkpt>
      <trkpt lat="48.39361" lon="2.72105">
        <ele>108.29</ele>
        <time>2013-07-07T13:17:48Z</time>
      </trkpt>
      <trkpt lat="48.39362" lon="2.72097">
        <ele>108.77</ele>
        <time>2013-07-07T13:17:54Z</time>
      </trkpt>
      <trkpt lat="48.39368" lon="2.72087">
        <ele>105.4</ele>
        <time>2013-07-07T13:18:07Z</time>
      </trkpt>
      <trkpt lat="48.39369" lon="2.72087">
        <ele>105.4</ele>
        <time>2013-07-07T13:18:08Z</time>
      </trkpt>
      <trkpt lat="48.39376" lon="2.72074">
        <ele>104.44</ele>
        <time>2013-07-07T13:18:21Z</time>
      </trkpt>
      <trkpt lat="48.39381" lon="2.72059">
        <ele>103</ele>
        <time>2013-07-07T13:18:33Z</time>
      </trkpt>
      <trkpt lat="48.39389" lon="2.72049">
        <ele>100.6</ele>
        <time>2013-07-07T13:18:44Z</time>
      </trkpt>
      <trkpt lat="48.39396" lon="2.72041">
        <ele>100.11</ele>
        <time>2013-07-07T13:18:58Z</time>
      </trkpt>
      <trkpt lat="48.39399" lon="2.72027">
        <ele>98.67</ele>
        <time>2013-07-07T13:19:10Z</time>
      </trkpt>
      <trkpt lat="48.39404" lon="2.72023">
        <ele>99.15</ele>
        <time>2013-07-07T13:19:15Z</time>
      </trkpt>
      <trkpt lat="48.39414" lon="2.72024">
        <ele>95.31</ele>
        <time>2013-07-07T13:19:27Z</time>
      </trkpt>
      <trkpt lat="48.39415" lon="2.72023">
        <ele>95.31</ele>
        <time>2013-07-07T13:19:28Z</time>
      </trkpt>
      <trkpt lat="48.39417" lon="2.72008">
        <ele>93.39</ele>
        <time>2013-07-07T13:19:38Z</time>
      </trkpt>
      <trkpt lat="48.39407" lon="2.71996">
        <ele>93.87</ele>
        <time>2013-07-07T13:19:47Z</time>
      </trkpt>
      <trkpt lat="48.39402" lon="2.71982">
        <ele>94.35</ele>
        <time>2013-07-07T13:19:59Z</time>
      </trkpt>
      <trkpt lat="48.39406" lon="2.7198">
        <ele>94.35</ele>
        <time>2013-07-07T13:20:03Z</time>
      </trkpt>
      <trkpt lat="48.39407" lon="2.71978">
        <ele>95.31</ele>
        <time>2013-07-07T13:20:05Z</time>
      </trkpt>
      <trkpt lat="48.39399" lon="2.71974">
        <ele>97.71</ele>
        <time>2013-07-07T13:20:19Z</time>
      </trkpt>
      <trkpt lat="48.394" lon="2.71971">
        <ele>98.19</ele>
        <time>2013-07-07T13:20:24Z</time>
      </trkpt>
      <trkpt lat="48.39403" lon="2.71968">
        <ele>97.71</ele>
        <time>2013-07-07T13:20:29Z</time>
      </trkpt>
      <trkpt lat="48.39409" lon="2.71963">
        <ele>98.19</ele>
        <time>2013-07-07T13:20:40Z</time>
      </trkpt>
      <trkpt lat="48.39414" lon="2.71958">
        <ele>97.23</ele>
        <time>2013-07-07T13:20:49Z</time>
      </trkpt>
      <trkpt lat="48.39422" lon="2.71939">
        <ele>98.19</ele>
        <time>2013-07-07T13:21:00Z</time>
      </trkpt>
      <trkpt lat="48.3942" lon="2.71932">
        <ele>100.6</ele>
        <time>2013-07-07T13:21:12Z</time>
      </trkpt>
      <trkpt lat="48.39419" lon="2.7193">
        <ele>100.11</ele>
        <time>2013-07-07T13:21:13Z</time>
      </trkpt>
      <trkpt lat="48.39415" lon="2.71915">
        <ele>102.04</ele>
        <time>2013-07-07T13:21:25Z</time>
      </trkpt>
      <trkpt lat="48.39415" lon="2.719">
        <ele>103</ele>
        <time>2013-07-07T13:21:36Z</time>
      </trkpt>
      <trkpt lat="48.39412" lon="2.71895">
        <ele>104.44</ele>
        <time>2013-07-07T13:21:40Z</time>
      </trkpt>
      <trkpt lat="48.3941" lon="2.71892">
        <ele>105.4</ele>
        <time>2013-07-07T13:21:44Z</time>
      </trkpt>
      <trkpt lat="48.39408" lon="2.71893">
        <ele>104.92</ele>
        <time>2013-07-07T13:21:47Z</time>
      </trkpt>
      <trkpt lat="48.39403" lon="2.719">
        <ele>106.36</ele>
        <time>2013-07-07T13:21:58Z</time>
      </trkpt>
      <trkpt lat="48.39403" lon="2.71902">
        <ele>107.32</ele>
        <time>2013-07-07T13:21:59Z</time>
      </trkpt>
      <trkpt lat="48.39401" lon="2.71908">
        <ele>109.25</ele>
        <time>2013-07-07T13:22:08Z</time>
      </trkpt>
      <trkpt lat="48.39401" lon="2.71907">
        <ele>109.25</ele>
        <time>2013-07-07T13:22:09Z</time>
      </trkpt>
      <trkpt lat="48.39399" lon="2.71905">
        <ele>110.21</ele>
        <time>2013-07-07T13:22:27Z</time>
      </trkpt>
      <trkpt lat="48.39397" lon="2.719">
        <ele>111.17</ele>
        <time>2013-07-07T13:22:37Z</time>
      </trkpt>
      <trkpt lat="48.39395" lon="2.71903">
        <ele>112.61</ele>
        <time>2013-07-07T13:22:46Z</time>
      </trkpt>
      <trkpt lat="48.39393" lon="2.71913">
        <ele>113.57</ele>
        <time>2013-07-07T13:22:59Z</time>
      </trkpt>
      <trkpt lat="48.39393" lon="2.71913">
        <ele>113.57</ele>
        <time>2013-07-07T13:23:02Z</time>
      </trkpt>
      <trkpt lat="48.39383" lon="2.71911">
        <ele>112.13</ele>
        <time>2013-07-07T13:23:15Z</time>
      </trkpt>
      <trkpt lat="48.39376" lon="2.71905">
        <ele>111.65</ele>
        <time>2013-07-07T13:23:33Z</time>
      </trkpt>
      <trkpt lat="48.39379" lon="2.71898">
        <ele>111.17</ele>
        <time>2013-07-07T13:23:41Z</time>
      </trkpt>
      <trkpt lat="48.39381" lon="2.71888">
        <ele>110.69</ele>
        <time>2013-07-07T13:23:50Z</time>
      </trkpt>
      <trkpt lat="48.39365" lon="2.71874">
        <ele>110.21</ele>
        <time>2013-07-07T13:24:02Z</time>
      </trkpt>
      <trkpt lat="48.39365" lon="2.71866">
        <ele>108.29</ele>
        <time>2013-07-07T13:24:12Z</time>
      </trkpt>
      <trkpt lat="48.39366" lon="2.71865">
        <ele>107.81</ele>
        <time>2013-07-07T13:24:14Z</time>
      </trkpt>
      <trkpt lat="48.39368" lon="2.71857">
        <ele>107.32</ele>
        <time>2013-07-07T13:24:24Z</time>
      </trkpt>
      <trkpt lat="48.39367" lon="2.71856">
        <ele>107.32</ele>
        <time>2013-07-07T13:24:25Z</time>
      </trkpt>
      <trkpt lat="48.39363" lon="2.71852">
        <ele>105.88</ele>
        <time>2013-07-07T13:24:30Z</time>
      </trkpt>
      <trkpt lat="48.39365" lon="2.71836">
        <ele>103.96</ele>
        <time>2013-07-07T13:24:40Z</time>
      </trkpt>
      <trkpt lat="48.39366" lon="2.71833">
        <ele>103.48</ele>
        <time>2013-07-07T13:24:42Z</time>
      </trkpt>
      <trkpt lat="48.39364" lon="2.7183">
        <ele>103</ele>
        <time>2013-07-07T13:24:47Z</time>
      </trkpt>
      <trkpt lat="48.39355" lon="2.71823">
        <ele>103</ele>
        <time>2013-07-07T13:24:57Z</time>
      </trkpt>
      <trkpt lat="48.39351" lon="2.7181">
        <ele>102.04</ele>
        <time>2013-07-07T13:25:05Z</time>
      </trkpt>
      <trkpt lat="48.39354" lon="2.71806">
        <ele>100.6</ele>
        <time>2013-07-07T13:25:10Z</time>
      </trkpt>
      <trkpt lat="48.3935" lon="2.71797">
        <ele>99.15</ele>
        <time>2013-07-07T13:25:16Z</time>
      </trkpt>
      <trkpt lat="48.39344" lon="2.71788">
        <ele>99.15</ele>
        <time>2013-07-07T13:25:23Z</time>
      </trkpt>
      <trkpt lat="48.39345" lon="2.71767">
        <ele>97.23</ele>
        <time>2013-07-07T13:25:35Z</time>
      </trkpt>
      <trkpt lat="48.39345" lon="2.71767">
        <ele>95.79</ele>
        <time>2013-07-07T13:26:13Z</time>
      </trkpt>
      <trkpt lat="48.3935" lon="2.71765">
        <ele>95.31</ele>
        <time>2013-07-07T13:26:28Z</time>
      </trkpt>
      <trkpt lat="48.39353" lon="2.71761">
        <ele>96.27</ele>
        <time>2013-07-07T13:26:52Z</time>
      </trkpt>
      <trkpt lat="48.39353" lon="2.71762">
        <ele>96.27</ele>
        <time>2013-07-07T13:27:38Z</time>
      </trkpt>
      <trkpt lat="48.39353" lon="2.71761">
        <ele>95.79</ele>
        <time>2013-07-07T13:28:15Z</time>
      </trkpt>
      <trkpt lat="48.39353" lon="2.71761">
        <ele>92.9</ele>
        <time>2013-07-07T13:28:20Z</time>
      </trkpt>
      <trkpt lat="48.39353" lon="2.71761">
        <ele>95.79</ele>
        <time>2013-07-07T13:28:25Z</time>
      </trkpt>
      <trkpt lat="48.39353" lon="2.7176">
        <ele>95.31</ele>
        <time>2013-07-07T13:28:54Z</time>
      </trkpt>
      <trkpt lat="48.39353" lon="2.7176">
        <ele>92.42</ele>
        <time>2013-07-07T13:28:59Z</time>
      </trkpt>
      <trkpt lat="48.39353" lon="2.7176">
        <ele>95.31</ele>
        <time>2013-07-07T13:29:01Z</time>
      </trkpt>
      <trkpt lat="48.39353" lon="2.7175">
        <ele>95.31</ele>
        <time>2013-07-07T13:29:12Z</time>
      </trkpt>
      <trkpt lat="48.39359" lon="2.71737">
        <ele>96.75</ele>
        <time>2013-07-07T13:29:24Z</time>
      </trkpt>
      <trkpt lat="48.39375" lon="2.71728">
        <ele>93.87</ele>
        <time>2013-07-07T13:29:41Z</time>
      </trkpt>
      <trkpt lat="48.39371" lon="2.71712">
        <ele>95.79</ele>
        <time>2013-07-07T13:29:55Z</time>
      </trkpt>
      <trkpt lat="48.39364" lon="2.71708">
        <ele>96.27</ele>
        <time>2013-07-07T13:30:03Z</time>
      </trkpt>
      <trkpt lat="48.39354" lon="2.71715">
        <ele>96.27</ele>
        <time>2013-07-07T13:30:16Z</time>
      </trkpt>
      <trkpt lat="48.39348" lon="2.7172">
        <ele>96.27</ele>
        <time>2013-07-07T13:30:25Z</time>
      </trkpt>
      <trkpt lat="48.39335" lon="2.71722">
        <ele>95.79</ele>
        <time>2013-07-07T13:30:38Z</time>
      </trkpt>
      <trkpt lat="48.39334" lon="2.717">
        <ele>94.83</ele>
        <time>2013-07-07T13:30:49Z</time>
      </trkpt>
      <trkpt lat="48.39337" lon="2.71683">
        <ele>94.83</ele>
        <time>2013-07-07T13:30:57Z</time>
      </trkpt>
      <trkpt lat="48.39343" lon="2.71677">
        <ele>94.83</ele>
        <time>2013-07-07T13:31:02Z</time>
      </trkpt>
      <trkpt lat="48.39349" lon="2.71659">
        <ele>94.83</ele>
        <time>2013-07-07T13:31:14Z</time>
      </trkpt>
      <trkpt lat="48.39354" lon="2.71645">
        <ele>93.87</ele>
        <time>2013-07-07T13:31:24Z</time>
      </trkpt>
      <trkpt lat="48.39366" lon="2.71631">
        <ele>93.87</ele>
        <time>2013-07-07T13:31:35Z</time>
      </trkpt>
      <trkpt lat="48.39373" lon="2.71616">
        <ele>93.39</ele>
        <time>2013-07-07T13:31:46Z</time>
      </trkpt>
      <trkpt lat="48.39382" lon="2.71608">
        <ele>92.9</ele>
        <time>2013-07-07T13:31:56Z</time>
      </trkpt>
      <trkpt lat="48.39386" lon="2.71604">
        <ele>93.39</ele>
        <time>2013-07-07T13:31:59Z</time>
      </trkpt>
      <trkpt lat="48.39393" lon="2.71592">
        <ele>93.39</ele>
        <time>2013-07-07T13:32:11Z</time>
      </trkpt>
      <trkpt lat="48.39401" lon="2.71584">
        <ele>92.42</ele>
        <time>2013-07-07T13:32:21Z</time>
      </trkpt>
      <trkpt lat="48.39406" lon="2.71582">
        <ele>92.9</ele>
        <time>2013-07-07T13:32:24Z</time>
      </trkpt>
      <trkpt lat="48.39407" lon="2.71578">
        <ele>94.35</ele>
        <time>2013-07-07T13:32:28Z</time>
      </trkpt>
      <trkpt lat="48.39394" lon="2.71571">
        <ele>96.27</ele>
        <time>2013-07-07T13:32:43Z</time>
      </trkpt>
      <trkpt lat="48.39392" lon="2.71572">
        <ele>95.31</ele>
        <time>2013-07-07T13:32:45Z</time>
      </trkpt>
      <trkpt lat="48.39389" lon="2.71573">
        <ele>96.27</ele>
        <time>2013-07-07T13:32:49Z</time>
      </trkpt>
      <trkpt lat="48.39383" lon="2.71573">
        <ele>96.75</ele>
        <time>2013-07-07T13:32:53Z</time>
      </trkpt>
      <trkpt lat="48.39377" lon="2.71575">
        <ele>97.23</ele>
        <time>2013-07-07T13:33:01Z</time>
      </trkpt>
      <trkpt lat="48.39371" lon="2.71568">
        <ele>95.79</ele>
        <time>2013-07-07T13:33:08Z</time>
      </trkpt>
      <trkpt lat="48.39364" lon="2.71556">
        <ele>94.83</ele>
        <time>2013-07-07T13:33:17Z</time>
      </trkpt>
      <trkpt lat="48.39361" lon="2.71539">
        <ele>92.42</ele>
        <time>2013-07-07T13:33:29Z</time>
      </trkpt>
      <trkpt lat="48.39367" lon="2.71529">
        <ele>90.98</ele>
        <time>2013-07-07T13:33:39Z</time>
      </trkpt>
      <trkpt lat="48.39377" lon="2.71517">
        <ele>88.1</ele>
        <time>2013-07-07T13:33:50Z</time>
      </trkpt>
      <trkpt lat="48.39385" lon="2.71495">
        <ele>87.62</ele>
        <time>2013-07-07T13:34:02Z</time>
      </trkpt>
      <trkpt lat="48.39392" lon="2.71467">
        <ele>85.21</ele>
        <time>2013-07-07T13:34:16Z</time>
      </trkpt>
      <trkpt lat="48.39404" lon="2.71451">
        <ele>85.21</ele>
        <time>2013-07-07T13:34:26Z</time>
      </trkpt>
      <trkpt lat="48.39406" lon="2.7145">
        <ele>85.69</ele>
        <time>2013-07-07T13:34:28Z</time>
      </trkpt>
      <trkpt lat="48.39417" lon="2.71447">
        <ele>84.25</ele>
        <time>2013-07-07T13:34:39Z</time>
      </trkpt>
      <trkpt lat="48.3943" lon="2.71446">
        <ele>84.73</ele>
        <time>2013-07-07T13:34:52Z</time>
      </trkpt>
      <trkpt lat="48.39436" lon="2.71442">
        <ele>83.29</ele>
        <time>2013-07-07T13:34:56Z</time>
      </trkpt>
      <trkpt lat="48.39445" lon="2.71426">
        <ele>81.37</ele>
        <time>2013-07-07T13:35:08Z</time>
      </trkpt>
      <trkpt lat="48.39447" lon="2.71423">
        <ele>80.89</ele>
        <time>2013-07-07T13:35:10Z</time>
      </trkpt>
      <trkpt lat="48.39456" lon="2.71398">
        <ele>80.41</ele>
        <time>2013-07-07T13:35:22Z</time>
      </trkpt>
      <trkpt lat="48.39459" lon="2.71392">
        <ele>80.89</ele>
        <time>2013-07-07T13:35:26Z</time>
      </trkpt>
      <trkpt lat="48.39462" lon="2.7138">
        <ele>80.41</ele>
        <time>2013-07-07T13:35:31Z</time>
      </trkpt>
      <trkpt lat="48.39465" lon="2.71373">
        <ele>80.41</ele>
        <time>2013-07-07T13:35:34Z</time>
      </trkpt>
      <trkpt lat="48.39471" lon="2.7135">
        <ele>79.45</ele>
        <time>2013-07-07T13:35:48Z</time>
      </trkpt>
      <trkpt lat="48.39471" lon="2.71338">
        <ele>79.93</ele>
        <time>2013-07-07T13:35:55Z</time>
      </trkpt>
      <trkpt lat="48.39465" lon="2.71314">
        <ele>79.45</ele>
        <time>2013-07-07T13:36:06Z</time>
      </trkpt>
      <trkpt lat="48.3946" lon="2.71304">
        <ele>77.52</ele>
        <time>2013-07-07T13:36:12Z</time>
      </trkpt>
      <trkpt lat="48.39456" lon="2.71299">
        <ele>77.04</ele>
        <time>2013-07-07T13:36:16Z</time>
      </trkpt>
      <trkpt lat="48.39455" lon="2.71296">
        <ele>77.52</ele>
        <time>2013-07-07T13:36:19Z</time>
      </trkpt>
      <trkpt lat="48.39458" lon="2.71283">
        <ele>77.04</ele>
        <time>2013-07-07T13:36:24Z</time>
      </trkpt>
      <trkpt lat="48.39476" lon="2.71261">
        <ele>76.56</ele>
        <time>2013-07-07T13:36:40Z</time>
      </trkpt>
      <trkpt lat="48.39478" lon="2.71259">
        <ele>75.6</ele>
        <time>2013-07-07T13:36:42Z</time>
      </trkpt>
      <trkpt lat="48.39483" lon="2.71251">
        <ele>76.08</ele>
        <time>2013-07-07T13:36:48Z</time>
      </trkpt>
      <trkpt lat="48.39483" lon="2.71243">
        <ele>76.08</ele>
        <time>2013-07-07T13:36:53Z</time>
      </trkpt>
      <trkpt lat="48.39486" lon="2.71226">
        <ele>77.04</ele>
        <time>2013-07-07T13:37:00Z</time>
      </trkpt>
      <trkpt lat="48.39496" lon="2.71216">
        <ele>75.6</ele>
        <time>2013-07-07T13:37:12Z</time>
      </trkpt>
      <trkpt lat="48.39503" lon="2.71212">
        <ele>75.6</ele>
        <time>2013-07-07T13:37:21Z</time>
      </trkpt>
      <trkpt lat="48.3951" lon="2.71204">
        <ele>75.12</ele>
        <time>2013-07-07T13:37:31Z</time>
      </trkpt>
      <trkpt lat="48.39512" lon="2.71204">
        <ele>76.08</ele>
        <time>2013-07-07T13:37:35Z</time>
      </trkpt>
      <trkpt lat="48.39525" lon="2.71205">
        <ele>75.6</ele>
        <time>2013-07-07T13:37:45Z</time>
      </trkpt>
      <trkpt lat="48.39526" lon="2.71206">
        <ele>75.12</ele>
        <time>2013-07-07T13:37:49Z</time>
      </trkpt>
      <trkpt lat="48.3951" lon="2.71222">
        <ele>75.12</ele>
        <time>2013-07-07T13:38:10Z</time>
      </trkpt>
      <trkpt lat="48.39517" lon="2.71217">
        <ele>75.12</ele>
        <time>2013-07-07T13:38:16Z</time>
      </trkpt>
      <trkpt lat="48.39542" lon="2.71195">
        <ele>75.12</ele>
        <time>2013-07-07T13:38:29Z</time>
      </trkpt>
      <trkpt lat="48.39542" lon="2.71194">
        <ele>75.6</ele>
        <time>2013-07-07T13:38:30Z</time>
      </trkpt>
      <trkpt lat="48.39546" lon="2.71192">
        <ele>74.64</ele>
        <time>2013-07-07T13:38:33Z</time>
      </trkpt>
      <trkpt lat="48.3955" lon="2.71191">
        <ele>73.2</ele>
        <time>2013-07-07T13:38:43Z</time>
      </trkpt>
      <trkpt lat="48.39551" lon="2.71191">
        <ele>74.16</ele>
        <time>2013-07-07T13:39:03Z</time>
      </trkpt>
      <trkpt lat="48.39551" lon="2.71191">
        <ele>74.16</ele>
        <time>2013-07-07T13:39:19Z</time>
      </trkpt>
      <trkpt lat="48.39552" lon="2.71191">
        <ele>74.64</ele>
        <time>2013-07-07T13:39:34Z</time>
      </trkpt>
      <trkpt lat="48.39551" lon="2.71191">
        <ele>74.16</ele>
        <time>2013-07-07T13:40:25Z</time>
      </trkpt>
      <trkpt lat="48.3955" lon="2.71191">
        <ele>74.16</ele>
        <time>2013-07-07T13:40:51Z</time>
      </trkpt>
      <trkpt lat="48.39549" lon="2.71192">
        <ele>75.12</ele>
        <time>2013-07-07T13:41:37Z</time>
      </trkpt>
      <trkpt lat="48.39559" lon="2.71194">
        <ele>74.16</ele>
        <time>2013-07-07T13:41:46Z</time>
      </trkpt>
      <trkpt lat="48.39567" lon="2.71183">
        <ele>73.68</ele>
        <time>2013-07-07T13:41:55Z</time>
      </trkpt>
      <trkpt lat="48.39579" lon="2.71178">
        <ele>73.68</ele>
        <time>2013-07-07T13:42:06Z</time>
      </trkpt>
      <trkpt lat="48.39587" lon="2.71181">
        <ele>73.2</ele>
        <time>2013-07-07T13:42:17Z</time>
      </trkpt>
      <trkpt lat="48.39591" lon="2.7118">
        <ele>73.2</ele>
        <time>2013-07-07T13:42:23Z</time>
      </trkpt>
      <trkpt lat="48.39608" lon="2.71173">
        <ele>73.2</ele>
        <time>2013-07-07T13:42:35Z</time>
      </trkpt>
      <trkpt lat="48.39623" lon="2.71166">
        <ele>73.2</ele>
        <time>2013-07-07T13:42:45Z</time>
      </trkpt>
      <trkpt lat="48.39629" lon="2.7116">
        <ele>74.64</ele>
        <time>2013-07-07T13:42:51Z</time>
      </trkpt>
      <trkpt lat="48.39647" lon="2.71154">
        <ele>74.16</ele>
        <time>2013-07-07T13:43:02Z</time>
      </trkpt>
      <trkpt lat="48.39657" lon="2.71147">
        <ele>74.64</ele>
        <time>2013-07-07T13:43:15Z</time>
      </trkpt>
      <trkpt lat="48.39664" lon="2.7114">
        <ele>74.16</ele>
        <time>2013-07-07T13:43:19Z</time>
      </trkpt>
      <trkpt lat="48.39665" lon="2.71119">
        <ele>73.2</ele>
        <time>2013-07-07T13:43:31Z</time>
      </trkpt>
      <trkpt lat="48.39664" lon="2.71101">
        <ele>74.16</ele>
        <time>2013-07-07T13:43:37Z</time>
      </trkpt>
      <trkpt lat="48.39667" lon="2.71092">
        <ele>72.72</ele>
        <time>2013-07-07T13:43:44Z</time>
      </trkpt>
      <trkpt lat="48.39683" lon="2.71072">
        <ele>72.72</ele>
        <time>2013-07-07T13:43:57Z</time>
      </trkpt>
      <trkpt lat="48.3969" lon="2.71063">
        <ele>73.2</ele>
        <time>2013-07-07T13:44:08Z</time>
      </trkpt>
      <trkpt lat="48.39692" lon="2.71048">
        <ele>73.68</ele>
        <time>2013-07-07T13:44:15Z</time>
      </trkpt>
      <trkpt lat="48.39704" lon="2.71037">
        <ele>72.24</ele>
        <time>2013-07-07T13:44:29Z</time>
      </trkpt>
      <trkpt lat="48.39723" lon="2.71025">
        <ele>72.72</ele>
        <time>2013-07-07T13:44:45Z</time>
      </trkpt>
      <trkpt lat="48.39734" lon="2.71014">
        <ele>71.76</ele>
        <time>2013-07-07T13:44:53Z</time>
      </trkpt>
      <trkpt lat="48.3975" lon="2.71003">
        <ele>71.27</ele>
        <time>2013-07-07T13:45:05Z</time>
      </trkpt>
      <trkpt lat="48.39756" lon="2.70999">
        <ele>73.2</ele>
        <time>2013-07-07T13:45:09Z</time>
      </trkpt>
      <trkpt lat="48.39768" lon="2.70992">
        <ele>72.72</ele>
        <time>2013-07-07T13:45:20Z</time>
      </trkpt>
      <trkpt lat="48.39783" lon="2.70975">
        <ele>71.76</ele>
        <time>2013-07-07T13:45:39Z</time>
      </trkpt>
      <trkpt lat="48.39802" lon="2.70961">
        <ele>71.76</ele>
        <time>2013-07-07T13:45:55Z</time>
      </trkpt>
      <trkpt lat="48.39821" lon="2.70941">
        <ele>71.27</ele>
        <time>2013-07-07T13:46:09Z</time>
      </trkpt>
      <trkpt lat="48.39833" lon="2.70932">
        <ele>71.27</ele>
        <time>2013-07-07T13:46:22Z</time>
      </trkpt>
      <trkpt lat="48.3985" lon="2.70921">
        <ele>70.79</ele>
        <time>2013-07-07T13:46:35Z</time>
      </trkpt>
      <trkpt lat="48.39859" lon="2.70916">
        <ele>70.79</ele>
        <time>2013-07-07T13:46:48Z</time>
      </trkpt>
      <trkpt lat="48.39882" lon="2.70895">
        <ele>70.79</ele>
        <time>2013-07-07T13:47:03Z</time>
      </trkpt>
      <trkpt lat="48.39892" lon="2.70887">
        <ele>69.83</ele>
        <time>2013-07-07T13:47:13Z</time>
      </trkpt>
      <trkpt lat="48.39905" lon="2.70868">
        <ele>68.87</ele>
        <time>2013-07-07T13:47:24Z</time>
      </trkpt>
      <trkpt lat="48.3992" lon="2.70855">
        <ele>69.35</ele>
        <time>2013-07-07T13:47:37Z</time>
      </trkpt>
      <trkpt lat="48.39922" lon="2.70855">
        <ele>68.87</ele>
        <time>2013-07-07T13:48:25Z</time>
      </trkpt>
      <trkpt lat="48.39928" lon="2.70851">
        <ele>65.99</ele>
        <time>2013-07-07T13:48:35Z</time>
      </trkpt>
      <trkpt lat="48.3993" lon="2.70849">
        <ele>69.35</ele>
        <time>2013-07-07T13:48:40Z</time>
      </trkpt>
      <trkpt lat="48.3993" lon="2.70848">
        <ele>67.91</ele>
        <time>2013-07-07T13:48:44Z</time>
      </trkpt>
      <trkpt lat="48.39932" lon="2.70847">
        <ele>68.39</ele>
        <time>2013-07-07T13:49:03Z</time>
      </trkpt>
    </trkseg>
  </trk>
</gpx>